Provisional Data: West Creek near Weber City, PA


Please select a monitoring station.
Please select start date.
Please select start date.

Toggle Unit: C/F Toggle Unit: C/F
Sample Time Temperature (C) Temperature (F) Specific Conductivity (mS/cm) pH   Turbidity (NTU+) DO (mg/L)
1/12/2021 12:00:00 AM 0.95 33.71 0.073 6.75 1.88 13.7
1/12/2021 12:15:00 AM 0.96 33.728 0.073 6.76 1.9 13.71
1/12/2021 12:30:00 AM 0.96 33.728 0.073 6.76 1.9 13.7
1/12/2021 12:45:00 AM 0.96 33.728 0.073 6.76 1.89 13.7
1/12/2021 1:00:00 AM 0.96 33.728 0.073 6.75 1.9 13.7
1/12/2021 1:15:00 AM 0.96 33.728 0.073 6.76 1.9 13.71
1/12/2021 1:30:00 AM 0.95 33.71 0.073 6.76 1.89 13.71
1/12/2021 1:45:00 AM 0.94 33.692 0.073 6.76 1.86 13.7
1/12/2021 2:00:00 AM 0.94 33.692 0.073 6.76 1.92 13.71
1/12/2021 2:15:00 AM 0.94 33.692 0.073 6.76 1.92 13.71
1/12/2021 2:30:00 AM 0.94 33.692 0.073 6.76 1.83 13.71
1/12/2021 2:45:00 AM 0.93 33.674 0.073 6.75 1.86 13.72
1/12/2021 3:00:00 AM 0.93 33.674 0.073 6.75 1.85 13.71
1/12/2021 3:15:00 AM 0.93 33.674 0.074 6.76 1.86 13.72
1/12/2021 3:30:00 AM 0.92 33.656 0.074 6.76 1.82 13.72
1/12/2021 3:45:00 AM 0.92 33.656 0.074 6.76 1.87 13.72
1/12/2021 4:00:00 AM 0.93 33.674 0.074 6.76 1.88 13.72
1/12/2021 4:15:00 AM 0.93 33.674 0.074 6.76 1.76 13.71
1/12/2021 4:30:00 AM 0.93 33.674 0.074 6.76 1.79 13.71
1/12/2021 4:45:00 AM 0.92 33.656 0.074 6.76 1.83 13.71
1/12/2021 5:00:00 AM 0.92 33.656 0.074 6.76 1.81 13.7
1/12/2021 5:15:00 AM 0.93 33.674 0.075 6.76 1.8 13.71
1/12/2021 5:30:00 AM 0.92 33.656 0.075 6.76 1.83 13.71
1/12/2021 5:45:00 AM 0.91 33.638 0.075 6.76 1.85 13.71
1/12/2021 6:00:00 AM 0.91 33.638 0.075 6.76 1.82 13.71
1/12/2021 6:15:00 AM 0.89 33.602 0.075 6.76 1.83 13.72
1/12/2021 6:30:00 AM 0.88 33.584 0.075 6.76 1.85 13.72
1/12/2021 6:45:00 AM 0.88 33.584 0.075 6.76 1.81 13.72
1/12/2021 7:00:00 AM 0.88 33.584 0.076 6.76 1.81 13.72
1/12/2021 7:15:00 AM 0.87 33.566 0.076 6.76 1.85 13.73
1/12/2021 7:30:00 AM 0.86 33.548 0.076 6.76 1.81 13.73
1/12/2021 7:45:00 AM 0.86 33.548 0.076 6.76 1.8 13.74
1/12/2021 8:00:00 AM 0.85 33.53 0.076 6.76 1.81 13.75
1/12/2021 8:15:00 AM 0.85 33.53 0.076 6.76 1.81 13.77
1/12/2021 8:30:00 AM 0.86 33.548 0.076 6.77 1.82 13.79
1/12/2021 8:45:00 AM 0.86 33.548 0.076 6.78 1.87 13.83
1/12/2021 9:00:00 AM 0.86 33.548 0.076 6.78 1.8 13.85
1/12/2021 9:15:00 AM 0.86 33.548 0.076 6.79 1.8 13.86
1/12/2021 9:30:00 AM 0.88 33.584 0.076 6.79 1.83 13.89
1/12/2021 9:45:00 AM 0.89 33.602 0.076 6.8 1.76 13.92
1/12/2021 10:00:00 AM 0.9 33.62 0.076 6.81 1.74 13.94
1/12/2021 10:15:00 AM 0.93 33.674 0.076 6.81 1.73 13.96
1/12/2021 10:30:00 AM 0.96 33.728 0.076 6.82 1.77 13.97
1/12/2021 10:45:00 AM 0.99 33.782 0.075 6.83 1.76 13.97
1/12/2021 11:00:00 AM 1.02 33.836 0.075 6.83 1.75 13.98
1/12/2021 11:15:00 AM 1.11 33.998 0.075 6.83 1.79 13.97
1/12/2021 11:30:00 AM 1.16 34.088 0.075 6.85 1.76 13.97
1/12/2021 11:45:00 AM 1.22 34.196 0.075 6.85 1.74 13.96
1/12/2021 12:00:00 PM 1.27 34.286 0.075 6.85 1.78 13.95
1/12/2021 12:15:00 PM 1.33 34.394 0.075 6.86 1.75 13.94
1/12/2021 12:30:00 PM 1.39 34.502 0.075 6.86 1.8 13.92
1/12/2021 12:45:00 PM 1.43 34.574 0.075 6.86 1.77 13.91
1/12/2021 1:00:00 PM 1.46 34.628 0.075 6.86 1.74 13.89
1/12/2021 1:15:00 PM 1.52 34.736 0.075 6.87 1.73 13.88
1/12/2021 1:30:00 PM 1.57 34.826 0.075 6.87 1.79 13.87
1/12/2021 1:45:00 PM 1.6 34.88 0.075 6.87 1.73 13.85
1/12/2021 2:00:00 PM 1.63 34.934 0.074 6.86 1.78 13.83
1/12/2021 2:15:00 PM 1.66 34.988 0.074 6.86 1.74 13.82
1/12/2021 2:30:00 PM 1.68 35.024 0.074 6.86 1.76 13.8
1/12/2021 2:45:00 PM 1.69 35.042 0.074 6.87 1.85 13.78
1/12/2021 3:00:00 PM 1.7 35.06 0.074 6.87 1.76 13.76
1/12/2021 3:15:00 PM 1.7 35.06 0.074 6.87 1.75 13.75
1/12/2021 3:30:00 PM 1.7 35.06 0.074 6.87 1.79 13.73
1/12/2021 3:45:00 PM 1.7 35.06 0.074 6.87 1.79 13.71
1/12/2021 4:00:00 PM 1.68 35.024 0.074 6.86 1.79 13.7
1/12/2021 4:15:00 PM 1.68 35.024 0.074 6.85 1.79 13.68
1/12/2021 4:30:00 PM 1.66 34.988 0.074 6.85 1.79 13.65
1/12/2021 4:45:00 PM 1.65 34.97 0.074 6.84 1.73 13.63
1/12/2021 5:00:00 PM 1.63 34.934 0.074 6.83 1.81 13.6
1/12/2021 5:15:00 PM 1.62 34.916 0.074 6.83 1.79 13.57
1/12/2021 5:30:00 PM 1.6 34.88 0.074 6.82 1.79 13.55
1/12/2021 5:45:00 PM 1.59 34.862 0.074 6.81 1.81 13.54
1/12/2021 6:00:00 PM 1.57 34.826 0.074 6.81 1.82 13.52
1/12/2021 6:15:00 PM 1.56 34.808 0.074 6.8 1.78 13.51
1/12/2021 6:30:00 PM 1.55 34.79 0.074 6.79 1.82 13.5
1/12/2021 6:45:00 PM 1.54 34.772 0.074 6.8 1.76 13.49
1/12/2021 7:00:00 PM 1.53 34.754 0.075 6.79 1.82 13.49
1/12/2021 7:15:00 PM 1.52 34.736 0.075 6.79 1.83 13.49
1/12/2021 7:30:00 PM 1.51 34.718 0.075 6.79 1.85 13.48
1/12/2021 7:45:00 PM 1.5 34.7 0.075 6.79 1.81 13.48
1/12/2021 8:00:00 PM 1.49 34.682 0.075 6.79 1.87 13.48
1/12/2021 8:15:00 PM 1.48 34.664 0.075 6.79 1.87 13.48
1/12/2021 8:30:00 PM 1.47 34.646 0.075 6.79 1.84 13.48
1/12/2021 8:45:00 PM 1.46 34.628 0.075 6.79 1.8 13.48
1/12/2021 9:00:00 PM 1.45 34.61 0.075 6.79 1.83 13.48
1/12/2021 9:15:00 PM 1.44 34.592 0.075 6.78 1.9 13.48
1/12/2021 9:30:00 PM 1.44 34.592 0.075 6.79 1.85 13.48
1/12/2021 9:45:00 PM 1.43 34.574 0.075 6.78 1.84 13.49
1/12/2021 10:00:00 PM 1.41 34.538 0.075 6.78 1.81 13.49
1/12/2021 10:15:00 PM 1.4 34.52 0.075 6.79 1.86 13.5
1/12/2021 10:30:00 PM 1.39 34.502 0.075 6.78 1.84 13.5
1/12/2021 10:45:00 PM 1.38 34.484 0.075 6.79 1.86 13.5
1/12/2021 11:00:00 PM 1.37 34.466 0.075 6.78 1.8 13.51
1/12/2021 11:15:00 PM 1.35 34.43 0.075 6.78 1.78 13.51
1/12/2021 11:30:00 PM 1.34 34.412 0.075 6.78 1.8 13.52
1/12/2021 11:45:00 PM 1.33 34.394 0.075 6.78 1.76 13.52
1/13/2021 12:00:00 AM 1.31 34.358 0.075 6.78 1.79 13.52
1/13/2021 12:15:00 AM 1.3 34.34 0.075 6.78 1.83 13.53
1/13/2021 12:30:00 AM 1.29 34.322 0.075 6.78 1.8 13.53
1/13/2021 12:45:00 AM 1.27 34.286 0.075 6.78 1.8 13.54
1/13/2021 1:00:00 AM 1.26 34.268 0.075 6.78 1.76 13.54
1/13/2021 1:15:00 AM 1.24 34.232 0.075 6.78 1.8 13.55
1/13/2021 1:30:00 AM 1.23 34.214 0.075 6.78 1.79 13.55
1/13/2021 1:45:00 AM 1.21 34.178 0.075 6.78 1.86 13.56
1/13/2021 2:00:00 AM 1.2 34.16 0.075 6.78 1.83 13.57
1/13/2021 2:15:00 AM 1.18 34.124 0.075 6.78 1.81 13.57
1/13/2021 2:30:00 AM 1.17 34.106 0.075 6.77 1.75 13.58
1/13/2021 2:45:00 AM 1.16 34.088 0.075 6.78 1.76 13.58
1/13/2021 3:00:00 AM 1.14 34.052 0.075 6.78 1.81 13.59
1/13/2021 3:15:00 AM 1.13 34.034 0.075 6.78 1.75 13.59
1/13/2021 3:30:00 AM 1.12 34.016 0.075 6.78 1.75 13.6
1/13/2021 3:45:00 AM 1.11 33.998 0.075 6.78 1.77 13.6
1/13/2021 4:00:00 AM 1.1 33.98 0.075 6.78 1.79 13.61
1/13/2021 4:15:00 AM 1.09 33.962 0.075 6.78 1.78 13.61
1/13/2021 4:30:00 AM 1.07 33.926 0.075 6.78 1.8 13.61
1/13/2021 4:45:00 AM 1.06 33.908 0.075 6.78 1.86 13.61
1/13/2021 5:00:00 AM 1.05 33.89 0.075 6.78 1.78 13.62
1/13/2021 5:15:00 AM 1.04 33.872 0.075 6.78 1.8 13.62
1/13/2021 5:30:00 AM 1.04 33.872 0.075 6.78 1.74 13.63
1/13/2021 5:45:00 AM 1.03 33.854 0.075 6.78 1.7 13.63
1/13/2021 6:00:00 AM 1.02 33.836 0.075 6.78 1.77 13.62
1/13/2021 6:15:00 AM 1.02 33.836 0.075 6.78 1.75 13.63
1/13/2021 6:30:00 AM 1.01 33.818 0.075 6.78 1.72 13.63
1/13/2021 6:45:00 AM 1 33.8 0.075 6.77 1.76 13.64
1/13/2021 7:00:00 AM 0.99 33.782 0.075 6.77 1.71 13.63
1/13/2021 7:15:00 AM 0.99 33.782 0.075 6.78 1.72 13.64
1/13/2021 7:30:00 AM 0.98 33.764 0.075 6.78 1.73 13.64
1/13/2021 7:45:00 AM 0.98 33.764 0.075 6.78 1.73 13.65
1/13/2021 8:00:00 AM 0.97 33.746 0.075 6.78 1.71 13.64
1/13/2021 8:15:00 AM 0.97 33.746 0.075 6.79 1.76 13.66
1/13/2021 8:30:00 AM 0.96 33.728 0.075 6.78 1.75 13.67
1/13/2021 8:45:00 AM 0.96 33.728 0.075 6.79 1.66 13.69
1/13/2021 9:00:00 AM 0.97 33.746 0.075 6.8 1.69 13.73
1/13/2021 9:15:00 AM 0.97 33.746 0.075 6.8 1.7 13.76
1/13/2021 9:30:00 AM 0.98 33.764 0.075 6.81 1.65 13.78
1/13/2021 9:45:00 AM 0.99 33.782 0.075 6.82 1.7 13.81
1/13/2021 10:00:00 AM 1.01 33.818 0.075 6.82 1.69 13.82
1/13/2021 10:15:00 AM 1.03 33.854 0.075 6.83 1.7 13.85
1/13/2021 10:30:00 AM 1.06 33.908 0.075 6.84 1.66 13.86
1/13/2021 10:45:00 AM 1.1 33.98 0.075 6.85 1.66 13.87
1/13/2021 11:00:00 AM 1.12 34.016 0.075 6.85 1.67 13.88
1/13/2021 11:15:00 AM 1.16 34.088 0.075 6.85 1.68 13.88
1/13/2021 11:30:00 AM 1.2 34.16 0.075 6.86 1.71 13.88
1/13/2021 11:45:00 AM 1.22 34.196 0.075 6.86 1.61 13.88
1/13/2021 12:00:00 PM 1.26 34.268 0.075 6.87 1.64 13.87
1/13/2021 12:15:00 PM 1.31 34.358 0.075 6.87 1.68 13.86
1/13/2021 12:30:00 PM 1.37 34.466 0.075 6.88 1.67 13.85
1/13/2021 12:45:00 PM 1.42 34.556 0.075 6.88 1.66 13.84
1/13/2021 1:00:00 PM 1.48 34.664 0.075 6.88 1.73 13.82
1/13/2021 1:15:00 PM 1.54 34.772 0.075 6.89 1.84 13.81
1/13/2021 1:30:00 PM 1.6 34.88 0.075 6.89 1.7 13.8
1/13/2021 1:45:00 PM 1.66 34.988 0.075 6.89 1.72 13.78
1/13/2021 2:00:00 PM 1.7 35.06 0.075 6.89 1.67 13.76
1/13/2021 2:15:00 PM 1.75 35.15 0.075 6.9 1.65 13.73
1/13/2021 2:30:00 PM 1.79 35.222 0.075 6.9 1.7 13.72
1/13/2021 2:45:00 PM 1.83 35.294 0.075 6.9 1.63 13.69
1/13/2021 3:00:00 PM 1.85 35.33 0.075 6.9 1.67 13.67
1/13/2021 3:15:00 PM 1.89 35.402 0.075 6.9 1.65 13.65
1/13/2021 3:30:00 PM 1.92 35.456 0.075 6.9 1.67 13.64
1/13/2021 3:45:00 PM 1.95 35.51 0.075 6.9 1.69 13.62
1/13/2021 4:00:00 PM 1.96 35.528 0.075 6.9 1.68 13.6
1/13/2021 4:15:00 PM 1.96 35.528 0.075 6.9 1.68 13.59
1/13/2021 4:30:00 PM 1.96 35.528 0.075 6.9 1.69 13.56
1/13/2021 4:45:00 PM 1.95 35.51 0.075 6.89 1.68 13.52
1/13/2021 5:00:00 PM 1.94 35.492 0.075 6.88 1.68 13.49
1/13/2021 5:15:00 PM 1.92 35.456 0.075 6.86 1.7 13.43
1/13/2021 5:30:00 PM 1.9 35.42 0.075 6.86 1.69 13.41
1/13/2021 5:45:00 PM 1.88 35.384 0.075 6.85 1.69 13.38
1/13/2021 6:00:00 PM 1.86 35.348 0.075 6.84 1.74 13.36
1/13/2021 6:15:00 PM 1.84 35.312 0.075 6.83 1.7 13.34
1/13/2021 6:30:00 PM 1.82 35.276 0.075 6.83 1.69 13.33
1/13/2021 6:45:00 PM 1.8 35.24 0.075 6.82 1.75 13.33
1/13/2021 7:00:00 PM 1.78 35.204 0.075 6.82 1.72 13.32
1/13/2021 7:15:00 PM 1.76 35.168 0.075 6.81 1.71 13.32
1/13/2021 7:30:00 PM 1.75 35.15 0.075 6.81 1.72 13.31
1/13/2021 7:45:00 PM 1.73 35.114 0.075 6.81 1.8 13.3
1/13/2021 8:00:00 PM 1.72 35.096 0.075 6.8 1.73 13.31
1/13/2021 8:15:00 PM 1.7 35.06 0.075 6.8 1.75 13.31
1/13/2021 8:30:00 PM 1.69 35.042 0.076 6.8 1.75 13.3
1/13/2021 8:45:00 PM 1.68 35.024 0.076 6.8 1.77 13.3
1/13/2021 9:00:00 PM 1.66 34.988 0.076 6.8 1.73 13.31
1/13/2021 9:15:00 PM 1.65 34.97 0.076 6.8 1.73 13.31
1/13/2021 9:30:00 PM 1.64 34.952 0.076 6.79 1.76 13.31
1/13/2021 9:45:00 PM 1.63 34.934 0.076 6.79 1.73 13.3
1/13/2021 10:00:00 PM 1.62 34.916 0.076 6.79 1.86 13.31
1/13/2021 10:15:00 PM 1.61 34.898 0.076 6.79 1.73 13.31
1/13/2021 10:30:00 PM 1.6 34.88 0.076 6.79 1.73 13.31
1/13/2021 10:45:00 PM 1.59 34.862 0.076 6.78 1.71 13.32
1/13/2021 11:00:00 PM 1.58 34.844 0.076 6.79 1.75 13.32
1/13/2021 11:15:00 PM 1.57 34.826 0.076 6.78 1.75 13.32
1/13/2021 11:30:00 PM 1.56 34.808 0.076 6.79 1.76 13.33
1/13/2021 11:45:00 PM 1.56 34.808 0.076 6.79 1.71 13.33
1/14/2021 12:00:00 AM 1.55 34.79 0.076 6.78 1.78 13.33
1/14/2021 12:15:00 AM 1.54 34.772 0.076 6.78 1.7 13.34
1/14/2021 12:30:00 AM 1.53 34.754 0.076 6.78 1.73 13.33
1/14/2021 12:45:00 AM 1.52 34.736 0.076 6.79 1.66 13.34
1/14/2021 1:00:00 AM 1.51 34.718 0.076 6.78 1.71 13.33
1/14/2021 1:15:00 AM 1.5 34.7 0.076 6.78 1.68 13.34
1/14/2021 1:30:00 AM 1.49 34.682 0.076 6.78 1.75 13.34
1/14/2021 1:45:00 AM 1.49 34.682 0.076 6.78 1.71 13.34
1/14/2021 2:00:00 AM 1.48 34.664 0.076 6.77 1.72 13.35
1/14/2021 2:15:00 AM 1.47 34.646 0.076 6.78 1.71 13.35
1/14/2021 2:30:00 AM 1.47 34.646 0.076 6.78 1.69 13.36
1/14/2021 2:45:00 AM 1.46 34.628 0.076 6.77 1.72 13.35
1/14/2021 3:00:00 AM 1.46 34.628 0.076 6.78 1.75 13.36
1/14/2021 3:15:00 AM 1.46 34.628 0.076 6.78 1.7 13.36
1/14/2021 3:30:00 AM 1.45 34.61 0.076 6.78 1.66 13.36
1/14/2021 3:45:00 AM 1.45 34.61 0.076 6.78 1.7 13.36
1/14/2021 4:00:00 AM 1.45 34.61 0.076 6.78 1.77 13.36
1/14/2021 4:15:00 AM 1.45 34.61 0.076 6.78 1.74 13.36
1/14/2021 4:30:00 AM 1.45 34.61 0.076 6.78 1.86 13.36
1/14/2021 4:45:00 AM 1.44 34.592 0.076 6.78 1.78 13.36
1/14/2021 5:00:00 AM 1.44 34.592 0.076 6.78 1.72 13.36
1/14/2021 5:15:00 AM 1.44 34.592 0.076 6.78 1.71 13.36
1/14/2021 5:30:00 AM 1.44 34.592 0.076 6.77 1.69 13.36
1/14/2021 5:45:00 AM 1.43 34.574 0.076 6.78 1.81 13.36
1/14/2021 6:00:00 AM 1.43 34.574 0.076 6.78 1.74 13.37
1/14/2021 6:15:00 AM 1.42 34.556 0.076 6.78 1.73 13.37
1/14/2021 6:30:00 AM 1.42 34.556 0.076 6.78 1.73 13.37
1/14/2021 6:45:00 AM 1.41 34.538 0.076 6.77 1.74 13.37
1/14/2021 7:00:00 AM 1.41 34.538 0.076 6.77 1.78 13.37
1/14/2021 7:15:00 AM 1.41 34.538 0.076 6.78 1.74 13.38
1/14/2021 7:30:00 AM 1.41 34.538 0.076 6.78 1.81 13.38
1/14/2021 7:45:00 AM 1.41 34.538 0.076 6.78 1.87 13.38
1/14/2021 8:00:00 AM 1.41 34.538 0.076 6.78 1.86 13.4
1/14/2021 8:15:00 AM 1.39 34.502 0.076 6.78 1.81 13.41
1/14/2021 8:30:00 AM 1.39 34.502 0.076 6.79 1.75 13.45
1/14/2021 8:45:00 AM 1.4 34.52 0.076 6.79 1.72 13.47
1/14/2021 9:00:00 AM 1.41 34.538 0.076 6.8 1.7 13.5
1/14/2021 9:15:00 AM 1.43 34.574 0.076 6.81 1.68 13.53
1/14/2021 9:30:00 AM 1.45 34.61 0.076 6.81 1.68 13.57
1/14/2021 9:45:00 AM 1.48 34.664 0.075 6.83 1.72 13.6
1/14/2021 10:00:00 AM 1.51 34.718 0.075 6.83 1.7 13.62
1/14/2021 10:15:00 AM 1.56 34.808 0.075 6.85 1.68 13.64
1/14/2021 10:30:00 AM 1.61 34.898 0.075 6.85 1.63 13.64
1/14/2021 10:45:00 AM 1.68 35.024 0.075 6.86 1.85 13.65
1/14/2021 11:00:00 AM 1.77 35.186 0.075 6.87 1.65 13.65
1/14/2021 11:15:00 AM 1.84 35.312 0.075 6.88 1.62 13.64
1/14/2021 11:30:00 AM 1.91 35.438 0.075 6.88 1.68 13.63
1/14/2021 11:45:00 AM 2 35.6 0.075 6.89 1.67 13.62
1/14/2021 12:00:00 PM 2.05 35.69 0.075 6.9 1.67 13.6
1/14/2021 12:15:00 PM 2.1 35.78 0.075 6.9 1.68 13.56
1/14/2021 12:30:00 PM 2.15 35.87 0.075 6.91 1.65 13.54
1/14/2021 12:45:00 PM 2.2 35.96 0.075 6.91 1.65 13.53
1/14/2021 1:00:00 PM 2.25 36.05 0.075 6.92 1.66 13.51
1/14/2021 1:15:00 PM 2.32 36.176 0.075 6.92 1.69 13.49
1/14/2021 1:30:00 PM 2.38 36.284 0.075 6.92 1.66 13.48
1/14/2021 1:45:00 PM 2.46 36.428 0.075 6.92 1.64 13.46
1/14/2021 2:00:00 PM 2.51 36.518 0.075 6.93 1.71 13.44
1/14/2021 2:15:00 PM 2.54 36.572 0.075 6.93 1.67 13.42
1/14/2021 2:30:00 PM 2.6 36.68 0.075 6.94 1.73 13.4
1/14/2021 2:45:00 PM 2.65 36.77 0.075 6.94 1.62 13.39
1/14/2021 3:00:00 PM 2.7 36.86 0.075 6.94 1.69 13.37
1/14/2021 3:15:00 PM 2.74 36.932 0.075 6.94 1.68 13.35
1/14/2021 3:30:00 PM 2.72 36.896 0.075 6.94 1.67 13.33
1/14/2021 3:45:00 PM 2.68 36.824 0.075 6.93 1.67 13.32
1/14/2021 4:00:00 PM 2.67 36.806 0.075 6.93 1.68 13.29
1/14/2021 4:15:00 PM 2.65 36.77 0.075 6.92 1.68 13.27
1/14/2021 4:30:00 PM 2.63 36.734 0.075 6.91 1.68 13.25
1/14/2021 4:45:00 PM 2.61 36.698 0.075 6.9 1.74 13.21
1/14/2021 5:00:00 PM 2.59 36.662 0.075 6.89 1.72 13.17
1/14/2021 5:15:00 PM 2.57 36.626 0.075 6.88 1.7 13.13
1/14/2021 5:30:00 PM 2.53 36.554 0.075 6.87 1.74 13.11
1/14/2021 5:45:00 PM 2.5 36.5 0.075 6.86 1.73 13.08
1/14/2021 6:00:00 PM 2.46 36.428 0.075 6.85 1.76 13.08
1/14/2021 6:15:00 PM 2.43 36.374 0.075 6.84 1.71 13.06
1/14/2021 6:30:00 PM 2.39 36.302 0.075 6.84 1.72 13.05
1/14/2021 6:45:00 PM 2.35 36.23 0.075 6.83 1.77 13.06
1/14/2021 7:00:00 PM 2.31 36.158 0.075 6.82 1.77 13.06
1/14/2021 7:15:00 PM 2.27 36.086 0.076 6.82 1.81 13.07
1/14/2021 7:30:00 PM 2.23 36.014 0.076 6.82 1.76 13.06
1/14/2021 7:45:00 PM 2.18 35.924 0.076 6.81 1.77 13.09
1/14/2021 8:00:00 PM 2.14 35.852 0.076 6.81 1.86 13.1
1/14/2021 8:15:00 PM 2.09 35.762 0.076 6.8 1.78 13.11
1/14/2021 8:30:00 PM 2.05 35.69 0.076 6.8 1.78 13.12
1/14/2021 8:45:00 PM 2.01 35.618 0.076 6.8 1.74 13.13
1/14/2021 9:00:00 PM 1.97 35.546 0.076 6.8 1.79 13.14
1/14/2021 9:15:00 PM 1.93 35.474 0.076 6.79 1.8 13.16
1/14/2021 9:30:00 PM 1.9 35.42 0.076 6.79 1.69 13.16
1/14/2021 9:45:00 PM 1.88 35.384 0.076 6.79 1.72 13.18
1/14/2021 10:00:00 PM 1.85 35.33 0.076 6.79 1.75 13.18
1/14/2021 10:15:00 PM 1.83 35.294 0.076 6.79 1.76 13.18
1/14/2021 10:30:00 PM 1.81 35.258 0.076 6.79 1.76 13.19
1/14/2021 10:45:00 PM 1.79 35.222 0.076 6.79 1.74 13.2
1/14/2021 11:00:00 PM 1.78 35.204 0.076 6.79 1.74 13.21
1/14/2021 11:15:00 PM 1.75 35.15 0.076 6.79 1.78 13.22
1/14/2021 11:30:00 PM 1.73 35.114 0.076 6.79 1.71 13.23
1/14/2021 11:45:00 PM 1.71 35.078 0.076 6.79 1.75 13.23
1/15/2021 12:00:00 AM 1.69 35.042 0.076 6.79 1.74 13.24
1/15/2021 12:15:00 AM 1.67 35.006 0.076 6.79 1.74 13.25
1/15/2021 12:30:00 AM 1.65 34.97 0.076 6.79 1.73 13.26
1/15/2021 12:45:00 AM 1.64 34.952 0.076 6.79 1.73 13.27
1/15/2021 1:00:00 AM 1.62 34.916 0.076 6.79 1.73 13.28
1/15/2021 1:15:00 AM 1.61 34.898 0.076 6.79 1.77 13.29
1/15/2021 1:30:00 AM 1.59 34.862 0.076 6.79 1.69 13.3
1/15/2021 1:45:00 AM 1.59 34.862 0.076 6.79 1.72 13.3
1/15/2021 2:00:00 AM 1.58 34.844 0.076 6.8 1.71 13.3
1/15/2021 2:15:00 AM 1.57 34.826 0.076 6.79 1.71 13.31
1/15/2021 2:30:00 AM 1.55 34.79 0.076 6.8 1.72 13.32
1/15/2021 2:45:00 AM 1.53 34.754 0.077 6.8 1.79 13.32
1/15/2021 3:00:00 AM 1.51 34.718 0.077 6.79 1.72 13.33
1/15/2021 3:15:00 AM 1.5 34.7 0.077 6.8 1.72 13.33
1/15/2021 3:30:00 AM 1.49 34.682 0.077 6.79 1.71 13.34
1/15/2021 3:45:00 AM 1.48 34.664 0.077 6.8 1.71 13.35
1/15/2021 4:00:00 AM 1.46 34.628 0.077 6.8 1.7 13.35
1/15/2021 4:15:00 AM 1.44 34.592 0.077 6.79 1.66 13.35
1/15/2021 4:30:00 AM 1.41 34.538 0.077 6.79 1.71 13.36
1/15/2021 4:45:00 AM 1.38 34.484 0.077 6.79 1.67 13.37
1/15/2021 5:00:00 AM 1.36 34.448 0.077 6.79 1.71 13.37
1/15/2021 5:15:00 AM 1.34 34.412 0.077 6.79 1.69 13.38
1/15/2021 5:30:00 AM 1.31 34.358 0.077 6.79 1.69 13.39
1/15/2021 5:45:00 AM 1.29 34.322 0.077 6.78 1.68 13.4
1/15/2021 6:00:00 AM 1.27 34.286 0.077 6.78 1.71 13.41
1/15/2021 6:15:00 AM 1.26 34.268 0.077 6.78 1.64 13.41
1/15/2021 6:30:00 AM 1.24 34.232 0.077 6.79 1.71 13.42
1/15/2021 6:45:00 AM 1.23 34.214 0.077 6.78 1.73 13.43
1/15/2021 7:00:00 AM 1.22 34.196 0.077 6.79 1.72 13.43
1/15/2021 7:15:00 AM 1.21 34.178 0.077 6.79 1.71 13.44
1/15/2021 7:30:00 AM 1.21 34.178 0.077 6.79 1.71 13.45
1/15/2021 7:45:00 AM 1.2 34.16 0.077 6.79 1.69 13.46
1/15/2021 8:00:00 AM 1.2 34.16 0.077 6.79 1.67 13.47
1/15/2021 8:15:00 AM 1.2 34.16 0.077 6.8 1.7 13.5
1/15/2021 8:30:00 AM 1.2 34.16 0.077 6.81 1.7 13.54
1/15/2021 8:45:00 AM 1.22 34.196 0.077 6.82 1.75 13.58
1/15/2021 9:00:00 AM 1.24 34.232 0.077 6.83 1.72 13.61
1/15/2021 9:15:00 AM 1.27 34.286 0.077 6.85 1.66 13.64
1/15/2021 9:30:00 AM 1.3 34.34 0.077 6.86 1.72 13.67
1/15/2021 9:45:00 AM 1.36 34.448 0.076 6.86 1.71 13.69
1/15/2021 10:00:00 AM 1.41 34.538 0.076 6.87 1.71 13.7
1/15/2021 10:15:00 AM 1.44 34.592 0.076 6.88 1.66 13.7
1/15/2021 10:30:00 AM 1.48 34.664 0.076 6.89 1.69 13.7
1/15/2021 10:45:00 AM 1.55 34.79 0.076 6.9 1.64 13.7
1/15/2021 11:00:00 AM 1.62 34.916 0.076 6.91 1.64 13.7
1/15/2021 11:15:00 AM 1.69 35.042 0.076 6.92 1.65 13.69
1/15/2021 11:30:00 AM 1.75 35.15 0.076 6.92 1.68 13.67
1/15/2021 11:45:00 AM 1.82 35.276 0.076 6.93 2.1 13.66
1/15/2021 12:00:00 PM 1.87 35.366 0.076 6.93 1.67 13.65
1/15/2021 12:15:00 PM 1.92 35.456 0.076 6.94 1.65 13.63
1/15/2021 12:30:00 PM 1.98 35.564 0.076 6.94 1.69 13.61
1/15/2021 12:45:00 PM 2.02 35.636 0.076 6.94 1.67 13.6
1/15/2021 1:00:00 PM 2.07 35.726 0.076 6.94 1.67 13.57
1/15/2021 1:15:00 PM 2.13 35.834 0.076 6.95 1.68 13.55
1/15/2021 1:30:00 PM 2.25 36.05 0.076 6.95 1.65 13.53
1/15/2021 1:45:00 PM 2.27 36.086 0.076 6.95 1.69 13.51
1/15/2021 2:00:00 PM 2.27 36.086 0.076 6.94 1.69 13.47
1/15/2021 2:15:00 PM 2.29 36.122 0.076 6.95 1.68 13.47
1/15/2021 2:30:00 PM 2.31 36.158 0.076 6.95 1.67 13.45
1/15/2021 2:45:00 PM 2.34 36.212 0.076 6.95 1.73 13.42
1/15/2021 3:00:00 PM 2.37 36.266 0.076 6.94 1.73 13.41
1/15/2021 3:15:00 PM 2.39 36.302 0.076 6.95 1.66 13.39
1/15/2021 3:30:00 PM 2.42 36.356 0.076 6.95 1.69 13.37
1/15/2021 3:45:00 PM 2.43 36.374 0.077 6.95 1.74 13.34
1/15/2021 4:00:00 PM 2.43 36.374 0.077 6.93 1.72 13.3
1/15/2021 4:15:00 PM 2.43 36.374 0.077 6.93 1.76 13.25
1/15/2021 4:30:00 PM 2.43 36.374 0.077 6.91 1.71 13.23
1/15/2021 4:45:00 PM 2.43 36.374 0.077 6.91 1.72 13.19
1/15/2021 5:00:00 PM 2.43 36.374 0.077 6.89 1.81 13.15
1/15/2021 5:15:00 PM 2.43 36.374 0.077 6.89 1.78 13.11
1/15/2021 5:30:00 PM 2.42 36.356 0.077 6.87 1.86 13.09
1/15/2021 5:45:00 PM 2.41 36.338 0.077 6.86 1.8 13.07
1/15/2021 6:00:00 PM 2.4 36.32 0.077 6.86 1.86 13.05
1/15/2021 6:15:00 PM 2.39 36.302 0.077 6.85 1.89 13.04
1/15/2021 6:30:00 PM 2.37 36.266 0.077 6.84 1.9 13.03
1/15/2021 6:45:00 PM 2.36 36.248 0.077 6.84 1.95 13.03
1/15/2021 7:00:00 PM 2.35 36.23 0.077 6.83 2.04 13.03
1/15/2021 7:15:00 PM 2.34 36.212 0.077 6.83 2.08 13.02
1/15/2021 7:30:00 PM 2.33 36.194 0.077 6.83 2.06 13.01
1/15/2021 7:45:00 PM 2.32 36.176 0.077 6.83 2.14 13.01
1/15/2021 8:00:00 PM 2.31 36.158 0.077 6.82 2.11 13.01
1/15/2021 8:15:00 PM 2.3 36.14 0.077 6.82 2.08 13
1/15/2021 8:30:00 PM 2.3 36.14 0.078 6.82 2.28 13
1/15/2021 8:45:00 PM 2.3 36.14 0.078 6.82 2.27 13
1/15/2021 9:00:00 PM 2.29 36.122 0.079 6.81 2.12 12.99
1/15/2021 9:15:00 PM 2.29 36.122 0.079 6.82 2.3 13
1/15/2021 9:30:00 PM 2.28 36.104 0.08 6.81 2.37 13
1/15/2021 9:45:00 PM 2.27 36.086 0.08 6.82 2.4 13
1/15/2021 10:00:00 PM 2.26 36.068 0.08 6.81 2.47 13
1/15/2021 10:15:00 PM 2.25 36.05 0.081 6.81 2.52 13
1/15/2021 10:30:00 PM 2.23 36.014 0.08 6.81 2.54 13
1/15/2021 10:45:00 PM 2.21 35.978 0.08 6.81 2.51 13
1/15/2021 11:00:00 PM 2.18 35.924 0.08 6.8 2.53 13.01
1/15/2021 11:15:00 PM 2.13 35.834 0.08 6.8 2.57 13
1/15/2021 11:30:00 PM 2.12 35.816 0.08 6.8 2.53 13.02
1/15/2021 11:45:00 PM 2.11 35.798 0.081 6.8 2.57 13.02
1/16/2021 12:00:00 AM 2.11 35.798 0.081 6.81 2.5 13.03
1/16/2021 12:15:00 AM 2.09 35.762 0.082 6.8 2.58 13.03
1/16/2021 12:30:00 AM 2.08 35.744 0.082 6.8 2.55 13.04
1/16/2021 12:45:00 AM 2.07 35.726 0.082 6.8 2.5 13.04
1/16/2021 1:00:00 AM 2.07 35.726 0.082 6.81 2.49 13.04
1/16/2021 1:15:00 AM 2.05 35.69 0.082 6.81 2.49 13.04
1/16/2021 1:30:00 AM 2.04 35.672 0.082 6.8 2.48 13.05
1/16/2021 1:45:00 AM 2.02 35.636 0.082 6.8 2.54 13.06
1/16/2021 2:00:00 AM 2 35.6 0.082 6.8 2.44 13.07
1/16/2021 2:15:00 AM 1.99 35.582 0.082 6.81 2.49 13.07
1/16/2021 2:30:00 AM 1.97 35.546 0.082 6.81 2.4 13.07
1/16/2021 2:45:00 AM 1.94 35.492 0.082 6.8 2.45 13.07
1/16/2021 3:00:00 AM 1.92 35.456 0.082 6.8 2.36 13.09
1/16/2021 3:15:00 AM 1.87 35.366 0.082 6.8 2.39 13.08
1/16/2021 3:30:00 AM 1.83 35.294 0.082 6.8 2.26 13.1
1/16/2021 3:45:00 AM 1.78 35.204 0.082 6.8 2.29 13.11
1/16/2021 4:00:00 AM 1.74 35.132 0.083 6.8 2.28 13.13
1/16/2021 4:15:00 AM 1.69 35.042 0.083 6.8 2.26 13.13
1/16/2021 4:30:00 AM 1.65 34.97 0.083 6.79 2.28 13.15
1/16/2021 4:45:00 AM 1.61 34.898 0.083 6.8 2.17 13.16
1/16/2021 5:00:00 AM 1.57 34.826 0.083 6.8 2.2 13.18
1/16/2021 5:15:00 AM 1.53 34.754 0.083 6.8 2.15 13.19
1/16/2021 5:30:00 AM 1.49 34.682 0.083 6.8 2.24 13.2
1/16/2021 5:45:00 AM 1.46 34.628 0.083 6.8 2.12 13.21
1/16/2021 6:00:00 AM 1.44 34.592 0.083 6.8 2.18 13.22
1/16/2021 6:15:00 AM 1.43 34.574 0.083 6.8 2.14 13.23
1/16/2021 6:30:00 AM 1.42 34.556 0.083 6.8 2.14 13.24
1/16/2021 6:45:00 AM 1.41 34.538 0.083 6.81 2.06 13.25
1/16/2021 7:00:00 AM 1.4 34.52 0.083 6.81 2.11 13.26
1/16/2021 7:15:00 AM 1.38 34.484 0.083 6.8 2.1 13.26
1/16/2021 7:30:00 AM 1.37 34.466 0.083 6.81 2.06 13.27
1/16/2021 7:45:00 AM 1.36 34.448 0.083 6.81 2.14 13.29
1/16/2021 8:00:00 AM 1.35 34.43 0.083 6.81 2.11 13.31
1/16/2021 8:15:00 AM 1.35 34.43 0.083 6.83 2.11 13.34
1/16/2021 8:30:00 AM 1.34 34.412 0.083 6.83 2.05 13.37
1/16/2021 8:45:00 AM 1.34 34.412 0.083 6.84 2.06 13.4
1/16/2021 9:00:00 AM 1.34 34.412 0.083 6.85 2.06 13.44
1/16/2021 9:15:00 AM 1.33 34.394 0.083 6.85 2.04 13.47
1/16/2021 9:30:00 AM 1.32 34.376 0.083 6.86 2.06 13.51
1/16/2021 9:45:00 AM 1.32 34.376 0.083 6.87 2.09 13.54
1/16/2021 10:00:00 AM 1.31 34.358 0.083 6.88 2.15 13.57
1/16/2021 10:15:00 AM 1.34 34.412 0.083 6.88 2.19 13.59
1/16/2021 10:30:00 AM 1.35 34.43 0.083 6.89 2.11 13.61
1/16/2021 10:45:00 AM 1.38 34.484 0.083 6.9 2.1 13.63
1/16/2021 11:00:00 AM 1.42 34.556 0.083 6.91 2.08 13.63
1/16/2021 11:15:00 AM 1.46 34.628 0.084 6.92 2.1 13.64
1/16/2021 11:30:00 AM 1.52 34.736 0.084 6.92 2.11 13.64
1/16/2021 11:45:00 AM 1.59 34.862 0.084 6.93 2.08 13.63
1/16/2021 12:00:00 PM 1.64 34.952 0.084 6.93 2.11 13.63
1/16/2021 12:15:00 PM 1.7 35.06 0.084 6.94 2.09 13.63
1/16/2021 12:30:00 PM 1.77 35.186 0.084 6.94 2.06 13.61
1/16/2021 12:45:00 PM 1.83 35.294 0.084 6.94 2.11 13.59
1/16/2021 1:00:00 PM 1.89 35.402 0.084 6.95 2.06 13.57
1/16/2021 1:15:00 PM 1.95 35.51 0.084 6.95 2.1 13.55
1/16/2021 1:30:00 PM 1.99 35.582 0.084 6.96 2.12 13.52
1/16/2021 1:45:00 PM 2.02 35.636 0.084 6.95 2.08 13.51
1/16/2021 2:00:00 PM 2.07 35.726 0.084 6.96 2.05 13.5
1/16/2021 2:15:00 PM 2.11 35.798 0.084 6.96 2 13.49
1/16/2021 2:30:00 PM 2.16 35.888 0.085 6.96 2.02 13.47
1/16/2021 2:45:00 PM 2.19 35.942 0.085 6.96 2.07 13.44
1/16/2021 3:00:00 PM 2.22 35.996 0.085 6.97 2.05 13.42
1/16/2021 3:15:00 PM 2.26 36.068 0.085 6.97 2.04 13.41
1/16/2021 3:30:00 PM 2.3 36.14 0.085 6.97 2.08 13.39
1/16/2021 3:45:00 PM 2.32 36.176 0.085 6.97 2.02 13.38
1/16/2021 4:00:00 PM 2.33 36.194 0.085 6.97 2.04 13.35
1/16/2021 4:15:00 PM 2.33 36.194 0.085 6.97 2.07 13.33
1/16/2021 4:30:00 PM 2.32 36.176 0.085 6.96 2.05 13.3
1/16/2021 4:45:00 PM 2.3 36.14 0.085 6.95 2.03 13.26
1/16/2021 5:00:00 PM 2.27 36.086 0.085 6.94 2.02 13.21
1/16/2021 5:15:00 PM 2.24 36.032 0.085 6.93 2.08 13.19
1/16/2021 5:30:00 PM 2.2 35.96 0.086 6.91 2.06 13.15
1/16/2021 5:45:00 PM 2.15 35.87 0.086 6.9 2.12 13.12
1/16/2021 6:00:00 PM 2.12 35.816 0.086 6.89 2.08 13.12
1/16/2021 6:15:00 PM 2.1 35.78 0.086 6.87 2.08 13.1
1/16/2021 6:30:00 PM 2.08 35.744 0.086 6.88 2.12 13.08
1/16/2021 6:45:00 PM 2.05 35.69 0.086 6.87 2.12 13.08
1/16/2021 7:00:00 PM 2.01 35.618 0.086 6.86 2.1 13.09
1/16/2021 7:15:00 PM 1.96 35.528 0.086 6.86 2.06 13.08
1/16/2021 7:30:00 PM 1.92 35.456 0.086 6.86 2.06 13.08
1/16/2021 7:45:00 PM 1.89 35.402 0.086 6.85 2.05 13.08
1/16/2021 8:00:00 PM 1.85 35.33 0.087 6.85 2.09 13.09
1/16/2021 8:15:00 PM 1.81 35.258 0.087 6.84 2.02 13.09
1/16/2021 8:30:00 PM 1.76 35.168 0.087 6.84 2.05 13.1
1/16/2021 8:45:00 PM 1.72 35.096 0.087 6.83 2.02 13.11
1/16/2021 9:00:00 PM 1.7 35.06 0.087 6.83 2.08 13.12
1/16/2021 9:15:00 PM 1.69 35.042 0.087 6.84 2.02 13.12
1/16/2021 9:30:00 PM 1.67 35.006 0.087 6.84 2.07 13.14
1/16/2021 9:45:00 PM 1.66 34.988 0.087 6.83 2.07 13.14
1/16/2021 10:00:00 PM 1.65 34.97 0.087 6.84 2.05 13.14
1/16/2021 10:15:00 PM 1.65 34.97 0.087 6.83 2.08 13.14
1/16/2021 10:30:00 PM 1.63 34.934 0.087 6.84 1.97 13.15
1/16/2021 10:45:00 PM 1.62 34.916 0.087 6.84 2.03 13.15
1/16/2021 11:00:00 PM 1.62 34.916 0.087 6.84 2.06 13.15
1/16/2021 11:15:00 PM 1.61 34.898 0.088 6.84 2.02 13.16
1/16/2021 11:30:00 PM 1.61 34.898 0.088 6.85 2.15 13.17
1/16/2021 11:45:00 PM 1.6 34.88 0.088 6.85 2.02 13.17
1/17/2021 12:00:00 AM 1.58 34.844 0.088 6.85 2.02 13.17
1/17/2021 12:15:00 AM 1.57 34.826 0.088 6.84 1.98 13.18
1/17/2021 12:30:00 AM 1.56 34.808 0.088 6.85 2.04 13.18
1/17/2021 12:45:00 AM 1.55 34.79 0.088 6.84 2.05 13.19
1/17/2021 1:00:00 AM 1.54 34.772 0.088 6.85 2.04 13.19
1/17/2021 1:15:00 AM 1.52 34.736 0.088 6.85 3.45 13.2
1/17/2021 1:30:00 AM 1.5 34.7 0.089 6.84 2.1 13.21
1/17/2021 1:45:00 AM 1.49 34.682 0.089 6.84 1.98 13.22
1/17/2021 2:00:00 AM 1.47 34.646 0.089 6.85 2.01 13.22
1/17/2021 2:15:00 AM 1.46 34.628 0.089 6.85 2.08 13.22
1/17/2021 2:30:00 AM 1.45 34.61 0.089 6.85 2 13.24
1/17/2021 2:45:00 AM 1.43 34.574 0.089 6.85 2.03 13.24
1/17/2021 3:00:00 AM 1.42 34.556 0.09 6.85 1.97 13.24
1/17/2021 3:15:00 AM 1.4 34.52 0.09 6.85 1.96 13.26
1/17/2021 3:30:00 AM 1.38 34.484 0.09 6.85 1.99 13.26
1/17/2021 3:45:00 AM 1.36 34.448 0.09 6.84 1.97 13.27
1/17/2021 4:00:00 AM 1.35 34.43 0.09 6.85 2.05 13.28
1/17/2021 4:15:00 AM 1.33 34.394 0.09 6.84 2.08 13.28
1/17/2021 4:30:00 AM 1.3 34.34 0.09 6.84 1.96 13.29
1/17/2021 4:45:00 AM 1.27 34.286 0.09 6.84 2.05 13.3
1/17/2021 5:00:00 AM 1.26 34.268 0.091 6.84 1.99 13.31
1/17/2021 5:15:00 AM 1.26 34.268 0.091 6.84 2.04 13.31
1/17/2021 5:30:00 AM 1.25 34.25 0.091 6.85 1.96 13.32
1/17/2021 5:45:00 AM 1.24 34.232 0.091 6.85 2.01 13.32
1/17/2021 6:00:00 AM 1.24 34.232 0.091 6.85 1.99 13.33
1/17/2021 6:15:00 AM 1.23 34.214 0.091 6.84 1.95 13.33
1/17/2021 6:30:00 AM 1.23 34.214 0.091 6.85 1.97 13.34
1/17/2021 6:45:00 AM 1.22 34.196 0.091 6.84 1.96 13.35
1/17/2021 7:00:00 AM 1.22 34.196 0.091 6.84 2 13.35
1/17/2021 7:15:00 AM 1.22 34.196 0.091 6.85 1.95 13.35
1/17/2021 7:30:00 AM 1.22 34.196 0.091 6.85 1.93 13.36
1/17/2021 7:45:00 AM 1.22 34.196 0.091 6.85 1.9 13.36
1/17/2021 8:00:00 AM 1.22 34.196 0.091 6.85 1.91 13.37
1/17/2021 8:15:00 AM 1.23 34.214 0.091 6.86 1.96 13.39
1/17/2021 8:30:00 AM 1.23 34.214 0.091 6.86 1.91 13.41
1/17/2021 8:45:00 AM 1.24 34.232 0.091 6.87 1.87 13.43
1/17/2021 9:00:00 AM 1.25 34.25 0.091 6.87 1.83 13.45
1/17/2021 9:15:00 AM 1.26 34.268 0.091 6.88 1.89 13.49
1/17/2021 9:30:00 AM 1.28 34.304 0.091 6.89 1.9 13.52
1/17/2021 9:45:00 AM 1.29 34.322 0.091 6.89 1.85 13.54
1/17/2021 10:00:00 AM 1.32 34.376 0.091 6.91 1.83 13.58
1/17/2021 10:15:00 AM 1.34 34.412 0.091 6.91 1.8 13.6
1/17/2021 10:30:00 AM 1.37 34.466 0.09 6.91 1.88 13.62
1/17/2021 10:45:00 AM 1.41 34.538 0.09 6.93 1.82 13.64
1/17/2021 11:00:00 AM 1.46 34.628 0.09 6.94 1.84 13.65
1/17/2021 11:15:00 AM 1.5 34.7 0.09 6.94 1.81 13.66
1/17/2021 11:30:00 AM 1.53 34.754 0.09 6.94 1.84 13.66
1/17/2021 11:45:00 AM 1.56 34.808 0.09 6.95 1.86 13.66
1/17/2021 12:00:00 PM 1.59 34.862 0.09 6.95 1.89 13.66
1/17/2021 12:15:00 PM 1.62 34.916 0.09 6.96 1.84 13.65
1/17/2021 12:30:00 PM 1.65 34.97 0.09 6.96 1.8 13.65
1/17/2021 12:45:00 PM 1.69 35.042 0.09 6.96 1.8 13.65
1/17/2021 1:00:00 PM 1.72 35.096 0.09 6.97 1.78 13.64
1/17/2021 1:15:00 PM 1.73 35.114 0.09 6.97 1.8 13.63
1/17/2021 1:30:00 PM 1.77 35.186 0.09 6.97 1.82 13.63
1/17/2021 1:45:00 PM 1.81 35.258 0.09 6.98 1.83 13.62
1/17/2021 2:00:00 PM 1.86 35.348 0.09 6.98 1.82 13.62
1/17/2021 2:15:00 PM 1.91 35.438 0.09 6.98 1.78 13.6
1/17/2021 2:30:00 PM 1.95 35.51 0.089 6.99 1.79 13.61
1/17/2021 2:45:00 PM 1.98 35.564 0.089 6.99 1.81 13.59
1/17/2021 3:00:00 PM 1.99 35.582 0.089 6.99 1.78 13.56
1/17/2021 3:15:00 PM 2.01 35.618 0.089 6.99 1.86 13.55
1/17/2021 3:30:00 PM 2.03 35.654 0.089 6.98 1.81 13.54
1/17/2021 3:45:00 PM 2.06 35.708 0.089 6.99 1.8 13.52
1/17/2021 4:00:00 PM 2.08 35.744 0.089 6.99 1.77 13.52
1/17/2021 4:15:00 PM 2.08 35.744 0.089 6.99 1.81 13.51
1/17/2021 4:30:00 PM 2.08 35.744 0.089 6.98 1.82 13.47
1/17/2021 4:45:00 PM 2.07 35.726 0.089 6.97 1.79 13.42
1/17/2021 5:00:00 PM 2.06 35.708 0.089 6.95 1.82 13.37
1/17/2021 5:15:00 PM 2.06 35.708 0.089 6.94 1.8 13.33
1/17/2021 5:30:00 PM 2.04 35.672 0.089 6.93 1.77 13.3
1/17/2021 5:45:00 PM 2.03 35.654 0.089 6.92 1.81 13.27
1/17/2021 6:00:00 PM 2.01 35.618 0.089 6.92 1.86 13.22
1/17/2021 6:15:00 PM 2 35.6 0.089 6.91 1.89 13.22
1/17/2021 6:30:00 PM 1.99 35.582 0.089 6.9 1.84 13.2
1/17/2021 6:45:00 PM 1.98 35.564 0.089 6.9 1.81 13.19
1/17/2021 7:00:00 PM 1.97 35.546 0.089 6.89 1.85 13.17
1/17/2021 7:15:00 PM 1.96 35.528 0.089 6.89 1.82 13.18
1/17/2021 7:30:00 PM 1.95 35.51 0.089 6.88 1.83 13.17
1/17/2021 7:45:00 PM 1.94 35.492 0.089 6.88 1.8 13.15
1/17/2021 8:00:00 PM 1.93 35.474 0.089 6.87 1.89 13.16
1/17/2021 8:15:00 PM 1.92 35.456 0.089 6.87 1.84 13.15
1/17/2021 8:30:00 PM 1.91 35.438 0.089 6.87 1.82 13.16
1/17/2021 8:45:00 PM 1.89 35.402 0.089 6.87 1.84 13.15
1/17/2021 9:00:00 PM 1.88 35.384 0.089 6.87 1.84 13.15
1/17/2021 9:15:00 PM 1.86 35.348 0.089 6.87 1.9 13.15
1/17/2021 9:30:00 PM 1.81 35.258 0.089 6.86 1.82 13.15
1/17/2021 9:45:00 PM 1.8 35.24 0.089 6.86 1.8 13.16
1/17/2021 10:00:00 PM 1.78 35.204 0.089 6.86 1.78 13.16
1/17/2021 10:15:00 PM 1.76 35.168 0.089 6.86 1.78 13.16
1/17/2021 10:30:00 PM 1.75 35.15 0.089 6.86 1.8 13.17
1/17/2021 10:45:00 PM 1.73 35.114 0.089 6.86 1.82 13.18
1/17/2021 11:00:00 PM 1.72 35.096 0.089 6.85 1.82 13.18
1/17/2021 11:15:00 PM 1.7 35.06 0.089 6.86 1.83 13.18
1/17/2021 11:30:00 PM 1.7 35.06 0.089 6.85 1.84 13.18
1/17/2021 11:45:00 PM 1.68 35.024 0.088 6.85 1.8 13.19
1/18/2021 12:00:00 AM 1.66 34.988 0.088 6.85 1.81 13.2
1/18/2021 12:15:00 AM 1.64 34.952 0.088 6.85 1.78 13.2
1/18/2021 12:30:00 AM 1.63 34.934 0.088 6.85 1.72 13.2
1/18/2021 12:45:00 AM 1.62 34.916 0.088 6.85 1.79 13.21
1/18/2021 1:00:00 AM 1.6 34.88 0.088 6.85 1.79 13.21
1/18/2021 1:15:00 AM 1.58 34.844 0.088 6.85 1.79 13.23
1/18/2021 1:30:00 AM 1.58 34.844 0.088 6.85 1.8 13.23
1/18/2021 1:45:00 AM 1.57 34.826 0.088 6.85 1.79 13.23
1/18/2021 2:00:00 AM 1.57 34.826 0.088 6.85 1.78 13.24
1/18/2021 2:15:00 AM 1.55 34.79 0.088 6.85 1.8 13.24
1/18/2021 2:30:00 AM 1.55 34.79 0.088 6.85 1.81 13.25
1/18/2021 2:45:00 AM 1.54 34.772 0.088 6.85 1.83 13.25
1/18/2021 3:00:00 AM 1.54 34.772 0.088 6.85 1.85 13.26
1/18/2021 3:15:00 AM 1.53 34.754 0.088 6.85 1.83 13.26
1/18/2021 3:30:00 AM 1.53 34.754 0.088 6.85 1.78 13.26
1/18/2021 3:45:00 AM 1.52 34.736 0.088 6.85 1.78 13.26
1/18/2021 4:00:00 AM 1.51 34.718 0.088 6.85 1.8 13.27
1/18/2021 4:15:00 AM 1.5 34.7 0.088 6.84 1.77 13.27
1/18/2021 4:30:00 AM 1.49 34.682 0.088 6.85 1.8 13.28
1/18/2021 4:45:00 AM 1.48 34.664 0.088 6.85 1.73 13.28
1/18/2021 5:00:00 AM 1.47 34.646 0.088 6.85 1.76 13.28
1/18/2021 5:15:00 AM 1.47 34.646 0.088 6.85 1.77 13.29
1/18/2021 5:30:00 AM 1.45 34.61 0.088 6.85 1.75 13.29
1/18/2021 5:45:00 AM 1.44 34.592 0.088 6.85 1.76 13.29
1/18/2021 6:00:00 AM 1.43 34.574 0.088 6.85 1.77 13.3
1/18/2021 6:15:00 AM 1.42 34.556 0.088 6.85 1.71 13.31
1/18/2021 6:30:00 AM 1.41 34.538 0.088 6.85 1.73 13.31
1/18/2021 6:45:00 AM 1.4 34.52 0.088 6.85 1.71 13.32
1/18/2021 7:00:00 AM 1.38 34.484 0.088 6.85 1.73 13.33
1/18/2021 7:15:00 AM 1.36 34.448 0.088 6.85 1.72 13.33
1/18/2021 7:30:00 AM 1.35 34.43 0.088 6.85 1.72 13.34
1/18/2021 7:45:00 AM 1.35 34.43 0.088 6.85 1.72 13.35
1/18/2021 8:00:00 AM 1.33 34.394 0.088 6.86 1.7 13.39
1/18/2021 8:15:00 AM 1.32 34.376 0.088 6.87 1.71 13.43
1/18/2021 8:30:00 AM 1.32 34.376 0.088 6.87 1.73 13.48
1/18/2021 8:45:00 AM 1.33 34.394 0.088 6.88 1.71 13.53
1/18/2021 9:00:00 AM 1.33 34.394 0.088 6.9 1.71 13.57
1/18/2021 9:15:00 AM 1.35 34.43 0.087 6.91 1.7 13.61
1/18/2021 9:30:00 AM 1.36 34.448 0.087 6.92 1.67 13.64
1/18/2021 9:45:00 AM 1.39 34.502 0.087 6.92 1.69 13.66
1/18/2021 10:00:00 AM 1.44 34.592 0.087 6.93 1.69 13.7
1/18/2021 10:15:00 AM 1.48 34.664 0.087 6.95 1.7 13.71
1/18/2021 10:30:00 AM 1.52 34.736 0.087 6.95 1.69 13.72
1/18/2021 10:45:00 AM 1.56 34.808 0.087 6.96 1.68 13.73
1/18/2021 11:00:00 AM 1.6 34.88 0.087 6.96 1.65 13.73
1/18/2021 11:15:00 AM 1.63 34.934 0.087 6.97 1.64 13.73
1/18/2021 11:30:00 AM 1.64 34.952 0.087 6.97 1.7 13.72
1/18/2021 11:45:00 AM 1.65 34.97 0.087 6.97 1.66 13.72
1/18/2021 12:00:00 PM 1.7 35.06 0.087 6.98 1.68 13.71
1/18/2021 12:15:00 PM 1.76 35.168 0.087 6.99 1.7 13.71
1/18/2021 12:30:00 PM 1.82 35.276 0.087 6.99 1.67 13.71
1/18/2021 12:45:00 PM 1.87 35.366 0.086 7 1.69 13.7
1/18/2021 1:00:00 PM 1.92 35.456 0.086 7 1.62 13.69
1/18/2021 1:15:00 PM 1.95 35.51 0.086 7 1.67 13.68
1/18/2021 1:30:00 PM 2 35.6 0.086 7 1.67 13.67
1/18/2021 1:45:00 PM 2.03 35.654 0.086 7 1.72 13.65
1/18/2021 2:00:00 PM 2.03 35.654 0.086 7 1.66 13.63
1/18/2021 2:15:00 PM 2.03 35.654 0.086 7 1.68 13.61
1/18/2021 2:30:00 PM 2.02 35.636 0.086 7 1.69 13.59
1/18/2021 2:45:00 PM 2.01 35.618 0.086 6.99 1.64 13.58
1/18/2021 3:00:00 PM 2 35.6 0.086 6.99 1.67 13.56
1/18/2021 3:15:00 PM 2 35.6 0.086 6.98 1.73 13.56
1/18/2021 3:30:00 PM 1.99 35.582 0.086 6.98 1.65 13.55
1/18/2021 3:45:00 PM 1.98 35.564 0.086 6.97 1.71 13.52
1/18/2021 4:00:00 PM 1.95 35.51 0.086 6.97 1.64 13.5
1/18/2021 4:15:00 PM 1.94 35.492 0.086 6.96 1.68 13.49
1/18/2021 4:30:00 PM 1.93 35.474 0.086 6.95 1.74 13.46
1/18/2021 4:45:00 PM 1.91 35.438 0.087 6.95 1.74 13.45
1/18/2021 5:00:00 PM 1.89 35.402 0.087 6.94 1.67 13.41
1/18/2021 5:15:00 PM 1.87 35.366 0.087 6.93 1.66 13.38
1/18/2021 5:30:00 PM 1.85 35.33 0.087 6.92 1.68 13.37
1/18/2021 5:45:00 PM 1.83 35.294 0.087 6.91 1.7 13.35
1/18/2021 6:00:00 PM 1.81 35.258 0.087 6.9 1.69 13.34
1/18/2021 6:15:00 PM 1.79 35.222 0.087 6.9 1.72 13.33
1/18/2021 6:30:00 PM 1.77 35.186 0.087 6.89 1.71 13.32
1/18/2021 6:45:00 PM 1.75 35.15 0.087 6.89 1.74 13.33
1/18/2021 7:00:00 PM 1.73 35.114 0.087 6.89 1.67 13.32
1/18/2021 7:15:00 PM 1.71 35.078 0.087 6.88 1.72 13.33
1/18/2021 7:30:00 PM 1.7 35.06 0.087 6.88 1.78 13.33
1/18/2021 7:45:00 PM 1.68 35.024 0.088 6.88 1.78 13.33
1/18/2021 8:00:00 PM 1.66 34.988 0.088 6.87 1.7 13.33
1/18/2021 8:15:00 PM 1.65 34.97 0.088 6.87 1.79 13.34
1/18/2021 8:30:00 PM 1.63 34.934 0.088 6.87 1.7 13.34
1/18/2021 8:45:00 PM 1.62 34.916 0.088 6.87 1.72 13.34
1/18/2021 9:00:00 PM 1.6 34.88 0.088 6.87 1.74 13.35
1/18/2021 9:15:00 PM 1.59 34.862 0.088 6.87 1.71 13.35
1/18/2021 9:30:00 PM 1.58 34.844 0.088 6.87 1.7 13.36
1/18/2021 9:45:00 PM 1.57 34.826 0.088 6.87 1.73 13.37
1/18/2021 10:00:00 PM 1.55 34.79 0.088 6.87 1.73 13.37
1/18/2021 10:15:00 PM 1.54 34.772 0.088 6.87 1.72 13.37
1/18/2021 10:30:00 PM 1.52 34.736 0.088 6.87 1.74 13.38
1/18/2021 10:45:00 PM 1.51 34.718 0.088 6.86 1.69 13.39
1/18/2021 11:00:00 PM 1.5 34.7 0.088 6.86 1.7 13.39
1/18/2021 11:15:00 PM 1.48 34.664 0.088 6.86 1.78 13.4
1/18/2021 11:30:00 PM 1.45 34.61 0.088 6.86 1.69 13.41
1/18/2021 11:45:00 PM 1.43 34.574 0.088 6.86 1.71 13.42
1/19/2021 12:00:00 AM 1.41 34.538 0.088 6.86 1.67 13.43
1/19/2021 12:15:00 AM 1.39 34.502 0.088 6.86 1.69 13.44
1/19/2021 12:30:00 AM 1.37 34.466 0.088 6.86 1.66 13.44
1/19/2021 12:45:00 AM 1.34 34.412 0.088 6.86 1.7 13.46
1/19/2021 1:00:00 AM 1.31 34.358 0.088 6.86 1.65 13.46
1/19/2021 1:15:00 AM 1.3 34.34 0.088 6.86 1.69 13.47
1/19/2021 1:30:00 AM 1.28 34.304 0.088 6.86 1.64 13.48
1/19/2021 1:45:00 AM 1.26 34.268 0.088 6.86 1.71 13.49
1/19/2021 2:00:00 AM 1.24 34.232 0.088 6.86 1.67 13.5
1/19/2021 2:15:00 AM 1.22 34.196 0.088 6.86 1.68 13.51
1/19/2021 2:30:00 AM 1.2 34.16 0.088 6.86 1.72 13.52
1/19/2021 2:45:00 AM 1.18 34.124 0.088 6.86 1.7 13.52
1/19/2021 3:00:00 AM 1.17 34.106 0.088 6.86 1.67 13.54
1/19/2021 3:15:00 AM 1.15 34.07 0.088 6.86 1.69 13.54
1/19/2021 3:30:00 AM 1.13 34.034 0.088 6.86 1.69 13.55
1/19/2021 3:45:00 AM 1.12 34.016 0.088 6.86 1.73 13.56
1/19/2021 4:00:00 AM 1.1 33.98 0.088 6.86 1.68 13.57
1/19/2021 4:15:00 AM 1.09 33.962 0.088 6.86 1.69 13.58
1/19/2021 4:30:00 AM 1.08 33.944 0.088 6.86 1.69 13.59
1/19/2021 4:45:00 AM 1.06 33.908 0.088 6.86 1.66 13.59
1/19/2021 5:00:00 AM 1.05 33.89 0.088 6.86 1.66 13.6
1/19/2021 5:15:00 AM 1.04 33.872 0.088 6.86 1.69 13.61
1/19/2021 5:30:00 AM 1.02 33.836 0.088 6.86 1.67 13.61
1/19/2021 5:45:00 AM 1 33.8 0.088 6.86 1.69 13.61
1/19/2021 6:00:00 AM 0.99 33.782 0.088 6.86 1.63 13.62
1/19/2021 6:15:00 AM 0.98 33.764 0.088 6.86 1.64 13.63
1/19/2021 6:30:00 AM 0.97 33.746 0.088 6.86 1.69 13.64
1/19/2021 6:45:00 AM 0.96 33.728 0.088 6.86 1.7 13.64
1/19/2021 7:00:00 AM 0.95 33.71 0.088 6.86 1.71 13.64
1/19/2021 7:15:00 AM 0.94 33.692 0.088 6.86 1.65 13.65
1/19/2021 7:30:00 AM 0.93 33.674 0.088 6.86 1.66 13.65
1/19/2021 7:45:00 AM 0.92 33.656 0.088 6.86 1.68 13.67
1/19/2021 8:00:00 AM 0.92 33.656 0.088 6.86 1.65 13.69
1/19/2021 8:15:00 AM 0.92 33.656 0.088 6.87 1.7 13.72
1/19/2021 8:30:00 AM 0.92 33.656 0.088 6.88 1.69 13.74
1/19/2021 8:45:00 AM 0.91 33.638 0.088 6.89 1.67 13.78
1/19/2021 9:00:00 AM 0.86 33.548 0.088 6.89 1.68 13.78
1/19/2021 9:15:00 AM 0.85 33.53 0.088 6.89 1.68 13.84
1/19/2021 9:30:00 AM 0.87 33.566 0.088 6.9 1.64 13.88
1/19/2021 9:45:00 AM 0.87 33.566 0.088 6.91 1.65 13.91
1/19/2021 10:00:00 AM 0.87 33.566 0.088 6.92 1.7 13.94
1/19/2021 10:15:00 AM 0.86 33.548 0.088 6.92 1.65 13.96
1/19/2021 10:30:00 AM 0.84 33.512 0.088 6.93 1.63 13.96
1/19/2021 10:45:00 AM 0.79 33.422 0.088 6.92 1.66 13.99
1/19/2021 11:00:00 AM 0.87 33.566 0.088 6.94 1.66 14.02
1/19/2021 11:15:00 AM 0.93 33.674 0.088 6.95 1.66 14.05
1/19/2021 11:30:00 AM 0.98 33.764 0.088 6.96 1.61 14.05
1/19/2021 11:45:00 AM 1.02 33.836 0.088 6.97 1.63 14.07
1/19/2021 12:00:00 PM 1.04 33.872 0.088 6.97 1.65 14.07
1/19/2021 12:15:00 PM 1.1 33.98 0.088 6.98 1.67 14.08
1/19/2021 12:30:00 PM 1.18 34.124 0.088 6.98 1.83 14.07
1/19/2021 12:45:00 PM 1.22 34.196 0.088 6.97 1.87 14.06
1/19/2021 1:00:00 PM 1.3 34.34 0.088 6.99 1.87 14.05
1/19/2021 1:15:00 PM 1.36 34.448 0.087 6.99 1.82 14.03
1/19/2021 1:30:00 PM 1.4 34.52 0.087 6.98 1.83 14.02
1/19/2021 1:45:00 PM 1.47 34.646 0.087 6.99 1.88 14.01
1/19/2021 2:00:00 PM 1.53 34.754 0.088 7 1.83 13.99
1/19/2021 2:15:00 PM 1.55 34.79 0.088 7 1.86 13.96
1/19/2021 2:30:00 PM 1.59 34.862 0.088 7 1.85 13.95
1/19/2021 2:45:00 PM 1.62 34.916 0.088 7 1.82 13.94
1/19/2021 3:00:00 PM 1.65 34.97 0.088 6.99 1.86 13.93
1/19/2021 3:15:00 PM 1.67 35.006 0.088 7 1.8 13.92
1/19/2021 3:30:00 PM 1.69 35.042 0.088 7 1.78 13.91
1/19/2021 3:45:00 PM 1.7 35.06 0.088 7 1.83 13.89
1/19/2021 4:00:00 PM 1.7 35.06 0.088 7 1.79 13.88
1/19/2021 4:15:00 PM 1.69 35.042 0.088 7 1.8 13.87
1/19/2021 4:30:00 PM 1.67 35.006 0.088 6.99 1.84 13.86
1/19/2021 4:45:00 PM 1.64 34.952 0.088 6.98 1.82 13.81
1/19/2021 5:00:00 PM 1.61 34.898 0.088 6.95 1.86 13.76
1/19/2021 5:15:00 PM 1.59 34.862 0.088 6.94 1.85 13.71
1/19/2021 5:30:00 PM 1.57 34.826 0.088 6.93 1.85 13.67
1/19/2021 5:45:00 PM 1.54 34.772 0.088 6.91 1.85 13.63
1/19/2021 6:00:00 PM 1.5 34.7 0.088 6.91 1.82 13.62
1/19/2021 6:15:00 PM 1.47 34.646 0.088 6.9 1.81 13.59
1/19/2021 6:30:00 PM 1.44 34.592 0.088 6.89 1.82 13.58
1/19/2021 6:45:00 PM 1.41 34.538 0.088 6.88 1.88 13.57
1/19/2021 7:00:00 PM 1.39 34.502 0.088 6.86 1.83 13.57
1/19/2021 7:15:00 PM 1.36 34.448 0.089 6.85 1.86 13.56
1/19/2021 7:30:00 PM 1.34 34.412 0.089 6.85 1.89 13.56
1/19/2021 7:45:00 PM 1.32 34.376 0.089 6.84 1.83 13.56
1/19/2021 8:00:00 PM 1.3 34.34 0.089 6.85 1.89 13.56
1/19/2021 8:15:00 PM 1.27 34.286 0.089 6.85 1.89 13.57
1/19/2021 8:30:00 PM 1.26 34.268 0.089 6.85 1.85 13.57
1/19/2021 8:45:00 PM 1.24 34.232 0.089 6.83 1.86 13.57
1/19/2021 9:00:00 PM 1.22 34.196 0.089 6.84 1.82 13.57
1/19/2021 9:15:00 PM 1.2 34.16 0.089 6.83 1.87 13.57
1/19/2021 9:30:00 PM 1.18 34.124 0.089 6.83 1.86 13.58
1/19/2021 9:45:00 PM 1.16 34.088 0.089 6.83 1.9 13.58
1/19/2021 10:00:00 PM 1.15 34.07 0.089 6.83 1.89 13.59
1/19/2021 10:15:00 PM 1.13 34.034 0.089 6.83 1.9 13.59
1/19/2021 10:30:00 PM 1.12 34.016 0.089 6.83 1.91 13.59
1/19/2021 10:45:00 PM 1.1 33.98 0.089 6.83 1.85 13.6
1/19/2021 11:00:00 PM 1.09 33.962 0.089 6.83 1.88 13.59
1/19/2021 11:15:00 PM 1.08 33.944 0.089 6.83 1.9 13.6
1/19/2021 11:30:00 PM 1.06 33.908 0.089 6.83 1.88 13.6
1/19/2021 11:45:00 PM 1.05 33.89 0.089 6.83 1.92 13.6
1/20/2021 12:00:00 AM 1.04 33.872 0.089 6.83 1.91 13.61
1/20/2021 12:15:00 AM 1.03 33.854 0.089 6.83 1.87 13.6
1/20/2021 12:30:00 AM 1.02 33.836 0.089 6.83 1.86 13.61
1/20/2021 12:45:00 AM 1.01 33.818 0.089 6.83 1.88 13.61
1/20/2021 1:00:00 AM 0.99 33.782 0.089 6.83 1.84 13.62
1/20/2021 1:15:00 AM 0.98 33.764 0.089 6.83 1.87 13.62
1/20/2021 1:30:00 AM 0.96 33.728 0.089 6.83 1.89 13.61
1/20/2021 1:45:00 AM 0.93 33.674 0.089 6.82 1.91 13.62
1/20/2021 2:00:00 AM 0.87 33.566 0.089 6.82 1.89 13.63
1/20/2021 2:15:00 AM 0.81 33.458 0.089 6.82 1.88 13.64
1/20/2021 2:30:00 AM 0.79 33.422 0.089 6.81 1.88 13.64
1/20/2021 2:45:00 AM 0.76 33.368 0.089 6.82 1.91 13.66
1/20/2021 3:00:00 AM 0.72 33.296 0.089 6.82 1.9 13.66
1/20/2021 3:15:00 AM 0.68 33.224 0.089 6.82 1.87 13.67
1/20/2021 3:30:00 AM 0.64 33.152 0.089 6.82 1.9 13.69
1/20/2021 3:45:00 AM 0.61 33.098 0.089 6.82 1.86 13.7
1/20/2021 4:00:00 AM 0.57 33.026 0.089 6.82 1.85 13.71
1/20/2021 4:15:00 AM 0.52 32.936 0.089 6.82 1.83 13.72
1/20/2021 4:30:00 AM 0.44 32.792 0.089 6.81 1.87 13.72
1/20/2021 4:45:00 AM 0.37 32.666 0.089 6.81 1.84 13.74
1/20/2021 5:00:00 AM 0.36 32.648 0.089 6.81 1.86 13.76
1/20/2021 5:15:00 AM 0.37 32.666 0.089 6.82 1.88 13.77
1/20/2021 5:30:00 AM 0.36 32.648 0.089 6.82 1.86 13.78
1/20/2021 5:45:00 AM 0.34 32.612 0.089 6.82 1.86 13.8
1/20/2021 6:00:00 AM 0.32 32.576 0.089 6.82 1.85 13.82
1/20/2021 6:15:00 AM 0.32 32.576 0.089 6.82 1.8 13.83
1/20/2021 6:30:00 AM 0.32 32.576 0.089 6.82 1.84 13.83
1/20/2021 6:45:00 AM 0.32 32.576 0.089 6.83 1.82 13.84
1/20/2021 7:00:00 AM 0.29 32.522 0.089 6.83 1.83 13.85
1/20/2021 7:15:00 AM 0.28 32.504 0.089 6.82 1.82 13.86
1/20/2021 7:30:00 AM 0.27 32.486 0.089 6.83 1.84 13.87
1/20/2021 7:45:00 AM 0.25 32.45 0.089 6.83 1.83 13.9
1/20/2021 8:00:00 AM 0.23 32.414 0.089 6.84 1.82 13.95
1/20/2021 8:15:00 AM 0.23 32.414 0.089 6.85 1.8 14
1/20/2021 8:30:00 AM 0.22 32.396 0.089 6.86 1.81 14.05
1/20/2021 8:45:00 AM 0.24 32.432 0.089 6.87 1.77 14.09
1/20/2021 9:00:00 AM 0.22 32.396 0.089 6.88 1.84 14.14
1/20/2021 9:15:00 AM 0.22 32.396 0.089 6.89 1.8 14.17
1/20/2021 9:30:00 AM 0.24 32.432 0.089 6.9 1.8 14.22
1/20/2021 9:45:00 AM 0.27 32.486 0.089 6.92 1.82 14.25
1/20/2021 10:00:00 AM 0.27 32.486 0.089 6.92 1.8 14.28
1/20/2021 10:15:00 AM 0.28 32.504 0.089 6.92 1.78 14.3
1/20/2021 10:30:00 AM 0.29 32.522 0.089 6.92 1.72 14.32
1/20/2021 10:45:00 AM 0.33 32.594 0.088 6.93 1.78 14.33
1/20/2021 11:00:00 AM 0.38 32.684 0.088 6.94 1.81 14.34
1/20/2021 11:15:00 AM 0.45 32.81 0.088 6.95 1.76 14.33
1/20/2021 11:30:00 AM 0.49 32.882 0.088 6.95 1.77 14.33
1/20/2021 11:45:00 AM 0.52 32.936 0.088 6.95 1.75 14.32
1/20/2021 12:00:00 PM 0.57 33.026 0.088 6.96 1.77 14.32
1/20/2021 12:15:00 PM 0.62 33.116 0.088 6.97 1.73 14.31
1/20/2021 12:30:00 PM 0.79 33.422 0.088 6.97 1.74 14.29
1/20/2021 12:45:00 PM 0.86 33.548 0.088 6.98 1.74 14.26
1/20/2021 1:00:00 PM 0.86 33.548 0.088 6.96 1.75 14.26
1/20/2021 1:15:00 PM 0.92 33.656 0.088 6.97 1.76 14.25
1/20/2021 1:30:00 PM 0.93 33.674 0.088 6.97 1.77 14.23
1/20/2021 1:45:00 PM 0.9 33.62 0.088 6.97 1.77 14.21
1/20/2021 2:00:00 PM 0.9 33.62 0.088 6.96 1.76 14.22
1/20/2021 2:15:00 PM 0.92 33.656 0.088 6.97 1.76 14.21
1/20/2021 2:30:00 PM 0.9 33.62 0.088 6.96 1.79 14.19
1/20/2021 2:45:00 PM 0.86 33.548 0.088 6.95 1.78 14.19
1/20/2021 3:00:00 PM 0.83 33.494 0.088 6.96 1.74 14.21
1/20/2021 3:15:00 PM 0.81 33.458 0.088 6.95 1.76 14.21
1/20/2021 3:30:00 PM 0.79 33.422 0.088 6.95 1.77 14.21
1/20/2021 3:45:00 PM 0.78 33.404 0.088 6.95 1.78 14.22
1/20/2021 4:00:00 PM 0.76 33.368 0.088 6.95 1.75 14.23
1/20/2021 4:15:00 PM 0.7 33.26 0.088 6.95 1.79 14.23
1/20/2021 4:30:00 PM 0.66 33.188 0.088 6.95 1.72 14.23
1/20/2021 4:45:00 PM 0.62 33.116 0.089 6.95 1.76 14.22
1/20/2021 5:00:00 PM 0.58 33.044 0.089 6.93 1.75 14.19
1/20/2021 5:15:00 PM 0.52 32.936 0.089 6.92 1.76 14.14
1/20/2021 5:30:00 PM 0.46 32.828 0.089 6.9 1.79 14.1
1/20/2021 5:45:00 PM 0.41 32.738 0.09 6.89 1.75 14.08
1/20/2021 6:00:00 PM 0.34 32.612 0.09 6.88 1.81 14.07
1/20/2021 6:15:00 PM 0.26 32.468 0.09 6.86 1.82 14.06
1/20/2021 6:30:00 PM 0.19 32.342 0.09 6.85 1.78 14.06
1/20/2021 6:45:00 PM 0.12 32.216 0.09 6.84 1.77 14.06
1/20/2021 7:00:00 PM 0.05 32.09 0.09 6.84 1.78 14.07
1/20/2021 7:15:00 PM -0.02 31.964 0.09 6.83 1.77 14.08
1/20/2021 7:30:00 PM -0.07 31.874 0.09 6.82 1.77 14.1
1/20/2021 7:45:00 PM -0.1 31.82 0.089 6.84 1.81 14.12
1/20/2021 8:00:00 PM -0.08 31.856 0.09 6.83 1.82 14.13
1/20/2021 8:15:00 PM -0.08 31.856 0.09 6.86 1.79 14.14
1/20/2021 8:30:00 PM -0.08 31.856 0.09 6.84 1.74 14.14
1/20/2021 8:45:00 PM -0.08 31.856 0.09 6.85 1.74 14.15
1/20/2021 9:00:00 PM -0.08 31.856 0.09 6.87 1.8 14.16
1/20/2021 9:15:00 PM -0.08 31.856 0.09 6.89 1.8 14.16
1/20/2021 9:30:00 PM -0.08 31.856 0.09 6.89 1.79 14.18
1/20/2021 9:45:00 PM -0.07 31.874 0.091 6.9 1.84 14.17
1/20/2021 10:00:00 PM -0.07 31.874 0.091 6.9 1.72 14.16
1/20/2021 10:15:00 PM -0.07 31.874 0.091 6.9 1.72 14.17
1/20/2021 10:30:00 PM -0.07 31.874 0.091 6.9 1.77 14.16
1/20/2021 10:45:00 PM -0.07 31.874 0.091 6.89 1.76 14.16
1/20/2021 11:00:00 PM -0.07 31.874 0.091 6.89 1.84 14.15
1/20/2021 11:15:00 PM -0.07 31.874 0.091 6.89 1.81 14.15
1/20/2021 11:30:00 PM -0.07 31.874 0.091 6.89 1.87 14.14
1/20/2021 11:45:00 PM -0.07 31.874 0.091 6.89 1.78 14.14
1/21/2021 12:00:00 AM -0.07 31.874 0.091 6.89 1.79 14.13
1/21/2021 12:15:00 AM -0.07 31.874 0.092 6.89 1.76 14.14
1/21/2021 12:30:00 AM -0.07 31.874 0.092 6.89 1.79 14.14
1/21/2021 12:45:00 AM -0.07 31.874 0.092 6.89 1.74 14.14
1/21/2021 1:00:00 AM -0.07 31.874 0.092 6.89 1.76 14.14
1/21/2021 1:15:00 AM -0.07 31.874 0.092 6.89 1.75 14.14
1/21/2021 1:30:00 AM -0.07 31.874 0.092 6.88 1.78 14.14
1/21/2021 1:45:00 AM -0.07 31.874 0.092 6.89 1.72 14.14
1/21/2021 2:00:00 AM -0.07 31.874 0.092 6.89 1.75 14.14
1/21/2021 2:15:00 AM -0.07 31.874 0.093 6.89 1.75 14.14
1/21/2021 2:30:00 AM -0.07 31.874 0.093 6.89 1.75 14.14
1/21/2021 2:45:00 AM -0.07 31.874 0.093 6.89 1.74 14.13
1/21/2021 3:00:00 AM -0.07 31.874 0.093 6.89 1.76 14.13
1/21/2021 3:15:00 AM -0.07 31.874 0.093 6.88 1.73 14.12
1/21/2021 3:30:00 AM -0.07 31.874 0.093 6.89 1.79 14.12
1/21/2021 3:45:00 AM -0.07 31.874 0.093 6.88 1.72 14.12
1/21/2021 4:00:00 AM -0.07 31.874 0.093 6.88 1.72 14.1
1/21/2021 4:15:00 AM -0.07 31.874 0.094 6.89 1.73 14.09
1/21/2021 4:30:00 AM -0.07 31.874 0.094 6.89 1.73 14.08
1/21/2021 4:45:00 AM -0.07 31.874 0.094 6.88 1.74 14.08
1/21/2021 5:00:00 AM -0.07 31.874 0.094 6.88 1.73 14.07
1/21/2021 5:15:00 AM -0.07 31.874 0.094 6.88 1.71 14.06
1/21/2021 5:30:00 AM -0.07 31.874 0.094 6.88 1.72 14.05
1/21/2021 5:45:00 AM -0.07 31.874 0.094 6.89 1.71 14.04
1/21/2021 6:00:00 AM -0.07 31.874 0.094 6.89 1.75 14.04
1/21/2021 6:15:00 AM -0.07 31.874 0.094 6.89 1.72 14.03
1/21/2021 6:30:00 AM -0.07 31.874 0.094 6.89 1.73 14.02
1/21/2021 6:45:00 AM -0.07 31.874 0.095 6.89 1.74 14.02
1/21/2021 7:00:00 AM -0.07 31.874 0.095 6.89 1.76 14.02
1/21/2021 7:15:00 AM -0.07 31.874 0.095 6.89 1.87 14.01
1/21/2021 7:30:00 AM -0.07 31.874 0.095 6.89 1.79 14.01
1/21/2021 7:45:00 AM -0.07 31.874 0.095 6.89 1.77 14.01
1/21/2021 8:00:00 AM -0.07 31.874 0.095 6.89 1.78 14.03
1/21/2021 8:15:00 AM -0.07 31.874 0.095 6.9 1.75 14.06
1/21/2021 8:30:00 AM -0.07 31.874 0.095 6.91 1.75 14.09
1/21/2021 8:45:00 AM -0.07 31.874 0.095 6.91 1.77 14.13
1/21/2021 9:00:00 AM -0.06 31.892 0.095 6.92 1.8 14.17
1/21/2021 9:15:00 AM -0.06 31.892 0.095 6.93 1.82 14.21
1/21/2021 9:30:00 AM -0.06 31.892 0.095 6.93 1.88 14.23
1/21/2021 9:45:00 AM -0.06 31.892 0.095 6.94 1.85 14.25
1/21/2021 10:00:00 AM -0.06 31.892 0.095 6.94 1.83 14.26
1/21/2021 10:15:00 AM -0.06 31.892 0.095 6.94 1.9 14.27
1/21/2021 10:30:00 AM -0.06 31.892 0.095 6.95 1.86 14.28
1/21/2021 10:45:00 AM -0.06 31.892 0.094 6.95 1.9 14.28
1/21/2021 11:00:00 AM -0.06 31.892 0.094 6.96 1.85 14.28
1/21/2021 11:15:00 AM -0.06 31.892 0.094 6.96 1.84 14.28
1/21/2021 11:30:00 AM -0.06 31.892 0.094 6.95 1.83 14.27
1/21/2021 11:45:00 AM -0.06 31.892 0.094 6.96 1.9 14.26
1/21/2021 12:00:00 PM -0.05 31.91 0.094 6.98 1.93 14.26
1/21/2021 12:15:00 PM -0.06 31.892 0.094 6.97 1.97 14.26
1/21/2021 12:30:00 PM -0.06 31.892 0.094 6.96 1.96 14.25
1/21/2021 12:45:00 PM -0.06 31.892 0.094 6.97 1.97 14.25
1/21/2021 1:00:00 PM -0.05 31.91 0.094 6.98 2.07 14.25
1/21/2021 1:15:00 PM -0.04 31.928 0.094 6.99 1.95 14.24
1/21/2021 1:30:00 PM 0 32 0.094 6.93 1.98 14.24
1/21/2021 1:45:00 PM 0.05 32.09 0.094 6.91 1.92 14.23
1/21/2021 2:00:00 PM 0.03 32.054 0.093 6.9 1.9 14.22
1/21/2021 2:15:00 PM 0.02 32.036 0.094 6.87 1.92 14.21
1/21/2021 2:30:00 PM 0 32 0.094 6.85 1.89 14.2
1/21/2021 2:45:00 PM -0.01 31.982 0.094 6.84 1.95 14.19
1/21/2021 3:00:00 PM -0.01 31.982 0.094 6.84 1.97 14.18
1/21/2021 3:15:00 PM -0.03 31.946 0.095 6.85 2.17 14.17
1/21/2021 3:30:00 PM -0.03 31.946 0.095 6.87 2.08 14.17
1/21/2021 3:45:00 PM -0.03 31.946 0.094 6.9 2.07 14.16
1/21/2021 4:00:00 PM -0.04 31.928 0.095 6.93 2.01 14.15
1/21/2021 4:15:00 PM -0.05 31.91 0.094 6.93 2.05 14.14
1/21/2021 4:30:00 PM -0.05 31.91 0.094 6.95 2.07 14.13
1/21/2021 4:45:00 PM -0.06 31.892 0.094 6.91 2.11 14.12
1/21/2021 5:00:00 PM -0.06 31.892 0.093 6.87 2.35 14.1
1/21/2021 5:15:00 PM -0.07 31.874 0.093 6.85 2.35 14.08
1/21/2021 5:30:00 PM -0.07 31.874 0.093 6.84 2.25 14.05
1/21/2021 5:45:00 PM -0.07 31.874 0.092 6.84 2.24 14.03
1/21/2021 6:00:00 PM -0.07 31.874 0.092 6.83 2.26 14.02
1/21/2021 6:15:00 PM -0.07 31.874 0.092 6.82 2.24 14
1/21/2021 6:30:00 PM -0.07 31.874 0.092 6.82 2.17 13.99
1/21/2021 6:45:00 PM -0.07 31.874 0.091 6.81 2.11 13.97
1/21/2021 7:00:00 PM -0.06 31.892 0.091 6.81 2.11 13.97
1/21/2021 7:15:00 PM -0.06 31.892 0.091 6.8 2.03 13.95
1/21/2021 7:30:00 PM -0.06 31.892 0.09 6.8 2.03 13.94
1/21/2021 7:45:00 PM -0.05 31.91 0.09 6.79 2 13.93
1/21/2021 8:00:00 PM -0.05 31.91 0.09 6.79 2.06 13.93
1/21/2021 8:15:00 PM -0.05 31.91 0.089 6.78 2.03 13.92
1/21/2021 8:30:00 PM -0.05 31.91 0.089 6.78 2.04 13.91
1/21/2021 8:45:00 PM -0.04 31.928 0.089 6.76 2.03 13.9
1/21/2021 9:00:00 PM -0.05 31.91 0.089 6.77 2.06 13.9
1/21/2021 9:15:00 PM -0.05 31.91 0.088 6.77 2.08 13.89
1/21/2021 9:30:00 PM -0.05 31.91 0.088 6.76 2.12 13.89
1/21/2021 9:45:00 PM -0.05 31.91 0.088 6.77 2.12 13.88
1/21/2021 10:00:00 PM -0.04 31.928 0.088 6.76 2.11 13.88
1/21/2021 10:15:00 PM -0.04 31.928 0.089 6.76 2.19 13.87
1/21/2021 10:30:00 PM -0.04 31.928 0.089 6.75 2.17 13.87
1/21/2021 10:45:00 PM -0.05 31.91 0.089 6.74 2.14 13.87
1/21/2021 11:00:00 PM -0.06 31.892 0.089 6.83 2.25 13.87
1/21/2021 11:15:00 PM -0.06 31.892 0.089 6.83 2.2 13.87
1/21/2021 11:30:00 PM -0.06 31.892 0.089 6.82 2.17 13.87
1/21/2021 11:45:00 PM -0.05 31.91 0.089 6.83 2.04 13.87
1/22/2021 12:00:00 AM -0.05 31.91 0.089 6.83 2.03 13.87
1/22/2021 12:15:00 AM -0.05 31.91 0.089 6.82 2.04 13.87
1/22/2021 12:30:00 AM -0.05 31.91 0.089 6.82 2.06 13.87
1/22/2021 12:45:00 AM -0.05 31.91 0.089 6.81 2.03 13.88
1/22/2021 1:00:00 AM -0.05 31.91 0.089 6.81 2.03 13.87
1/22/2021 1:15:00 AM -0.05 31.91 0.089 6.81 2 13.87
1/22/2021 1:30:00 AM -0.05 31.91 0.089 6.81 2.03 13.87
1/22/2021 1:45:00 AM -0.05 31.91 0.089 6.83 2 13.87
1/22/2021 2:00:00 AM -0.04 31.928 0.09 6.81 2.02 13.87
1/22/2021 2:15:00 AM -0.04 31.928 0.09 6.82 2.01 13.87
1/22/2021 2:30:00 AM -0.04 31.928 0.09 6.82 1.93 13.87
1/22/2021 2:45:00 AM -0.05 31.91 0.09 6.83 2 13.87
1/22/2021 3:00:00 AM -0.05 31.91 0.09 6.82 1.98 13.88
1/22/2021 3:15:00 AM -0.05 31.91 0.09 6.81 2 13.88
1/22/2021 3:30:00 AM -0.05 31.91 0.09 6.83 1.97 13.88
1/22/2021 3:45:00 AM -0.05 31.91 0.09 6.83 1.93 13.89
1/22/2021 4:00:00 AM -0.05 31.91 0.09 6.83 1.92 13.88
1/22/2021 4:15:00 AM -0.05 31.91 0.09 6.82 1.96 13.88
1/22/2021 4:30:00 AM -0.05 31.91 0.09 6.83 1.95 13.89
1/22/2021 4:45:00 AM -0.05 31.91 0.09 6.83 1.9 13.88
1/22/2021 5:00:00 AM -0.05 31.91 0.09 6.82 1.92 13.89
1/22/2021 5:15:00 AM -0.05 31.91 0.09 6.82 1.95 13.89
1/22/2021 5:30:00 AM -0.05 31.91 0.09 6.82 1.91 13.89
1/22/2021 5:45:00 AM -0.05 31.91 0.09 6.82 1.89 13.89
1/22/2021 6:00:00 AM -0.05 31.91 0.091 6.82 1.92 13.89
1/22/2021 6:15:00 AM -0.05 31.91 0.091 6.82 1.86 13.89
1/22/2021 6:30:00 AM -0.05 31.91 0.091 6.83 1.87 13.89
1/22/2021 6:45:00 AM -0.05 31.91 0.091 6.83 1.88 13.89
1/22/2021 7:00:00 AM -0.05 31.91 0.091 6.83 1.84 13.9
1/22/2021 7:15:00 AM -0.05 31.91 0.092 6.83 1.84 13.9
1/22/2021 7:30:00 AM -0.05 31.91 0.092 6.83 1.83 13.91
1/22/2021 7:45:00 AM -0.05 31.91 0.092 6.83 1.81 13.92
1/22/2021 8:00:00 AM -0.04 31.928 0.092 6.84 1.84 13.94
1/22/2021 8:15:00 AM -0.04 31.928 0.092 6.85 1.8 13.98
1/22/2021 8:30:00 AM -0.03 31.946 0.093 6.85 1.78 14.01
1/22/2021 8:45:00 AM -0.03 31.946 0.093 6.86 1.89 14.05
1/22/2021 9:00:00 AM -0.02 31.964 0.093 6.87 1.86 14.09
1/22/2021 9:15:00 AM -0.02 31.964 0.093 6.87 1.89 14.13
1/22/2021 9:30:00 AM 0 32 0.093 6.9 1.89 14.16
1/22/2021 9:45:00 AM 0.01 32.018 0.093 6.91 1.94 14.18
1/22/2021 10:00:00 AM 0.04 32.072 0.093 6.92 1.91 14.2
1/22/2021 10:15:00 AM 0.06 32.108 0.093 6.92 1.89 14.22
1/22/2021 10:30:00 AM 0.11 32.198 0.093 6.94 1.83 14.23
1/22/2021 10:45:00 AM 0.14 32.252 0.093 6.92 1.78 14.24
1/22/2021 11:00:00 AM 0.15 32.27 0.093 6.93 1.84 14.24
1/22/2021 11:15:00 AM 0.15 32.27 0.093 6.93 1.89 14.23
1/22/2021 11:30:00 AM 0.13 32.234 0.093 6.91 1.77 14.24
1/22/2021 11:45:00 AM 0.12 32.216 0.093 6.92 1.81 14.23
1/22/2021 12:00:00 PM 0.12 32.216 0.093 6.86 1.84 14.23
1/22/2021 12:15:00 PM 0.1 32.18 0.093 6.88 1.81 14.22
1/22/2021 12:30:00 PM -0.01 31.982 0.093 6.88 1.86 14.19
1/22/2021 12:45:00 PM -0.04 31.928 0.093 6.88 1.9 14.19
1/22/2021 1:00:00 PM -0.01 31.982 0.093 6.89 1.84 14.21
1/22/2021 1:15:00 PM 0.01 32.018 0.093 6.89 1.77 14.22
1/22/2021 1:30:00 PM 0.1 32.18 0.093 6.9 1.77 14.23
1/22/2021 1:45:00 PM 0.17 32.306 0.093 6.91 1.76 14.23
1/22/2021 2:00:00 PM 0.18 32.324 0.093 6.91 1.74 14.24
1/22/2021 2:15:00 PM 0.17 32.306 0.093 6.91 1.76 14.24
1/22/2021 2:30:00 PM 0.15 32.27 0.093 6.92 1.77 14.25
1/22/2021 2:45:00 PM 0.13 32.234 0.093 6.92 1.72 14.24
1/22/2021 3:00:00 PM 0.13 32.234 0.093 6.92 1.73 14.24
1/22/2021 3:15:00 PM 0.15 32.27 0.093 6.92 1.72 14.24
1/22/2021 3:30:00 PM 0.14 32.252 0.093 6.92 1.69 14.22
1/22/2021 3:45:00 PM 0.14 32.252 0.093 6.92 1.67 14.21
1/22/2021 4:00:00 PM 0.13 32.234 0.093 6.91 1.7 14.2
1/22/2021 4:15:00 PM 0.12 32.216 0.093 6.9 1.77 14.17
1/22/2021 4:30:00 PM 0.12 32.216 0.093 6.89 1.72 14.17
1/22/2021 4:45:00 PM 0.11 32.198 0.093 6.89 1.79 14.14
1/22/2021 5:00:00 PM 0.11 32.198 0.093 6.89 1.77 14.11
1/22/2021 5:15:00 PM 0.1 32.18 0.093 6.88 1.71 14.09
1/22/2021 5:30:00 PM 0.08 32.144 0.093 6.87 1.73 14.06
1/22/2021 5:45:00 PM 0.08 32.144 0.094 6.9 1.7 14.03
1/22/2021 6:00:00 PM 0.07 32.126 0.094 6.86 1.77 14.02
1/22/2021 6:15:00 PM 0.07 32.126 0.094 6.86 1.75 14.01
1/22/2021 6:30:00 PM 0.06 32.108 0.094 6.85 1.76 13.99
1/22/2021 6:45:00 PM 0.04 32.072 0.094 6.85 1.77 13.99
1/22/2021 7:00:00 PM 0.03 32.054 0.094 6.84 1.74 13.99
1/22/2021 7:15:00 PM 0.03 32.054 0.094 6.84 1.77 13.98
1/22/2021 7:30:00 PM 0.01 32.018 0.094 6.85 1.73 13.99
1/22/2021 7:45:00 PM 0 32 0.094 6.83 1.73 13.99
1/22/2021 8:00:00 PM -0.01 31.982 0.094 6.84 1.75 13.99
1/22/2021 8:15:00 PM -0.02 31.964 0.094 6.84 1.75 13.99
1/22/2021 8:30:00 PM -0.03 31.946 0.094 6.84 1.71 14
1/22/2021 8:45:00 PM -0.04 31.928 0.094 6.84 1.73 14
1/22/2021 9:00:00 PM -0.05 31.91 0.094 6.83 1.71 14.01
1/22/2021 9:15:00 PM -0.07 31.874 0.094 6.83 1.71 14.02
1/22/2021 9:30:00 PM -0.07 31.874 0.094 6.83 1.71 14.03
1/22/2021 9:45:00 PM -0.07 31.874 0.093 6.82 1.77 14.05
1/22/2021 10:00:00 PM -0.07 31.874 0.093 6.83 1.75 14.05
1/22/2021 10:15:00 PM -0.07 31.874 0.093 6.82 1.81 14.07
1/22/2021 10:30:00 PM -0.07 31.874 0.093 6.82 1.79 14.07
1/22/2021 10:45:00 PM -0.07 31.874 0.093 6.85 1.78 14.08
1/22/2021 11:00:00 PM -0.07 31.874 0.093 6.88 1.83 14.09
1/22/2021 11:15:00 PM -0.07 31.874 0.093 6.89 2 14.1
1/22/2021 11:30:00 PM -0.07 31.874 0.093 6.91 1.87 14.11
1/22/2021 11:45:00 PM -0.07 31.874 0.093 6.91 1.89 14.11
1/23/2021 12:00:00 AM -0.07 31.874 0.093 6.9 1.95 14.12
1/23/2021 12:15:00 AM -0.07 31.874 0.093 6.87 1.97 14.12
1/23/2021 12:30:00 AM -0.07 31.874 0.093 6.88 1.98 14.13
1/23/2021 12:45:00 AM -0.07 31.874 0.093 6.86 1.97 14.13
1/23/2021 1:00:00 AM -0.07 31.874 0.093 6.84 1.96 14.13
1/23/2021 1:15:00 AM -0.07 31.874 0.093 6.83 1.96 14.14
1/23/2021 1:30:00 AM -0.07 31.874 0.093 6.82 1.95 14.14
1/23/2021 1:45:00 AM -0.07 31.874 0.093 6.83 1.94 14.14
1/23/2021 2:00:00 AM -0.07 31.874 0.093 6.83 1.94 14.14
1/23/2021 2:15:00 AM -0.07 31.874 0.093 6.83 1.93 14.15
1/23/2021 2:30:00 AM -0.07 31.874 0.093 6.84 1.93 14.15
1/23/2021 2:45:00 AM -0.07 31.874 0.093 6.86 1.84 14.16
1/23/2021 3:00:00 AM -0.07 31.874 0.093 6.86 1.95 14.15
1/23/2021 3:15:00 AM -0.07 31.874 0.093 6.86 1.88 14.16
1/23/2021 3:30:00 AM -0.07 31.874 0.093 6.87 1.84 14.16
1/23/2021 3:45:00 AM -0.07 31.874 0.093 6.86 1.91 14.16
1/23/2021 4:00:00 AM -0.07 31.874 0.093 6.85 1.82 14.16
1/23/2021 4:15:00 AM -0.07 31.874 0.093 6.86 1.87 14.17
1/23/2021 4:30:00 AM -0.07 31.874 0.093 6.86 1.84 14.17
1/23/2021 4:45:00 AM -0.07 31.874 0.093 6.86 1.83 14.17
1/23/2021 5:00:00 AM -0.07 31.874 0.093 6.86 1.84 14.17
1/23/2021 5:15:00 AM -0.07 31.874 0.093 6.86 1.78 14.18
1/23/2021 5:30:00 AM -0.07 31.874 0.093 6.86 1.76 14.18
1/23/2021 5:45:00 AM -0.07 31.874 0.093 6.86 1.8 14.18
1/23/2021 6:00:00 AM -0.07 31.874 0.093 6.86 1.75 14.18
1/23/2021 6:15:00 AM -0.07 31.874 0.093 6.86 1.72 14.19
1/23/2021 6:30:00 AM -0.07 31.874 0.093 6.87 1.74 14.19
1/23/2021 6:45:00 AM -0.07 31.874 0.093 6.88 1.72 14.19
1/23/2021 7:00:00 AM -0.06 31.892 0.093 6.88 1.75 14.19
1/23/2021 7:15:00 AM -0.06 31.892 0.093 6.89 1.78 14.19
1/23/2021 7:30:00 AM -0.07 31.874 0.093 6.9 1.76 14.21
1/23/2021 7:45:00 AM -0.07 31.874 0.093 6.9 1.71 14.23
1/23/2021 8:00:00 AM -0.07 31.874 0.094 6.9 1.77 14.26
1/23/2021 8:15:00 AM -0.06 31.892 0.094 6.91 1.81 14.3
1/23/2021 8:30:00 AM -0.06 31.892 0.094 6.92 1.89 14.34
1/23/2021 8:45:00 AM -0.06 31.892 0.094 6.92 1.8 14.38
1/23/2021 9:00:00 AM -0.06 31.892 0.093 6.93 1.81 14.4
1/23/2021 9:15:00 AM -0.06 31.892 0.094 6.93 1.76 14.43
1/23/2021 9:30:00 AM -0.06 31.892 0.094 6.94 1.76 14.46
1/23/2021 9:45:00 AM -0.06 31.892 0.094 6.94 1.75 14.48
1/23/2021 10:00:00 AM -0.06 31.892 0.094 6.96 1.87 14.5
1/23/2021 10:15:00 AM -0.07 31.874 0.093 6.98 1.74 14.53
1/23/2021 10:30:00 AM -0.06 31.892 0.093 6.98 1.83 14.54
1/23/2021 10:45:00 AM -0.07 31.874 0.093 6.98 1.7 14.56
1/23/2021 11:00:00 AM -0.06 31.892 0.093 6.98 1.66 14.57
1/23/2021 11:15:00 AM -0.06 31.892 0.093 7 1.65 14.57
1/23/2021 11:30:00 AM -0.06 31.892 0.093 7.01 1.66 14.58
1/23/2021 11:45:00 AM -0.06 31.892 0.093 7 1.75 14.59
1/23/2021 12:00:00 PM -0.06 31.892 0.093 6.99 1.69 14.59
1/23/2021 12:15:00 PM -0.07 31.874 0.093 6.98 1.8 14.6
1/23/2021 12:30:00 PM -0.07 31.874 0.093 6.99 1.79 14.59
1/23/2021 12:45:00 PM -0.07 31.874 0.093 6.99 1.9 14.6
1/23/2021 1:00:00 PM -0.07 31.874 0.093 6.99 1.74 14.61
1/23/2021 1:15:00 PM -0.07 31.874 0.093 6.99 1.74 14.61
1/23/2021 1:30:00 PM -0.07 31.874 0.093 6.98 1.75 14.62
1/23/2021 1:45:00 PM -0.07 31.874 0.093 6.99 1.84 14.62
1/23/2021 2:00:00 PM -0.06 31.892 0.093 6.97 1.87 14.62
1/23/2021 2:15:00 PM -0.07 31.874 0.093 7 1.79 14.63
1/23/2021 2:30:00 PM -0.07 31.874 0.093 7 1.74 14.63
1/23/2021 2:45:00 PM -0.07 31.874 0.093 7.02 1.82 14.64
1/23/2021 3:00:00 PM -0.07 31.874 0.093 7.02 1.87 14.63
1/23/2021 3:15:00 PM -0.06 31.892 0.093 7 1.91 14.64
1/23/2021 3:30:00 PM -0.06 31.892 0.093 7.01 1.82 14.64
1/23/2021 3:45:00 PM -0.07 31.874 0.093 7 1.85 14.63
1/23/2021 4:00:00 PM -0.07 31.874 0.093 6.99 1.79 14.63
1/23/2021 4:15:00 PM -0.07 31.874 0.093 6.99 1.81 14.62
1/23/2021 4:30:00 PM -0.07 31.874 0.093 6.98 1.77 14.59
1/23/2021 4:45:00 PM -0.07 31.874 0.093 6.97 1.79 14.57
1/23/2021 5:00:00 PM -0.07 31.874 0.093 6.96 1.81 14.54
1/23/2021 5:15:00 PM -0.07 31.874 0.093 6.95 1.78 14.5
1/23/2021 5:30:00 PM -0.07 31.874 0.094 6.95 1.72 14.46
1/23/2021 5:45:00 PM -0.07 31.874 0.094 6.94 1.74 14.43
1/23/2021 6:00:00 PM -0.07 31.874 0.094 6.93 1.79 14.41
1/23/2021 6:15:00 PM -0.07 31.874 0.094 6.92 1.76 14.39
1/23/2021 6:30:00 PM -0.07 31.874 0.094 6.92 1.76 14.37
1/23/2021 6:45:00 PM -0.07 31.874 0.094 6.91 1.75 14.36
1/23/2021 7:00:00 PM -0.07 31.874 0.094 6.92 1.78 14.34
1/23/2021 7:15:00 PM -0.07 31.874 0.094 6.91 1.72 14.33
1/23/2021 7:30:00 PM -0.07 31.874 0.094 6.92 1.78 14.32
1/23/2021 7:45:00 PM -0.07 31.874 0.094 6.91 1.73 14.3
1/23/2021 8:00:00 PM -0.07 31.874 0.094 6.9 1.71 14.29
1/23/2021 8:15:00 PM -0.07 31.874 0.095 6.9 1.71 14.28
1/23/2021 8:30:00 PM -0.07 31.874 0.095 6.91 1.75 14.28
1/23/2021 8:45:00 PM -0.07 31.874 0.095 6.9 1.7 14.27
1/23/2021 9:00:00 PM -0.07 31.874 0.095 6.9 1.71 14.26
1/23/2021 9:15:00 PM -0.07 31.874 0.095 6.9 1.69 14.26
1/23/2021 9:30:00 PM -0.07 31.874 0.095 6.9 1.69 14.26
1/23/2021 9:45:00 PM -0.07 31.874 0.095 6.9 1.69 14.25
1/23/2021 10:00:00 PM -0.07 31.874 0.095 6.89 1.69 14.25
1/23/2021 10:15:00 PM -0.07 31.874 0.095 6.89 1.67 14.24
1/23/2021 10:30:00 PM -0.07 31.874 0.095 6.89 1.72 14.24
1/23/2021 10:45:00 PM -0.07 31.874 0.095 6.88 1.68 14.23
1/23/2021 11:00:00 PM -0.07 31.874 0.095 6.88 1.72 14.23
1/23/2021 11:15:00 PM -0.07 31.874 0.095 6.89 1.73 14.23
1/23/2021 11:30:00 PM -0.07 31.874 0.095 6.88 1.73 14.23
1/23/2021 11:45:00 PM -0.07 31.874 0.095 6.88 1.71 14.22
1/24/2021 12:00:00 AM -0.07 31.874 0.095 6.88 1.71 14.23
1/24/2021 12:15:00 AM -0.07 31.874 0.096 6.88 1.7 14.23
1/24/2021 12:30:00 AM -0.07 31.874 0.096 6.88 1.76 14.23
1/24/2021 12:45:00 AM -0.07 31.874 0.096 6.89 1.72 14.23
1/24/2021 1:00:00 AM -0.07 31.874 0.096 6.89 1.8 14.23
1/24/2021 1:15:00 AM -0.07 31.874 0.096 6.89 1.77 14.23
1/24/2021 1:30:00 AM -0.07 31.874 0.096 6.89 1.83 14.23
1/24/2021 1:45:00 AM -0.07 31.874 0.096 6.89 1.8 14.22
1/24/2021 2:00:00 AM -0.07 31.874 0.096 6.89 1.79 14.23
1/24/2021 2:15:00 AM -0.07 31.874 0.096 6.88 1.79 14.23
1/24/2021 2:30:00 AM -0.07 31.874 0.096 6.89 1.74 14.23
1/24/2021 2:45:00 AM -0.07 31.874 0.096 6.88 1.78 14.23
1/24/2021 3:00:00 AM -0.07 31.874 0.096 6.88 1.77 14.23
1/24/2021 3:15:00 AM -0.07 31.874 0.096 6.88 1.81 14.23
1/24/2021 3:30:00 AM -0.07 31.874 0.096 6.88 1.73 14.24
1/24/2021 3:45:00 AM -0.07 31.874 0.096 6.89 1.75 14.24
1/24/2021 4:00:00 AM -0.07 31.874 0.096 6.89 1.72 14.24
1/24/2021 4:15:00 AM -0.07 31.874 0.096 6.89 1.75 14.24
1/24/2021 4:30:00 AM -0.07 31.874 0.097 6.89 1.71 14.24
1/24/2021 4:45:00 AM -0.07 31.874 0.097 6.9 1.74 14.25
1/24/2021 5:00:00 AM -0.07 31.874 0.097 6.9 1.81 14.24
1/24/2021 5:15:00 AM -0.07 31.874 0.097 6.9 1.63 14.25
1/24/2021 5:30:00 AM -0.07 31.874 0.097 6.9 1.66 14.26
1/24/2021 5:45:00 AM -0.07 31.874 0.097 6.9 1.67 14.26
1/24/2021 6:00:00 AM -0.07 31.874 0.097 6.9 1.64 14.26
1/24/2021 6:15:00 AM -0.07 31.874 0.097 6.9 1.63 14.27
1/24/2021 6:30:00 AM -0.07 31.874 0.097 6.9 1.63 14.27
1/24/2021 6:45:00 AM -0.07 31.874 0.097 6.9 1.66 14.27
1/24/2021 7:00:00 AM -0.07 31.874 0.097 6.9 1.66 14.28
1/24/2021 7:15:00 AM -0.07 31.874 0.097 6.9 1.65 14.28
1/24/2021 7:30:00 AM -0.07 31.874 0.097 6.9 1.63 14.28
1/24/2021 7:45:00 AM -0.07 31.874 0.098 6.9 1.68 14.29
1/24/2021 8:00:00 AM -0.07 31.874 0.098 6.91 1.65 14.32
1/24/2021 8:15:00 AM -0.07 31.874 0.098 6.91 1.68 14.35
1/24/2021 8:30:00 AM -0.06 31.892 0.098 6.92 1.66 14.39
1/24/2021 8:45:00 AM -0.06 31.892 0.098 6.92 1.67 14.42
1/24/2021 9:00:00 AM -0.06 31.892 0.099 6.93 1.68 14.46
1/24/2021 9:15:00 AM -0.06 31.892 0.099 6.93 1.7 14.49
1/24/2021 9:30:00 AM -0.06 31.892 0.099 6.93 1.71 14.51
1/24/2021 9:45:00 AM -0.06 31.892 0.099 6.94 1.71 14.53
1/24/2021 10:00:00 AM -0.06 31.892 0.099 6.94 1.78 14.55
1/24/2021 10:15:00 AM -0.06 31.892 0.099 6.94 1.74 14.56
1/24/2021 10:30:00 AM -0.06 31.892 0.099 6.95 1.77 14.58
1/24/2021 10:45:00 AM -0.05 31.91 0.098 6.95 1.78 14.59
1/24/2021 11:00:00 AM -0.05 31.91 0.098 6.96 1.77 14.6
1/24/2021 11:15:00 AM -0.06 31.892 0.097 6.96 1.79 14.6
1/24/2021 11:30:00 AM -0.05 31.91 0.097 6.96 1.75 14.62
1/24/2021 11:45:00 AM -0.05 31.91 0.097 6.97 1.79 14.62
1/24/2021 12:00:00 PM -0.05 31.91 0.097 6.98 1.76 14.61
1/24/2021 12:15:00 PM -0.05 31.91 0.097 6.97 1.73 14.62
1/24/2021 12:30:00 PM -0.05 31.91 0.096 6.97 1.78 14.62
1/24/2021 12:45:00 PM -0.06 31.892 0.096 6.97 1.81 14.61
1/24/2021 1:00:00 PM -0.06 31.892 0.096 6.97 1.93 14.61
1/24/2021 1:15:00 PM -0.06 31.892 0.096 6.98 2.05 14.6
1/24/2021 1:30:00 PM -0.06 31.892 0.096 6.97 1.87 14.6
1/24/2021 1:45:00 PM -0.05 31.91 0.096 6.96 1.87 14.6
1/24/2021 2:00:00 PM -0.05 31.91 0.096 6.95 1.94 14.59
1/24/2021 2:15:00 PM -0.05 31.91 0.095 6.91 2.05 14.59
1/24/2021 2:30:00 PM -0.06 31.892 0.095 6.95 2 14.59
1/24/2021 2:45:00 PM -0.06 31.892 0.095 6.91 1.94 14.58
1/24/2021 3:00:00 PM -0.06 31.892 0.095 6.97 1.97 14.58
1/24/2021 3:15:00 PM -0.06 31.892 0.095 7 1.98 14.58
1/24/2021 3:30:00 PM -0.06 31.892 0.095 7.01 1.89 14.58
1/24/2021 3:45:00 PM -0.06 31.892 0.095 6.99 1.91 14.58
1/24/2021 4:00:00 PM -0.06 31.892 0.094 7 1.83 14.57
1/24/2021 4:15:00 PM -0.07 31.874 0.094 7 1.89 14.56
1/24/2021 4:30:00 PM -0.07 31.874 0.094 6.99 1.86 14.55
1/24/2021 4:45:00 PM -0.07 31.874 0.094 6.99 1.79 14.54
1/24/2021 5:00:00 PM -0.07 31.874 0.094 6.99 1.81 14.52
1/24/2021 5:15:00 PM -0.07 31.874 0.094 6.98 1.84 14.47
1/24/2021 5:30:00 PM -0.07 31.874 0.094 6.98 1.78 14.44
1/24/2021 5:45:00 PM -0.07 31.874 0.094 6.96 1.79 14.4
1/24/2021 6:00:00 PM -0.07 31.874 0.094 6.96 1.77 14.37
1/24/2021 6:15:00 PM -0.07 31.874 0.094 6.95 1.83 14.34
1/24/2021 6:30:00 PM -0.07 31.874 0.094 6.94 1.88 14.31
1/24/2021 6:45:00 PM -0.07 31.874 0.095 6.93 1.84 14.29
1/24/2021 7:00:00 PM -0.07 31.874 0.095 6.92 1.85 14.27
1/24/2021 7:15:00 PM -0.07 31.874 0.095 6.92 1.81 14.26
1/24/2021 7:30:00 PM -0.07 31.874 0.095 6.91 1.81 14.24
1/24/2021 7:45:00 PM -0.07 31.874 0.095 6.91 1.84 14.22
1/24/2021 8:00:00 PM -0.07 31.874 0.095 6.9 1.86 14.21
1/24/2021 8:15:00 PM -0.07 31.874 0.095 6.9 1.84 14.2
1/24/2021 8:30:00 PM -0.07 31.874 0.095 6.9 1.82 14.19
1/24/2021 8:45:00 PM -0.07 31.874 0.095 6.89 1.78 14.18
1/24/2021 9:00:00 PM -0.07 31.874 0.095 6.89 1.77 14.16
1/24/2021 9:15:00 PM -0.07 31.874 0.095 6.89 1.79 14.16
1/24/2021 9:30:00 PM -0.07 31.874 0.095 6.88 1.84 14.15
1/24/2021 9:45:00 PM -0.07 31.874 0.095 6.88 1.79 14.14
1/24/2021 10:00:00 PM -0.07 31.874 0.095 6.87 1.8 14.14
1/24/2021 10:15:00 PM -0.07 31.874 0.095 6.88 1.8 14.13
1/24/2021 10:30:00 PM -0.07 31.874 0.096 6.87 1.81 14.13
1/24/2021 10:45:00 PM -0.07 31.874 0.096 6.86 1.81 14.12
1/24/2021 11:00:00 PM -0.07 31.874 0.096 6.85 1.81 14.12
1/24/2021 11:15:00 PM -0.07 31.874 0.096 6.85 1.76 14.11
1/24/2021 11:30:00 PM -0.07 31.874 0.096 6.85 1.82 14.11
1/24/2021 11:45:00 PM -0.07 31.874 0.096 6.84 1.83 14.11
1/25/2021 12:00:00 AM -0.07 31.874 0.096 6.84 1.83 14.1
1/25/2021 12:15:00 AM -0.07 31.874 0.096 6.83 1.81 14.09
1/25/2021 12:30:00 AM -0.07 31.874 0.096 6.83 1.83 14.09
1/25/2021 12:45:00 AM -0.07 31.874 0.096 6.83 1.85 14.09
1/25/2021 1:00:00 AM -0.07 31.874 0.096 6.83 1.8 14.09
1/25/2021 1:15:00 AM -0.07 31.874 0.096 6.83 1.83 14.09
1/25/2021 1:30:00 AM -0.07 31.874 0.096 6.82 1.83 14.08
1/25/2021 1:45:00 AM -0.07 31.874 0.096 6.82 1.86 14.08
1/25/2021 2:00:00 AM -0.07 31.874 0.096 6.82 1.86 14.08
1/25/2021 2:15:00 AM -0.07 31.874 0.096 6.82 1.86 14.08
1/25/2021 2:30:00 AM -0.07 31.874 0.096 6.82 1.85 14.08
1/25/2021 2:45:00 AM -0.07 31.874 0.096 6.81 1.85 14.08
1/25/2021 3:00:00 AM -0.07 31.874 0.096 6.81 1.86 14.08
1/25/2021 3:15:00 AM -0.07 31.874 0.096 6.81 1.84 14.08
1/25/2021 3:30:00 AM -0.07 31.874 0.096 6.81 1.84 14.08
1/25/2021 3:45:00 AM -0.07 31.874 0.096 6.81 1.87 14.08
1/25/2021 4:00:00 AM -0.07 31.874 0.096 6.81 1.86 14.08
1/25/2021 4:15:00 AM -0.07 31.874 0.096 6.8 1.83 14.08
1/25/2021 4:30:00 AM -0.07 31.874 0.096 6.8 1.87 14.07
1/25/2021 4:45:00 AM -0.07 31.874 0.096 6.8 1.82 14.07
1/25/2021 5:00:00 AM -0.07 31.874 0.096 6.8 1.82 14.07
1/25/2021 5:15:00 AM -0.07 31.874 0.097 6.8 1.81 14.07
1/25/2021 5:30:00 AM -0.07 31.874 0.097 6.8 1.82 14.07
1/25/2021 5:45:00 AM -0.07 31.874 0.097 6.79 1.78 14.07
1/25/2021 6:00:00 AM -0.07 31.874 0.097 6.8 1.8 14.07
1/25/2021 6:15:00 AM -0.07 31.874 0.097 6.79 1.85 14.07
1/25/2021 6:30:00 AM -0.07 31.874 0.097 6.79 1.84 14.07
1/25/2021 6:45:00 AM -0.07 31.874 0.097 6.79 1.82 14.07
1/25/2021 7:00:00 AM -0.07 31.874 0.097 6.79 1.81 14.07
1/25/2021 7:15:00 AM -0.07 31.874 0.097 6.79 1.84 14.07
1/25/2021 7:30:00 AM -0.07 31.874 0.097 6.79 1.89 14.08
1/25/2021 7:45:00 AM -0.07 31.874 0.097 6.79 1.82 14.09
1/25/2021 8:00:00 AM -0.07 31.874 0.097 6.8 1.86 14.13
1/25/2021 8:15:00 AM -0.07 31.874 0.097 6.82 1.84 14.17
1/25/2021 8:30:00 AM -0.06 31.892 0.096 6.83 1.87 14.22
1/25/2021 8:45:00 AM -0.06 31.892 0.096 6.83 1.84 14.26
1/25/2021 9:00:00 AM -0.06 31.892 0.096 6.84 1.85 14.29
1/25/2021 9:15:00 AM -0.06 31.892 0.096 6.84 1.85 14.33
1/25/2021 9:30:00 AM -0.06 31.892 0.096 6.87 1.82 14.36
1/25/2021 9:45:00 AM -0.05 31.91 0.096 6.9 1.84 14.39
1/25/2021 10:00:00 AM -0.06 31.892 0.096 6.93 1.8 14.41
1/25/2021 10:15:00 AM -0.06 31.892 0.095 6.94 1.76 14.43
1/25/2021 10:30:00 AM -0.06 31.892 0.095 6.94 1.92 14.45
1/25/2021 10:45:00 AM -0.04 31.928 0.095 6.94 2.03 14.47
1/25/2021 11:00:00 AM -0.01 31.982 0.095 6.92 1.73 14.49
1/25/2021 11:15:00 AM 0.01 32.018 0.095 6.87 1.75 14.49
1/25/2021 11:30:00 AM 0 32 0.095 6.91 1.75 14.49
1/25/2021 11:45:00 AM 0.01 32.018 0.095 6.87 1.73 14.5
1/25/2021 12:00:00 PM 0 32 0.094 6.84 1.82 14.5
1/25/2021 12:15:00 PM 0 32 0.094 6.84 1.81 14.5
1/25/2021 12:30:00 PM 0.02 32.036 0.094 6.88 1.73 14.49
1/25/2021 12:45:00 PM 0 32 0.094 6.89 1.8 14.49
1/25/2021 1:00:00 PM 0 32 0.094 6.87 2.05 14.49
1/25/2021 1:15:00 PM 0 32 0.094 6.83 2.16 14.48
1/25/2021 1:30:00 PM 0 32 0.094 6.84 1.93 14.48
1/25/2021 1:45:00 PM 0 32 0.094 6.84 1.84 14.48
1/25/2021 2:00:00 PM 0 32 0.094 6.84 1.87 14.47
1/25/2021 2:15:00 PM 0 32 0.094 6.85 1.85 14.47
1/25/2021 2:30:00 PM -0.01 31.982 0.093 6.91 1.85 14.46
1/25/2021 2:45:00 PM -0.01 31.982 0.093 6.85 1.78 14.46
1/25/2021 3:00:00 PM 0 32 0.093 6.86 1.81 14.47
1/25/2021 3:15:00 PM -0.01 31.982 0.093 6.89 1.77 14.47
1/25/2021 3:30:00 PM -0.01 31.982 0.093 6.91 1.75 14.46
1/25/2021 3:45:00 PM -0.02 31.964 0.093 6.86 1.76 14.46
1/25/2021 4:00:00 PM -0.03 31.946 0.093 6.88 1.71 14.45
1/25/2021 4:15:00 PM -0.03 31.946 0.093 6.87 1.75 14.44
1/25/2021 4:30:00 PM -0.04 31.928 0.093 6.86 1.67 14.43
1/25/2021 4:45:00 PM -0.04 31.928 0.093 6.86 1.71 14.41
1/25/2021 5:00:00 PM -0.05 31.91 0.093 6.86 1.69 14.37
1/25/2021 5:15:00 PM -0.05 31.91 0.093 6.84 1.66 14.33
1/25/2021 5:30:00 PM -0.06 31.892 0.093 6.85 1.67 14.29
1/25/2021 5:45:00 PM -0.06 31.892 0.093 6.83 1.66 14.26
1/25/2021 6:00:00 PM -0.06 31.892 0.093 6.83 1.64 14.23
1/25/2021 6:15:00 PM -0.06 31.892 0.093 6.82 1.68 14.2
1/25/2021 6:30:00 PM -0.06 31.892 0.093 6.82 1.66 14.18
1/25/2021 6:45:00 PM -0.06 31.892 0.093 6.81 1.63 14.16
1/25/2021 7:00:00 PM -0.06 31.892 0.093 6.8 1.64 14.14
1/25/2021 7:15:00 PM -0.06 31.892 0.093 6.8 1.62 14.13
1/25/2021 7:30:00 PM -0.06 31.892 0.093 6.8 1.62 14.11
1/25/2021 7:45:00 PM -0.06 31.892 0.093 6.79 1.65 14.1
1/25/2021 8:00:00 PM -0.06 31.892 0.092 6.79 1.6 14.09
1/25/2021 8:15:00 PM -0.06 31.892 0.092 6.79 1.62 14.08
1/25/2021 8:30:00 PM -0.06 31.892 0.092 6.78 1.63 14.07
1/25/2021 8:45:00 PM -0.06 31.892 0.092 6.78 1.61 14.06
1/25/2021 9:00:00 PM -0.06 31.892 0.092 6.78 1.64 14.05
1/25/2021 9:15:00 PM -0.05 31.91 0.092 6.77 1.61 14.05
1/25/2021 9:30:00 PM -0.05 31.91 0.092 6.77 1.62 14.04
1/25/2021 9:45:00 PM -0.05 31.91 0.092 6.77 1.61 14.03
1/25/2021 10:00:00 PM -0.05 31.91 0.092 6.77 1.61 14.03
1/25/2021 10:15:00 PM -0.05 31.91 0.092 6.77 1.63 14.03
1/25/2021 10:30:00 PM -0.05 31.91 0.092 6.77 1.64 14.02
1/25/2021 10:45:00 PM -0.05 31.91 0.092 6.77 1.59 14.01
1/25/2021 11:00:00 PM -0.05 31.91 0.092 6.77 1.62 14.01
1/25/2021 11:15:00 PM -0.05 31.91 0.092 6.78 1.64 14.01
1/25/2021 11:30:00 PM -0.05 31.91 0.092 6.78 1.58 14
1/25/2021 11:45:00 PM -0.05 31.91 0.092 6.77 1.62 14
1/26/2021 12:00:00 AM -0.06 31.892 0.092 6.77 1.61 14
1/26/2021 12:15:00 AM -0.06 31.892 0.092 6.78 1.6 14
1/26/2021 12:30:00 AM -0.06 31.892 0.092 6.78 1.61 14
1/26/2021 12:45:00 AM -0.06 31.892 0.092 6.77 1.61 13.99
1/26/2021 1:00:00 AM -0.06 31.892 0.092 6.78 1.6 13.99
1/26/2021 1:15:00 AM -0.06 31.892 0.092 6.78 1.58 13.99
1/26/2021 1:30:00 AM -0.06 31.892 0.092 6.78 1.6 13.99
1/26/2021 1:45:00 AM -0.06 31.892 0.092 6.77 1.63 13.99
1/26/2021 2:00:00 AM -0.06 31.892 0.092 6.78 1.61 13.99
1/26/2021 2:15:00 AM -0.06 31.892 0.092 6.75 1.62 13.99
1/26/2021 2:30:00 AM -0.05 31.91 0.092 6.75 1.64 13.98
1/26/2021 2:45:00 AM -0.05 31.91 0.092 6.75 1.64 13.98
1/26/2021 3:00:00 AM -0.05 31.91 0.092 6.78 1.63 13.97
1/26/2021 3:15:00 AM -0.06 31.892 0.092 6.77 1.6 13.97
1/26/2021 3:30:00 AM -0.06 31.892 0.092 6.77 1.62 13.97
1/26/2021 3:45:00 AM -0.06 31.892 0.092 6.77 1.62 13.97
1/26/2021 4:00:00 AM -0.05 31.91 0.092 6.78 1.62 13.96
1/26/2021 4:15:00 AM -0.05 31.91 0.092 6.77 1.59 13.96
1/26/2021 4:30:00 AM -0.05 31.91 0.092 6.78 1.57 13.96
1/26/2021 4:45:00 AM -0.05 31.91 0.092 6.79 1.57 13.96
1/26/2021 5:00:00 AM -0.05 31.91 0.092 6.78 1.59 13.95
1/26/2021 5:15:00 AM -0.05 31.91 0.092 6.78 1.53 13.95
1/26/2021 5:30:00 AM -0.05 31.91 0.093 6.8 1.6 13.95
1/26/2021 5:45:00 AM -0.05 31.91 0.093 6.81 1.56 13.94
1/26/2021 6:00:00 AM -0.05 31.91 0.093 6.81 1.59 13.94
1/26/2021 6:15:00 AM -0.05 31.91 0.093 6.8 1.58 13.94
1/26/2021 6:30:00 AM -0.05 31.91 0.093 6.8 1.54 13.93
1/26/2021 6:45:00 AM -0.05 31.91 0.093 6.8 1.57 13.94
1/26/2021 7:00:00 AM -0.05 31.91 0.092 6.79 1.57 13.94
1/26/2021 7:15:00 AM -0.06 31.892 0.092 6.79 1.6 13.93
1/26/2021 7:30:00 AM -0.06 31.892 0.092 6.79 1.56 13.93
1/26/2021 7:45:00 AM -0.05 31.91 0.092 6.79 1.52 13.93
1/26/2021 8:00:00 AM -0.05 31.91 0.092 6.8 1.54 13.94
1/26/2021 8:15:00 AM -0.05 31.91 0.092 6.8 1.58 13.97
1/26/2021 8:30:00 AM -0.06 31.892 0.092 6.81 1.6 13.98
1/26/2021 8:45:00 AM -0.06 31.892 0.092 6.8 1.62 14.01
1/26/2021 9:00:00 AM -0.06 31.892 0.092 6.81 1.59 14.04
1/26/2021 9:15:00 AM -0.06 31.892 0.092 6.81 1.6 14.05
1/26/2021 9:30:00 AM -0.06 31.892 0.091 6.81 1.6 14.08
1/26/2021 9:45:00 AM -0.06 31.892 0.091 6.81 1.58 14.1
1/26/2021 10:00:00 AM -0.05 31.91 0.091 6.82 1.57 14.12
1/26/2021 10:15:00 AM -0.05 31.91 0.091 6.84 1.57 14.15
1/26/2021 10:30:00 AM -0.04 31.928 0.091 6.85 1.54 14.18
1/26/2021 10:45:00 AM -0.04 31.928 0.091 6.86 1.57 14.2
1/26/2021 11:00:00 AM -0.04 31.928 0.091 6.84 1.59 14.22
1/26/2021 11:15:00 AM -0.04 31.928 0.09 6.85 1.59 14.23
1/26/2021 11:30:00 AM -0.04 31.928 0.09 6.86 1.59 14.24
1/26/2021 11:45:00 AM -0.04 31.928 0.09 6.85 1.62 14.26
1/26/2021 12:00:00 PM -0.04 31.928 0.09 6.86 1.6 14.27
1/26/2021 12:15:00 PM -0.04 31.928 0.09 6.86 1.59 14.28
1/26/2021 12:30:00 PM -0.03 31.946 0.09 6.87 1.62 14.29
1/26/2021 12:45:00 PM -0.03 31.946 0.09 6.87 1.6 14.29
1/26/2021 1:00:00 PM -0.02 31.964 0.09 6.87 1.58 14.29
1/26/2021 1:15:00 PM -0.02 31.964 0.09 6.87 1.63 14.31
1/26/2021 1:30:00 PM -0.01 31.982 0.09 6.87 1.62 14.31
1/26/2021 1:45:00 PM -0.01 31.982 0.09 6.95 1.69 14.32
1/26/2021 2:00:00 PM -0.01 31.982 0.09 6.95 1.71 14.33
1/26/2021 2:15:00 PM -0.01 31.982 0.09 6.94 1.69 14.33
1/26/2021 2:30:00 PM -0.01 31.982 0.09 6.92 1.76 14.33
1/26/2021 2:45:00 PM -0.02 31.964 0.09 6.94 1.75 14.33
1/26/2021 3:00:00 PM -0.02 31.964 0.09 6.96 1.69 14.3
1/26/2021 3:15:00 PM -0.02 31.964 0.09 6.97 1.73 14.28
1/26/2021 3:30:00 PM -0.02 31.964 0.09 6.97 1.67 14.28
1/26/2021 3:45:00 PM -0.03 31.946 0.089 6.95 1.6 14.25
1/26/2021 4:00:00 PM -0.03 31.946 0.09 6.9 1.88 14.23
1/26/2021 4:15:00 PM -0.03 31.946 0.09 6.9 1.63 14.21
1/26/2021 4:30:00 PM -0.03 31.946 0.09 6.89 1.62 14.19
1/26/2021 4:45:00 PM -0.03 31.946 0.091 6.88 1.62 14.18
1/26/2021 5:00:00 PM -0.03 31.946 0.091 6.85 1.65 14.15
1/26/2021 5:15:00 PM -0.03 31.946 0.091 6.87 1.62 14.12
1/26/2021 5:30:00 PM -0.03 31.946 0.091 6.86 1.63 14.09
1/26/2021 5:45:00 PM -0.04 31.928 0.091 6.81 1.64 14.06
1/26/2021 6:00:00 PM -0.04 31.928 0.091 6.83 1.66 14.04
1/26/2021 6:15:00 PM -0.04 31.928 0.092 6.82 1.66 14.02
1/26/2021 6:30:00 PM -0.04 31.928 0.092 6.81 1.65 14
1/26/2021 6:45:00 PM -0.04 31.928 0.092 6.82 1.64 13.99
1/26/2021 7:00:00 PM -0.03 31.946 0.093 6.82 1.65 13.97
1/26/2021 7:15:00 PM -0.03 31.946 0.093 6.81 1.62 13.96
1/26/2021 7:30:00 PM -0.03 31.946 0.093 6.81 1.64 13.95
1/26/2021 7:45:00 PM -0.03 31.946 0.093 6.8 1.63 13.94
1/26/2021 8:00:00 PM -0.03 31.946 0.093 6.8 1.65 13.93
1/26/2021 8:15:00 PM -0.03 31.946 0.093 6.8 1.65 13.93
1/26/2021 8:30:00 PM -0.03 31.946 0.093 6.8 1.64 13.92
1/26/2021 8:45:00 PM -0.03 31.946 0.092 6.8 1.64 13.92
1/26/2021 9:00:00 PM -0.03 31.946 0.092 6.79 1.66 13.91
1/26/2021 9:15:00 PM -0.03 31.946 0.092 6.79 1.65 13.91
1/26/2021 9:30:00 PM -0.03 31.946 0.092 6.79 1.65 13.91
1/26/2021 9:45:00 PM -0.03 31.946 0.092 6.79 1.67 13.9
1/26/2021 10:00:00 PM -0.03 31.946 0.092 6.78 1.67 13.9
1/26/2021 10:15:00 PM -0.03 31.946 0.092 6.78 1.65 13.9
1/26/2021 10:30:00 PM -0.03 31.946 0.092 6.78 1.69 13.9
1/26/2021 10:45:00 PM -0.03 31.946 0.092 6.77 1.66 13.9
1/26/2021 11:00:00 PM -0.03 31.946 0.092 6.78 1.65 13.9
1/26/2021 11:15:00 PM -0.03 31.946 0.092 6.75 1.76 13.9
1/26/2021 11:30:00 PM -0.04 31.928 0.092 6.76 1.74 13.9
1/26/2021 11:45:00 PM -0.03 31.946 0.092 6.75 1.73 13.9
1/27/2021 12:00:00 AM -0.03 31.946 0.092 6.76 1.73 13.91
1/27/2021 12:15:00 AM -0.03 31.946 0.092 6.76 1.78 13.91
1/27/2021 12:30:00 AM -0.04 31.928 0.092 6.77 1.74 13.91
1/27/2021 12:45:00 AM -0.04 31.928 0.092 6.77 1.81 13.91
1/27/2021 1:00:00 AM -0.04 31.928 0.092 6.77 1.75 13.91
1/27/2021 1:15:00 AM -0.04 31.928 0.093 6.77 1.72 13.92
1/27/2021 1:30:00 AM -0.04 31.928 0.093 6.78 1.76 13.93
1/27/2021 1:45:00 AM -0.04 31.928 0.093 6.79 1.7 13.93
1/27/2021 2:00:00 AM -0.04 31.928 0.093 6.78 1.73 13.93
1/27/2021 2:15:00 AM -0.04 31.928 0.093 6.78 1.74 13.94
1/27/2021 2:30:00 AM -0.04 31.928 0.093 6.78 1.73 13.94
1/27/2021 2:45:00 AM -0.04 31.928 0.093 6.77 1.79 13.95
1/27/2021 3:00:00 AM -0.04 31.928 0.093 6.77 1.83 13.96
1/27/2021 3:15:00 AM -0.05 31.91 0.093 6.8 1.82 13.96
1/27/2021 3:30:00 AM -0.04 31.928 0.093 6.81 1.86 13.96
1/27/2021 3:45:00 AM -0.05 31.91 0.093 6.81 1.83 13.97
1/27/2021 4:00:00 AM -0.05 31.91 0.093 6.81 1.81 13.97
1/27/2021 4:15:00 AM -0.05 31.91 0.093 6.8 1.8 13.98
1/27/2021 4:30:00 AM -0.05 31.91 0.093 6.8 1.74 13.98
1/27/2021 4:45:00 AM -0.05 31.91 0.093 6.82 1.8 13.99
1/27/2021 5:00:00 AM -0.05 31.91 0.093 6.8 1.77 14
1/27/2021 5:15:00 AM -0.06 31.892 0.093 6.78 1.72 14
1/27/2021 5:30:00 AM -0.06 31.892 0.093 6.74 1.73 14.01
1/27/2021 5:45:00 AM -0.06 31.892 0.093 6.73 1.72 14.01
1/27/2021 6:00:00 AM -0.06 31.892 0.092 6.73 1.74 14.02
1/27/2021 6:15:00 AM -0.06 31.892 0.092 6.74 1.69 14.02
1/27/2021 6:30:00 AM -0.06 31.892 0.092 6.75 1.66 14.02
1/27/2021 6:45:00 AM -0.06 31.892 0.092 6.75 1.66 14.03
1/27/2021 7:00:00 AM -0.06 31.892 0.092 6.74 1.66 14.04
1/27/2021 7:15:00 AM -0.06 31.892 0.092 6.73 1.66 14.04
1/27/2021 7:30:00 AM -0.07 31.874 0.092 6.75 1.68 14.05
1/27/2021 7:45:00 AM -0.06 31.892 0.093 6.75 1.63 14.06
1/27/2021 8:00:00 AM -0.06 31.892 0.093 6.76 1.67 14.09
1/27/2021 8:15:00 AM -0.06 31.892 0.093 6.77 1.64 14.13
1/27/2021 8:30:00 AM -0.05 31.91 0.092 6.79 1.64 14.18
1/27/2021 8:45:00 AM -0.05 31.91 0.092 6.8 1.68 14.23
1/27/2021 9:00:00 AM -0.04 31.928 0.092 6.84 1.59 14.27
1/27/2021 9:15:00 AM -0.03 31.946 0.092 6.84 1.66 14.31
1/27/2021 9:30:00 AM -0.03 31.946 0.092 6.84 1.63 14.35
1/27/2021 9:45:00 AM -0.03 31.946 0.092 6.85 1.63 14.37
1/27/2021 10:00:00 AM -0.01 31.982 0.092 6.86 1.65 14.4
1/27/2021 10:15:00 AM -0.01 31.982 0.092 6.87 1.74 14.43
1/27/2021 10:30:00 AM -0.01 31.982 0.092 6.87 1.72 14.45
1/27/2021 10:45:00 AM 0 32 0.093 6.88 1.72 14.47
1/27/2021 11:00:00 AM 0 32 0.093 6.88 1.71 14.48
1/27/2021 11:15:00 AM 0 32 0.093 6.91 1.71 14.49
1/27/2021 11:30:00 AM 0.01 32.018 0.093 6.91 1.7 14.51
1/27/2021 11:45:00 AM 0.02 32.036 0.093 6.89 1.74 14.52
1/27/2021 12:00:00 PM 0.04 32.072 0.093 6.9 1.67 14.52
1/27/2021 12:15:00 PM 0.04 32.072 0.093 6.9 1.72 14.52
1/27/2021 12:30:00 PM 0.03 32.054 0.093 6.91 1.72 14.53
1/27/2021 12:45:00 PM 0.02 32.036 0.093 6.9 1.74 14.53
1/27/2021 1:00:00 PM 0.03 32.054 0.093 6.9 1.72 14.53
1/27/2021 1:15:00 PM 0.03 32.054 0.093 6.91 1.68 14.53
1/27/2021 1:30:00 PM 0.01 32.018 0.093 6.91 1.73 14.53
1/27/2021 1:45:00 PM 0 32 0.093 6.92 1.71 14.52
1/27/2021 2:00:00 PM 0 32 0.094 6.92 1.7 14.52
1/27/2021 2:15:00 PM 0 32 0.094 6.92 1.78 14.53
1/27/2021 2:30:00 PM 0 32 0.094 6.92 1.69 14.53
1/27/2021 2:45:00 PM 0 32 0.094 6.93 1.71 14.53
1/27/2021 3:00:00 PM -0.01 31.982 0.094 6.91 1.74 14.53
1/27/2021 3:15:00 PM -0.01 31.982 0.094 6.91 1.68 14.52
1/27/2021 3:30:00 PM -0.02 31.964 0.094 6.91 1.67 14.52
1/27/2021 3:45:00 PM -0.02 31.964 0.095 6.93 1.71 14.51
1/27/2021 4:00:00 PM -0.03 31.946 0.095 6.9 1.69 14.49
1/27/2021 4:15:00 PM -0.04 31.928 0.095 6.91 1.69 14.48
1/27/2021 4:30:00 PM -0.05 31.91 0.095 6.91 1.66 14.45
1/27/2021 4:45:00 PM -0.06 31.892 0.095 6.9 1.66 14.43
1/27/2021 5:00:00 PM -0.06 31.892 0.096 6.9 1.65 14.41
1/27/2021 5:15:00 PM -0.08 31.856 0.096 6.89 1.63 14.39
1/27/2021 5:30:00 PM -0.09 31.838 0.096 6.88 1.72 14.36
1/27/2021 5:45:00 PM -0.09 31.838 0.096 6.87 1.77 14.33
1/27/2021 6:00:00 PM -0.09 31.838 0.096 6.86 1.83 14.3
1/27/2021 6:15:00 PM -0.08 31.856 0.097 6.87 1.94 14.29
1/27/2021 6:30:00 PM -0.08 31.856 0.097 6.88 2.1 14.27
1/27/2021 6:45:00 PM -0.08 31.856 0.097 6.88 2.18 14.26
1/27/2021 7:00:00 PM -0.08 31.856 0.097 6.86 3.02 14.25
1/27/2021 7:15:00 PM -0.08 31.856 0.097 6.85 3.82 14.24
1/27/2021 7:30:00 PM -0.08 31.856 0.097 6.89 3.69 14.24
1/27/2021 7:45:00 PM -0.08 31.856 0.098 6.88 3.76 14.23
1/27/2021 8:00:00 PM -0.08 31.856 0.098 6.88 3.78 14.22
1/27/2021 8:15:00 PM -0.08 31.856 0.098 6.89 3.86 14.21
1/27/2021 8:30:00 PM -0.08 31.856 0.098 6.87 3.76 14.21
1/27/2021 8:45:00 PM -0.08 31.856 0.098 6.87 4.16 14.21
1/27/2021 9:00:00 PM -0.08 31.856 0.098 6.89 4.04 14.22
1/27/2021 9:15:00 PM -0.08 31.856 0.098 6.9 3.89 14.21
1/27/2021 9:30:00 PM -0.07 31.874 0.098 6.9 3.85 14.2
1/27/2021 9:45:00 PM -0.07 31.874 0.099 6.9 3.92 14.21
1/27/2021 10:00:00 PM -0.07 31.874 0.099 6.9 3.87 14.21
1/27/2021 10:15:00 PM -0.07 31.874 0.099 6.9 3.91 14.21
1/27/2021 10:30:00 PM -0.07 31.874 0.097 6.9 3.57 14.21
1/27/2021 10:45:00 PM -0.07 31.874 0.097 6.9 3.47 14.21
1/27/2021 11:00:00 PM -0.07 31.874 0.099 6.9 1.83 14.21
1/27/2021 11:15:00 PM -0.07 31.874 0.099 6.9 1.84 14.21
1/27/2021 11:30:00 PM -0.07 31.874 0.099 6.89 1.86 14.22
1/27/2021 11:45:00 PM -0.07 31.874 0.099 6.9 1.84 14.21
1/28/2021 12:00:00 AM -0.07 31.874 0.099 6.9 1.88 14.21
1/28/2021 12:15:00 AM -0.07 31.874 0.099 6.89 1.91 14.21
1/28/2021 12:30:00 AM -0.07 31.874 0.1 6.89 1.89 14.21
1/28/2021 12:45:00 AM -0.07 31.874 0.1 6.9 1.93 14.22
1/28/2021 1:00:00 AM -0.07 31.874 0.1 6.9 1.92 14.21
1/28/2021 1:15:00 AM -0.07 31.874 0.1 6.9 1.84 14.21
1/28/2021 1:30:00 AM -0.07 31.874 0.1 6.9 1.9 14.21
1/28/2021 1:45:00 AM -0.07 31.874 0.1 6.9 1.88 14.2
1/28/2021 2:00:00 AM -0.07 31.874 0.1 6.89 1.85 14.2
1/28/2021 2:15:00 AM -0.07 31.874 0.1 6.9 1.82 14.2
1/28/2021 2:30:00 AM -0.07 31.874 0.101 6.89 1.76 14.2
1/28/2021 2:45:00 AM -0.07 31.874 0.101 6.9 1.84 14.21
1/28/2021 3:00:00 AM -0.07 31.874 0.101 6.9 1.91 14.21
1/28/2021 3:15:00 AM -0.07 31.874 0.101 6.9 1.9 14.2
1/28/2021 3:30:00 AM -0.07 31.874 0.101 6.9 1.89 14.2
1/28/2021 3:45:00 AM -0.07 31.874 0.101 6.9 1.92 14.2
1/28/2021 4:00:00 AM -0.07 31.874 0.102 6.9 1.83 14.21
1/28/2021 4:15:00 AM -0.07 31.874 0.102 6.9 1.78 14.2
1/28/2021 4:30:00 AM -0.07 31.874 0.102 6.9 1.79 14.2
1/28/2021 4:45:00 AM -0.07 31.874 0.102 6.91 1.79 14.2
1/28/2021 5:00:00 AM -0.07 31.874 0.103 6.9 1.77 14.2
1/28/2021 5:15:00 AM -0.07 31.874 0.103 6.9 1.85 14.19
1/28/2021 5:30:00 AM -0.07 31.874 0.103 6.91 1.87 14.2
1/28/2021 5:45:00 AM -0.07 31.874 0.103 6.9 1.85 14.19
1/28/2021 6:00:00 AM -0.07 31.874 0.104 6.9 1.83 14.19
1/28/2021 6:15:00 AM -0.07 31.874 0.104 6.91 1.8 14.2
1/28/2021 6:30:00 AM -0.07 31.874 0.104 6.9 1.83 14.2
1/28/2021 6:45:00 AM -0.07 31.874 0.104 6.91 1.78 14.21
1/28/2021 7:00:00 AM -0.07 31.874 0.105 6.91 1.82 14.2
1/28/2021 7:15:00 AM -0.07 31.874 0.105 6.9 1.85 14.21
1/28/2021 7:30:00 AM -0.07 31.874 0.105 6.91 1.83 14.22
1/28/2021 7:45:00 AM -0.07 31.874 0.105 6.91 1.82 14.24
1/28/2021 8:00:00 AM -0.07 31.874 0.106 6.91 1.78 14.29
1/28/2021 8:15:00 AM -0.07 31.874 0.106 6.92 1.86 14.33
1/28/2021 8:30:00 AM -0.07 31.874 0.106 6.93 1.82 14.38
1/28/2021 8:45:00 AM -0.07 31.874 0.106 6.94 1.81 14.4
1/28/2021 9:00:00 AM -0.07 31.874 0.106 6.94 1.8 14.46
1/28/2021 9:15:00 AM -0.07 31.874 0.106 6.95 1.83 14.48
1/28/2021 9:30:00 AM -0.07 31.874 0.106 6.95 1.8 14.51
1/28/2021 9:45:00 AM -0.07 31.874 0.107 6.96 1.85 14.54
1/28/2021 10:00:00 AM -0.07 31.874 0.107 6.98 1.91 14.56
1/28/2021 10:15:00 AM -0.07 31.874 0.107 6.98 1.86 14.58
1/28/2021 10:30:00 AM -0.07 31.874 0.107 6.99 1.87 14.6
1/28/2021 10:45:00 AM -0.07 31.874 0.107 6.99 1.88 14.62
1/28/2021 11:00:00 AM -0.07 31.874 0.107 7 1.81 14.63
1/28/2021 11:15:00 AM -0.06 31.892 0.107 7 1.88 14.63
1/28/2021 11:30:00 AM -0.06 31.892 0.107 7.01 1.84 14.64
1/28/2021 11:45:00 AM -0.06 31.892 0.107 7.01 1.81 14.64
1/28/2021 12:00:00 PM -0.06 31.892 0.107 7.01 1.85 14.64
1/28/2021 12:15:00 PM -0.06 31.892 0.107 7.01 1.87 14.64
1/28/2021 12:30:00 PM -0.06 31.892 0.107 7.02 1.91 14.65
1/28/2021 12:45:00 PM -0.06 31.892 0.107 7.02 1.95 14.65
1/28/2021 1:00:00 PM -0.06 31.892 0.107 7.02 1.92 14.66
1/28/2021 1:15:00 PM -0.06 31.892 0.107 7.02 1.95 14.66
1/28/2021 1:30:00 PM -0.06 31.892 0.107 7.02 1.94 14.67
1/28/2021 1:45:00 PM -0.06 31.892 0.107 7.02 1.95 14.66
1/28/2021 2:00:00 PM -0.05 31.91 0.107 7.02 1.93 14.66
1/28/2021 2:15:00 PM -0.06 31.892 0.107 7.02 1.87 14.66
1/28/2021 2:30:00 PM -0.05 31.91 0.107 7.03 1.86 14.67
1/28/2021 2:45:00 PM -0.06 31.892 0.107 7.03 2.13 14.67
1/28/2021 3:00:00 PM -0.06 31.892 0.108 7.02 1.84 14.68
1/28/2021 3:15:00 PM -0.07 31.874 0.108 7.02 1.81 14.68
1/28/2021 3:30:00 PM -0.07 31.874 0.108 7.03 1.85 14.68
1/28/2021 3:45:00 PM -0.07 31.874 0.108 7.03 1.82 14.69
1/28/2021 4:00:00 PM -0.07 31.874 0.108 7.03 1.82 14.7
1/28/2021 4:15:00 PM -0.07 31.874 0.108 7.03 1.83 14.69
1/28/2021 4:30:00 PM -0.07 31.874 0.109 7.03 1.9 14.68
1/28/2021 4:45:00 PM -0.07 31.874 0.109 7.03 1.9 14.67
1/28/2021 5:00:00 PM -0.07 31.874 0.109 7.02 1.84 14.64
1/28/2021 5:15:00 PM -0.07 31.874 0.109 7.01 1.93 14.6
1/28/2021 5:30:00 PM -0.07 31.874 0.109 7 1.9 14.56
1/28/2021 5:45:00 PM -0.07 31.874 0.109 6.99 1.86 14.52
1/28/2021 6:00:00 PM -0.07 31.874 0.109 6.99 1.86 14.5
1/28/2021 6:15:00 PM -0.07 31.874 0.109 6.98 1.89 14.47
1/28/2021 6:30:00 PM -0.07 31.874 0.11 6.97 1.92 14.45
1/28/2021 6:45:00 PM -0.07 31.874 0.11 6.97 1.9 14.43
1/28/2021 7:00:00 PM -0.07 31.874 0.11 6.96 1.92 14.41
1/28/2021 7:15:00 PM -0.07 31.874 0.11 6.96 1.95 14.4
1/28/2021 7:30:00 PM -0.07 31.874 0.11 6.95 1.91 14.38
1/28/2021 7:45:00 PM -0.07 31.874 0.11 6.96 1.92 14.37
1/28/2021 8:00:00 PM -0.07 31.874 0.11 6.94 1.93 14.36
1/28/2021 8:15:00 PM -0.07 31.874 0.11 6.94 1.92 14.35
1/28/2021 8:30:00 PM -0.07 31.874 0.11 6.95 1.91 14.34
1/28/2021 8:45:00 PM -0.07 31.874 0.11 6.94 1.94 14.33
1/28/2021 9:00:00 PM -0.07 31.874 0.11 6.93 1.89 14.32
1/28/2021 9:15:00 PM -0.07 31.874 0.11 6.94 1.95 14.31
1/28/2021 9:30:00 PM -0.07 31.874 0.109 6.95 1.91 14.3
1/28/2021 9:45:00 PM -0.07 31.874 0.109 6.95 1.92 14.29
1/28/2021 10:00:00 PM -0.07 31.874 0.109 6.95 1.93 14.28
1/28/2021 10:15:00 PM -0.07 31.874 0.109 6.94 1.92 14.28
1/28/2021 10:30:00 PM -0.07 31.874 0.109 6.94 1.94 14.27
1/28/2021 10:45:00 PM -0.07 31.874 0.109 6.94 1.89 14.27
1/28/2021 11:00:00 PM -0.07 31.874 0.109 6.94 1.91 14.27
1/28/2021 11:15:00 PM -0.07 31.874 0.109 6.94 1.91 14.26
1/28/2021 11:30:00 PM -0.07 31.874 0.109 6.93 1.88 14.26
1/28/2021 11:45:00 PM -0.07 31.874 0.109 6.93 1.91 14.26
1/29/2021 12:00:00 AM -0.07 31.874 0.109 6.94 1.92 14.25
1/29/2021 12:15:00 AM -0.07 31.874 0.109 6.93 1.91 14.25
1/29/2021 12:30:00 AM -0.07 31.874 0.109 6.93 1.92 14.24
1/29/2021 12:45:00 AM -0.07 31.874 0.108 6.93 1.92 14.24
1/29/2021 1:00:00 AM -0.07 31.874 0.108 6.94 1.93 14.24
1/29/2021 1:15:00 AM -0.07 31.874 0.108 6.93 1.91 14.24
1/29/2021 1:30:00 AM -0.07 31.874 0.108 6.93 1.91 14.23
1/29/2021 1:45:00 AM -0.07 31.874 0.108 6.93 2 14.23
1/29/2021 2:00:00 AM -0.07 31.874 0.108 6.93 1.93 14.23
1/29/2021 2:15:00 AM -0.07 31.874 0.108 6.93 1.95 14.23
1/29/2021 2:30:00 AM -0.07 31.874 0.108 6.93 1.86 14.23
1/29/2021 2:45:00 AM -0.07 31.874 0.108 6.93 1.86 14.23
1/29/2021 3:00:00 AM -0.07 31.874 0.108 6.93 1.82 14.23
1/29/2021 3:15:00 AM -0.07 31.874 0.108 6.93 1.82 14.23
1/29/2021 3:30:00 AM -0.07 31.874 0.108 6.93 1.85 14.23
1/29/2021 3:45:00 AM -0.07 31.874 0.108 6.92 1.93 14.23
1/29/2021 4:00:00 AM -0.07 31.874 0.108 6.92 1.97 14.23
1/29/2021 4:15:00 AM -0.07 31.874 0.109 6.92 1.97 14.22
1/29/2021 4:30:00 AM -0.06 31.892 0.109 6.92 1.95 14.21
1/29/2021 4:45:00 AM -0.07 31.874 0.109 6.92 1.91 14.22
1/29/2021 5:00:00 AM -0.07 31.874 0.109 6.92 1.9 14.22
1/29/2021 5:15:00 AM -0.07 31.874 0.109 6.92 1.9 14.21
1/29/2021 5:30:00 AM -0.07 31.874 0.109 6.92 1.88 14.22
1/29/2021 5:45:00 AM -0.07 31.874 0.109 6.92 1.86 14.21
1/29/2021 6:00:00 AM -0.07 31.874 0.109 6.92 1.9 14.21
1/29/2021 6:15:00 AM -0.06 31.892 0.109 6.92 1.84 14.21
1/29/2021 6:30:00 AM -0.06 31.892 0.109 6.92 1.86 14.21
1/29/2021 6:45:00 AM -0.06 31.892 0.109 6.92 1.84 14.21
1/29/2021 7:00:00 AM -0.06 31.892 0.109 6.92 1.85 14.21
1/29/2021 7:15:00 AM -0.06 31.892 0.109 6.91 1.87 14.21
1/29/2021 7:30:00 AM -0.06 31.892 0.109 6.92 1.85 14.21
1/29/2021 7:45:00 AM -0.06 31.892 0.109 6.92 1.84 14.22
1/29/2021 8:00:00 AM -0.06 31.892 0.108 6.92 1.85 14.24
1/29/2021 8:15:00 AM -0.06 31.892 0.108 6.92 1.77 14.28
1/29/2021 8:30:00 AM -0.06 31.892 0.108 6.93 1.81 14.31
1/29/2021 8:45:00 AM -0.06 31.892 0.108 6.94 1.8 14.35
1/29/2021 9:00:00 AM -0.06 31.892 0.108 6.95 1.79 14.38
1/29/2021 9:15:00 AM -0.06 31.892 0.108 6.96 1.7 14.42
1/29/2021 9:30:00 AM -0.06 31.892 0.107 6.96 1.75 14.45
1/29/2021 9:45:00 AM -0.07 31.874 0.107 6.97 1.76 14.47
1/29/2021 10:00:00 AM -0.06 31.892 0.107 6.97 1.76 14.5
1/29/2021 10:15:00 AM -0.06 31.892 0.107 6.98 1.73 14.52
1/29/2021 10:30:00 AM -0.06 31.892 0.107 6.98 1.74 14.54
1/29/2021 10:45:00 AM -0.06 31.892 0.107 6.97 1.89 14.55
1/29/2021 11:00:00 AM -0.06 31.892 0.106 6.97 1.81 14.57
1/29/2021 11:15:00 AM -0.06 31.892 0.106 6.99 1.87 14.58
1/29/2021 11:30:00 AM -0.06 31.892 0.106 7 1.95 14.59
1/29/2021 11:45:00 AM -0.06 31.892 0.106 6.99 1.95 14.6
1/29/2021 12:00:00 PM -0.06 31.892 0.105 6.98 2 14.61
1/29/2021 12:15:00 PM -0.06 31.892 0.105 7.01 2.06 14.62
1/29/2021 12:30:00 PM -0.06 31.892 0.105 7.01 2.2 14.63
1/29/2021 12:45:00 PM -0.06 31.892 0.105 6.99 2.19 14.63
1/29/2021 1:00:00 PM -0.06 31.892 0.105 7 2.22 14.64
1/29/2021 1:15:00 PM -0.06 31.892 0.105 7.01 2.16 14.64
1/29/2021 1:30:00 PM -0.05 31.91 0.105 7.02 2.32 14.64
1/29/2021 1:45:00 PM -0.06 31.892 0.105 6.99 2.62 14.64
1/29/2021 2:00:00 PM -0.05 31.91 0.105 7.01 2.42 14.65
1/29/2021 2:15:00 PM -0.04 31.928 0.105 7.02 2.36 14.65
1/29/2021 2:30:00 PM -0.04 31.928 0.104 7.03 2.38 14.66
1/29/2021 2:45:00 PM -0.05 31.91 0.104 7.02 2.5 14.66
1/29/2021 3:00:00 PM -0.06 31.892 0.104 7.03 2.32 14.67
1/29/2021 3:15:00 PM -0.06 31.892 0.104 7.03 2.18 14.69
1/29/2021 3:30:00 PM -0.06 31.892 0.104 7.03 2.4 14.69
1/29/2021 3:45:00 PM -0.06 31.892 0.104 7.01 3.07 14.7
1/29/2021 4:00:00 PM -0.07 31.874 0.104 6.93 2.06 14.7
1/29/2021 4:15:00 PM -0.07 31.874 0.104 6.95 2 14.69
1/29/2021 4:30:00 PM -0.07 31.874 0.104 6.94 1.97 14.67
1/29/2021 4:45:00 PM -0.07 31.874 0.104 6.95 1.99 14.65
1/29/2021 5:00:00 PM -0.07 31.874 0.104 6.94 1.9 14.61
1/29/2021 5:15:00 PM -0.07 31.874 0.104 6.95 1.88 14.57
1/29/2021 5:30:00 PM -0.07 31.874 0.104 6.96 1.93 14.54
1/29/2021 5:45:00 PM -0.08 31.856 0.105 6.95 1.86 14.5
1/29/2021 6:00:00 PM -0.07 31.874 0.105 6.94 1.89 14.47
1/29/2021 6:15:00 PM -0.07 31.874 0.105 6.93 1.91 14.45
1/29/2021 6:30:00 PM -0.07 31.874 0.105 6.94 1.94 14.42
1/29/2021 6:45:00 PM -0.07 31.874 0.105 6.94 1.98 14.4
1/29/2021 7:00:00 PM -0.07 31.874 0.105 6.93 2.11 14.38
1/29/2021 7:15:00 PM -0.07 31.874 0.106 6.91 1.93 14.36
1/29/2021 7:30:00 PM -0.07 31.874 0.106 6.92 1.92 14.34
1/29/2021 7:45:00 PM -0.07 31.874 0.106 6.92 1.97 14.33
1/29/2021 8:00:00 PM -0.07 31.874 0.106 6.93 1.98 14.31
1/29/2021 8:15:00 PM -0.07 31.874 0.106 6.94 2 14.3
1/29/2021 8:30:00 PM -0.07 31.874 0.106 6.93 1.96 14.28
1/29/2021 8:45:00 PM -0.07 31.874 0.106 6.93 2 14.28
1/29/2021 9:00:00 PM -0.07 31.874 0.106 6.93 1.99 14.26
1/29/2021 9:15:00 PM -0.07 31.874 0.106 6.92 2.03 14.25
1/29/2021 9:30:00 PM -0.07 31.874 0.106 6.92 1.99 14.25
1/29/2021 9:45:00 PM -0.07 31.874 0.106 6.92 2.05 14.24
1/29/2021 10:00:00 PM -0.07 31.874 0.106 6.92 2.05 14.23
1/29/2021 10:15:00 PM -0.07 31.874 0.106 6.92 1.99 14.22
1/29/2021 10:30:00 PM -0.07 31.874 0.106 6.92 2.04 14.21
1/29/2021 10:45:00 PM -0.07 31.874 0.107 6.92 2.02 14.21
1/29/2021 11:00:00 PM -0.07 31.874 0.106 6.92 2 14.2
1/29/2021 11:15:00 PM -0.07 31.874 0.107 6.93 2.02 14.2
1/29/2021 11:30:00 PM -0.07 31.874 0.107 6.92 2.09 14.2
1/29/2021 11:45:00 PM -0.07 31.874 0.107 6.92 2.04 14.19
1/30/2021 12:00:00 AM -0.07 31.874 0.107 6.92 2.06 14.19
1/30/2021 12:15:00 AM -0.07 31.874 0.107 6.91 2.05 14.19
1/30/2021 12:30:00 AM -0.07 31.874 0.107 6.91 2.04 14.19
1/30/2021 12:45:00 AM -0.07 31.874 0.107 6.9 2.05 14.18
1/30/2021 1:00:00 AM -0.07 31.874 0.107 6.91 2.05 14.18
1/30/2021 1:15:00 AM -0.07 31.874 0.107 6.9 2.1 14.18
1/30/2021 1:30:00 AM -0.07 31.874 0.107 6.9 2.12 14.17
1/30/2021 1:45:00 AM -0.07 31.874 0.107 6.89 2.03 14.17
1/30/2021 2:00:00 AM -0.07 31.874 0.107 6.89 2.07 14.17
1/30/2021 2:15:00 AM -0.07 31.874 0.107 6.89 2.09 14.17
1/30/2021 2:30:00 AM -0.07 31.874 0.107 6.89 2.13 14.17
1/30/2021 2:45:00 AM -0.07 31.874 0.107 6.89 2.16 14.17
1/30/2021 3:00:00 AM -0.07 31.874 0.107 6.89 2.21 14.17
1/30/2021 3:15:00 AM -0.07 31.874 0.107 6.89 2.26 14.17
1/30/2021 3:30:00 AM -0.07 31.874 0.107 6.89 2.28 14.17
1/30/2021 3:45:00 AM -0.07 31.874 0.107 6.88 2.35 14.17
1/30/2021 4:00:00 AM -0.07 31.874 0.107 6.88 2.34 14.17
1/30/2021 4:15:00 AM -0.07 31.874 0.107 6.87 2.35 14.16
1/30/2021 4:30:00 AM -0.07 31.874 0.107 6.88 2.32 14.17
1/30/2021 4:45:00 AM -0.07 31.874 0.108 6.88 2.31 14.17
1/30/2021 5:00:00 AM -0.07 31.874 0.108 6.88 2.34 14.17
1/30/2021 5:15:00 AM -0.07 31.874 0.108 6.89 2.36 14.17
1/30/2021 5:30:00 AM -0.07 31.874 0.108 6.88 2.35 14.17
1/30/2021 5:45:00 AM -0.07 31.874 0.108 6.89 2.38 14.17
1/30/2021 6:00:00 AM -0.07 31.874 0.108 6.89 2.33 14.17
1/30/2021 6:15:00 AM -0.07 31.874 0.108 6.88 2.33 14.17
1/30/2021 6:30:00 AM -0.07 31.874 0.108 6.88 2.28 14.17
1/30/2021 6:45:00 AM -0.07 31.874 0.108 6.88 2.27 14.17
1/30/2021 7:00:00 AM -0.07 31.874 0.108 6.88 2.27 14.17
1/30/2021 7:15:00 AM -0.07 31.874 0.108 6.88 2.23 14.17
1/30/2021 7:30:00 AM -0.07 31.874 0.108 6.88 2.2 14.18
1/30/2021 7:45:00 AM -0.07 31.874 0.108 6.89 2.22 14.21
1/30/2021 8:00:00 AM -0.07 31.874 0.108 6.89 2.21 14.24
1/30/2021 8:15:00 AM -0.07 31.874 0.108 6.9 2.19 14.29
1/30/2021 8:30:00 AM -0.07 31.874 0.108 6.91 2.23 14.33
1/30/2021 8:45:00 AM -0.07 31.874 0.108 6.91 2.14 14.37
1/30/2021 9:00:00 AM -0.07 31.874 0.108 6.92 2.15 14.41
1/30/2021 9:15:00 AM -0.07 31.874 0.108 6.93 2.1 14.44
1/30/2021 9:30:00 AM -0.07 31.874 0.108 6.93 1.99 14.48
1/30/2021 9:45:00 AM -0.07 31.874 0.108 6.94 1.89 14.49
1/30/2021 10:00:00 AM -0.07 31.874 0.108 6.94 1.85 14.51
1/30/2021 10:15:00 AM -0.07 31.874 0.108 6.94 1.83 14.55
1/30/2021 10:30:00 AM -0.06 31.892 0.108 6.95 1.83 14.57
1/30/2021 10:45:00 AM -0.07 31.874 0.107 6.95 1.84 14.6
1/30/2021 11:00:00 AM -0.07 31.874 0.107 6.96 1.82 14.62
1/30/2021 11:15:00 AM -0.06 31.892 0.107 6.97 1.94 14.63
1/30/2021 11:30:00 AM -0.07 31.874 0.107 6.97 2.06 14.65
1/30/2021 11:45:00 AM -0.06 31.892 0.107 6.98 1.97 14.66
1/30/2021 12:00:00 PM -0.06 31.892 0.106 6.98 2.11 14.68
1/30/2021 12:15:00 PM -0.05 31.91 0.106 6.98 1.88 14.69
1/30/2021 12:30:00 PM -0.06 31.892 0.106 7 1.88 14.7
1/30/2021 12:45:00 PM -0.05 31.91 0.106 7 1.88 14.71
1/30/2021 1:00:00 PM -0.03 31.946 0.106 6.99 1.84 14.72
1/30/2021 1:15:00 PM -0.01 31.982 0.106 6.96 1.8 14.72
1/30/2021 1:30:00 PM -0.01 31.982 0.106 6.97 1.79 14.73
1/30/2021 1:45:00 PM -0.01 31.982 0.106 6.96 1.73 14.73
1/30/2021 2:00:00 PM -0.01 31.982 0.106 6.94 1.82 14.73
1/30/2021 2:15:00 PM -0.01 31.982 0.105 6.94 1.78 14.73
1/30/2021 2:30:00 PM -0.02 31.964 0.105 6.94 2.04 14.73
1/30/2021 2:45:00 PM -0.03 31.946 0.105 6.93 1.78 14.73
1/30/2021 3:00:00 PM -0.03 31.946 0.105 6.92 1.77 14.73
1/30/2021 3:15:00 PM -0.04 31.928 0.105 6.92 1.83 14.71
1/30/2021 3:30:00 PM -0.05 31.91 0.105 6.92 1.77 14.71
1/30/2021 3:45:00 PM -0.05 31.91 0.105 6.92 1.83 14.71
1/30/2021 4:00:00 PM -0.06 31.892 0.105 6.92 1.76 14.7
1/30/2021 4:15:00 PM -0.06 31.892 0.105 6.97 1.75 14.69
1/30/2021 4:30:00 PM -0.07 31.874 0.105 6.95 1.71 14.68
1/30/2021 4:45:00 PM -0.08 31.856 0.105 6.95 1.72 14.67
1/30/2021 5:00:00 PM -0.08 31.856 0.105 6.93 1.78 14.64
1/30/2021 5:15:00 PM -0.08 31.856 0.105 6.92 1.75 14.61
1/30/2021 5:30:00 PM -0.08 31.856 0.105 6.9 1.71 14.57
1/30/2021 5:45:00 PM -0.09 31.838 0.105 6.9 1.74 14.54
1/30/2021 6:00:00 PM -0.09 31.838 0.105 6.89 1.79 14.51
1/30/2021 6:15:00 PM -0.09 31.838 0.105 6.91 1.99 14.48
1/30/2021 6:30:00 PM -0.08 31.856 0.105 6.91 2.21 14.46
1/30/2021 6:45:00 PM -0.08 31.856 0.105 6.92 3.28 14.44
1/30/2021 7:00:00 PM -0.08 31.856 0.105 6.92 3.67 14.42
1/30/2021 7:15:00 PM -0.08 31.856 0.105 6.91 3.27 14.4
1/30/2021 7:30:00 PM -0.08 31.856 0.105 6.92 3.19 14.38
1/30/2021 7:45:00 PM -0.08 31.856 0.105 6.92 3.35 14.37
1/30/2021 8:00:00 PM -0.08 31.856 0.105 6.92 11.28 14.36
1/30/2021 8:15:00 PM -0.08 31.856 0.105 6.93 10.64 14.34
1/30/2021 8:30:00 PM -0.08 31.856 0.105 6.93 9.78 14.33
1/30/2021 8:45:00 PM -0.08 31.856 0.105 6.93 9.64 14.31
1/30/2021 9:00:00 PM -0.08 31.856 0.106 6.93 1.77 14.3
1/30/2021 9:15:00 PM -0.08 31.856 0.106 6.92 1.65 14.29
1/30/2021 9:30:00 PM -0.08 31.856 0.106 6.92 1.84 14.28
1/30/2021 9:45:00 PM -0.08 31.856 0.106 6.92 1.67 14.28
1/30/2021 10:00:00 PM -0.07 31.874 0.106 6.91 1.64 14.26
1/30/2021 10:15:00 PM -0.07 31.874 0.106 6.91 1.65 14.25
1/30/2021 10:30:00 PM -0.07 31.874 0.106 6.91 1.72 14.24
1/30/2021 10:45:00 PM -0.07 31.874 0.106 6.9 1.72 14.23
1/30/2021 11:00:00 PM -0.07 31.874 0.106 6.9 1.66 14.22
1/30/2021 11:15:00 PM -0.07 31.874 0.107 6.9 1.69 14.21
1/30/2021 11:30:00 PM -0.07 31.874 0.107 6.9 1.72 14.2
1/30/2021 11:45:00 PM -0.07 31.874 0.107 6.9 1.69 14.2
1/31/2021 12:00:00 AM -0.07 31.874 0.107 6.9 1.74 14.19
1/31/2021 12:15:00 AM -0.07 31.874 0.107 6.9 1.71 14.18
1/31/2021 12:30:00 AM -0.07 31.874 0.107 6.89 1.68 14.17
1/31/2021 12:45:00 AM -0.07 31.874 0.107 6.89 1.69 14.17
1/31/2021 1:00:00 AM -0.07 31.874 0.107 6.89 1.7 14.16
1/31/2021 1:15:00 AM -0.07 31.874 0.107 6.89 1.76 14.16
1/31/2021 1:30:00 AM -0.07 31.874 0.107 6.89 1.72 14.15
1/31/2021 1:45:00 AM -0.07 31.874 0.107 6.89 1.76 14.15
1/31/2021 2:00:00 AM -0.07 31.874 0.107 6.88 1.74 14.14
1/31/2021 2:15:00 AM -0.07 31.874 0.107 6.89 1.79 14.14
1/31/2021 2:30:00 AM -0.07 31.874 0.107 6.88 1.71 14.13
1/31/2021 2:45:00 AM -0.07 31.874 0.107 6.88 1.72 14.13
1/31/2021 3:00:00 AM -0.07 31.874 0.107 6.88 1.74 14.13
1/31/2021 3:15:00 AM -0.07 31.874 0.107 6.88 1.72 14.13
1/31/2021 3:30:00 AM -0.07 31.874 0.107 6.88 1.77 14.12
1/31/2021 3:45:00 AM -0.07 31.874 0.107 6.88 1.77 14.11
1/31/2021 4:00:00 AM -0.07 31.874 0.107 6.88 1.72 14.1
1/31/2021 4:15:00 AM -0.07 31.874 0.107 6.87 1.73 14.1
1/31/2021 4:30:00 AM -0.07 31.874 0.107 6.88 1.77 14.1
1/31/2021 4:45:00 AM -0.07 31.874 0.107 6.88 1.81 14.09
1/31/2021 5:00:00 AM -0.07 31.874 0.107 6.88 1.83 14.09
1/31/2021 5:15:00 AM -0.07 31.874 0.107 6.87 1.8 14.08
1/31/2021 5:30:00 AM -0.07 31.874 0.107 6.88 1.73 14.08
1/31/2021 5:45:00 AM -0.07 31.874 0.107 6.87 1.8 14.08
1/31/2021 6:00:00 AM -0.07 31.874 0.107 6.87 1.83 14.07
1/31/2021 6:15:00 AM -0.07 31.874 0.107 6.88 1.84 14.07
1/31/2021 6:30:00 AM -0.07 31.874 0.107 6.87 1.79 14.06
1/31/2021 6:45:00 AM -0.07 31.874 0.107 6.87 1.88 14.06
1/31/2021 7:00:00 AM -0.07 31.874 0.107 6.87 1.85 14.06
1/31/2021 7:15:00 AM -0.07 31.874 0.107 6.87 1.89 14.06
1/31/2021 7:30:00 AM -0.07 31.874 0.107 6.87 1.9 14.05
1/31/2021 7:45:00 AM -0.07 31.874 0.107 6.86 1.86 14.06
1/31/2021 8:00:00 AM -0.07 31.874 0.107 6.86 1.99 14.07
1/31/2021 8:15:00 AM -0.07 31.874 0.107 6.86 1.9 14.08
1/31/2021 8:30:00 AM -0.07 31.874 0.107 6.87 1.81 14.1
1/31/2021 8:45:00 AM -0.07 31.874 0.107 6.87 1.84 14.12
1/31/2021 9:00:00 AM -0.07 31.874 0.107 6.87 1.9 14.14
1/31/2021 9:15:00 AM -0.07 31.874 0.107 6.88 1.92 14.17
1/31/2021 9:30:00 AM -0.07 31.874 0.107 6.89 1.87 14.19
1/31/2021 9:45:00 AM -0.07 31.874 0.107 6.89 1.96 14.22
1/31/2021 10:00:00 AM -0.07 31.874 0.106 6.89 1.98 14.26
1/31/2021 10:15:00 AM -0.07 31.874 0.106 6.89 1.91 14.29
1/31/2021 10:30:00 AM -0.07 31.874 0.106 6.89 1.91 14.32
1/31/2021 10:45:00 AM -0.07 31.874 0.106 6.91 1.98 14.34
1/31/2021 11:00:00 AM -0.06 31.892 0.106 6.94 2.26 14.36
1/31/2021 11:15:00 AM -0.06 31.892 0.106 6.94 1.92 14.39
1/31/2021 11:30:00 AM -0.06 31.892 0.106 6.92 2.08 14.41
1/31/2021 11:45:00 AM -0.06 31.892 0.105 6.92 2 14.42
1/31/2021 12:00:00 PM -0.06 31.892 0.105 6.93 1.94 14.44
1/31/2021 12:15:00 PM -0.06 31.892 0.105 6.93 1.83 14.46
1/31/2021 12:30:00 PM -0.06 31.892 0.105 6.94 1.78 14.48
1/31/2021 12:45:00 PM -0.06 31.892 0.105 6.94 1.74 14.49
1/31/2021 1:00:00 PM -0.06 31.892 0.105 6.95 1.72 14.51
1/31/2021 1:15:00 PM -0.06 31.892 0.104 6.96 1.79 14.52
1/31/2021 1:30:00 PM -0.06 31.892 0.104 6.96 1.76 14.53
1/31/2021 1:45:00 PM -0.05 31.91 0.104 6.98 1.75 14.55
1/31/2021 2:00:00 PM -0.06 31.892 0.104 7 1.77 14.55
1/31/2021 2:15:00 PM -0.05 31.91 0.104 7 1.75 14.56
1/31/2021 2:30:00 PM -0.04 31.928 0.103 7.01 1.81 14.56
1/31/2021 2:45:00 PM -0.04 31.928 0.103 6.97 1.93 14.57
1/31/2021 3:00:00 PM -0.04 31.928 0.103 6.98 1.81 14.58
1/31/2021 3:15:00 PM -0.05 31.91 0.103 6.95 1.74 14.58
1/31/2021 3:30:00 PM -0.05 31.91 0.103 6.96 1.74 14.58
1/31/2021 3:45:00 PM -0.06 31.892 0.102 6.95 1.74 14.57
1/31/2021 4:00:00 PM -0.06 31.892 0.102 6.95 1.76 14.55
1/31/2021 4:15:00 PM -0.06 31.892 0.102 6.95 1.73 14.54
1/31/2021 4:30:00 PM -0.06 31.892 0.103 6.95 1.75 14.51
1/31/2021 4:45:00 PM -0.07 31.874 0.103 6.95 1.77 14.49
1/31/2021 5:00:00 PM -0.07 31.874 0.104 6.94 1.76 14.45
1/31/2021 5:15:00 PM -0.07 31.874 0.104 6.93 1.73 14.42
1/31/2021 5:30:00 PM -0.07 31.874 0.104 6.92 1.73 14.38
1/31/2021 5:45:00 PM -0.07 31.874 0.105 6.91 1.71 14.34
1/31/2021 6:00:00 PM -0.07 31.874 0.104 6.91 1.72 14.31
1/31/2021 6:15:00 PM -0.07 31.874 0.104 6.89 1.72 14.29
1/31/2021 6:30:00 PM -0.07 31.874 0.104 6.89 1.76 14.26
1/31/2021 6:45:00 PM -0.07 31.874 0.104 6.87 1.76 14.24
1/31/2021 7:00:00 PM -0.07 31.874 0.104 6.86 1.8 14.21
1/31/2021 7:15:00 PM -0.07 31.874 0.103 6.87 1.82 14.19
1/31/2021 7:30:00 PM -0.07 31.874 0.103 6.87 1.85 14.18
1/31/2021 7:45:00 PM -0.07 31.874 0.103 6.86 1.89 14.16
1/31/2021 8:00:00 PM -0.07 31.874 0.103 6.86 1.89 14.14
1/31/2021 8:15:00 PM -0.07 31.874 0.103 6.89 1.89 14.13
1/31/2021 8:30:00 PM -0.07 31.874 0.103 6.86 1.88 14.11
1/31/2021 8:45:00 PM -0.07 31.874 0.103 6.87 2.06 14.1
1/31/2021 9:00:00 PM -0.07 31.874 0.102 6.89 1.91 14.09
1/31/2021 9:15:00 PM -0.07 31.874 0.102 6.89 1.9 14.07
1/31/2021 9:30:00 PM -0.07 31.874 0.102 6.91 1.84 14.07
1/31/2021 9:45:00 PM -0.07 31.874 0.102 6.9 1.77 14.05
1/31/2021 10:00:00 PM -0.07 31.874 0.102 6.89 1.75 14.04
1/31/2021 10:15:00 PM -0.07 31.874 0.102 6.89 1.69 14.03
1/31/2021 10:30:00 PM -0.07 31.874 0.102 6.89 1.72 14.02
1/31/2021 10:45:00 PM -0.07 31.874 0.102 6.89 1.68 14.01
1/31/2021 11:00:00 PM -0.07 31.874 0.102 6.89 1.7 14
1/31/2021 11:15:00 PM -0.07 31.874 0.102 6.89 1.69 14
1/31/2021 11:30:00 PM -0.07 31.874 0.102 6.89 1.69 13.99
1/31/2021 11:45:00 PM -0.07 31.874 0.102 6.89 1.69 13.98
2/1/2021 12:00:00 AM -0.07 31.874 0.102 6.89 1.73 13.97
2/1/2021 12:15:00 AM -0.07 31.874 0.102 6.89 1.71 13.97
2/1/2021 12:30:00 AM -0.07 31.874 0.102 6.88 1.75 13.96
2/1/2021 12:45:00 AM -0.07 31.874 0.102 6.88 1.72 13.95
2/1/2021 1:00:00 AM -0.07 31.874 0.102 6.88 1.74 13.94
2/1/2021 1:15:00 AM -0.07 31.874 0.102 6.88 1.72 13.94
2/1/2021 1:30:00 AM -0.07 31.874 0.102 6.88 1.89 13.93
2/1/2021 1:45:00 AM -0.07 31.874 0.102 6.87 1.92 13.93
2/1/2021 2:00:00 AM -0.07 31.874 0.102 6.87 2.02 13.92
2/1/2021 2:15:00 AM -0.07 31.874 0.102 6.87 1.85 13.91
2/1/2021 2:30:00 AM -0.07 31.874 0.101 6.87 1.92 13.91
2/1/2021 2:45:00 AM -0.07 31.874 0.101 6.87 1.9 13.9
2/1/2021 3:00:00 AM -0.07 31.874 0.101 6.87 1.82 13.9
2/1/2021 3:15:00 AM -0.07 31.874 0.101 6.87 1.84 13.89
2/1/2021 3:30:00 AM -0.07 31.874 0.101 6.87 1.85 13.89
2/1/2021 3:45:00 AM -0.07 31.874 0.101 6.86 1.83 13.89
2/1/2021 4:00:00 AM -0.07 31.874 0.101 6.86 1.86 13.89
2/1/2021 4:15:00 AM -0.07 31.874 0.101 6.86 1.78 13.88
2/1/2021 4:30:00 AM -0.07 31.874 0.101 6.86 1.81 13.87
2/1/2021 4:45:00 AM -0.07 31.874 0.101 6.86 1.85 13.87
2/1/2021 5:00:00 AM -0.07 31.874 0.101 6.86 1.85 13.87
2/1/2021 5:15:00 AM -0.07 31.874 0.101 6.86 1.78 13.87
2/1/2021 5:30:00 AM -0.07 31.874 0.101 6.86 1.82 13.87
2/1/2021 5:45:00 AM -0.07 31.874 0.101 6.86 1.82 13.87
2/1/2021 6:00:00 AM -0.07 31.874 0.101 6.86 1.85 13.86
2/1/2021 6:15:00 AM -0.07 31.874 0.101 6.85 1.85 13.87
2/1/2021 6:30:00 AM -0.07 31.874 0.101 6.86 1.86 13.86
2/1/2021 6:45:00 AM -0.07 31.874 0.101 6.85 1.82 13.86
2/1/2021 7:00:00 AM -0.07 31.874 0.101 6.85 1.81 13.86
2/1/2021 7:15:00 AM -0.07 31.874 0.101 6.85 1.81 13.86
2/1/2021 7:30:00 AM -0.07 31.874 0.101 6.85 1.87 13.86
2/1/2021 7:45:00 AM -0.07 31.874 0.101 6.85 1.8 13.87
2/1/2021 8:00:00 AM -0.07 31.874 0.101 6.86 1.8 13.9
2/1/2021 8:15:00 AM -0.07 31.874 0.1 6.86 1.77 13.92
2/1/2021 8:30:00 AM -0.07 31.874 0.1 6.87 1.79 13.95
2/1/2021 8:45:00 AM -0.07 31.874 0.1 6.88 1.86 13.98
2/1/2021 9:00:00 AM -0.07 31.874 0.1 6.89 1.79 14.01
2/1/2021 9:15:00 AM -0.07 31.874 0.1 6.9 1.63 14.04
2/1/2021 9:30:00 AM -0.07 31.874 0.1 6.9 1.64 14.08
2/1/2021 9:45:00 AM -0.07 31.874 0.1 6.9 1.65 14.1
2/1/2021 10:00:00 AM -0.06 31.892 0.1 6.9 1.69 14.13
2/1/2021 10:15:00 AM -0.06 31.892 0.1 6.89 1.77 14.16
2/1/2021 10:30:00 AM -0.05 31.91 0.1 6.82 1.81 14.18
2/1/2021 10:45:00 AM -0.05 31.91 0.1 6.84 1.74 14.21
2/1/2021 11:00:00 AM -0.04 31.928 0.1 6.78 1.71 14.23
2/1/2021 11:15:00 AM -0.04 31.928 0.1 6.8 1.69 14.26
2/1/2021 11:30:00 AM -0.04 31.928 0.1 6.81 1.68 14.28
2/1/2021 11:45:00 AM -0.04 31.928 0.099 6.81 1.71 14.3
2/1/2021 12:00:00 PM -0.04 31.928 0.099 6.81 1.7 14.32
2/1/2021 12:15:00 PM -0.03 31.946 0.099 6.83 1.71 14.33
2/1/2021 12:30:00 PM -0.03 31.946 0.099 6.86 1.74 14.35
2/1/2021 12:45:00 PM -0.04 31.928 0.099 6.86 1.77 14.36
2/1/2021 1:00:00 PM -0.03 31.946 0.099 6.88 1.74 14.37
2/1/2021 1:15:00 PM -0.03 31.946 0.099 6.87 1.74 14.38
2/1/2021 1:30:00 PM -0.03 31.946 0.098 6.87 1.75 14.39
2/1/2021 1:45:00 PM -0.03 31.946 0.098 6.87 1.79 14.4
2/1/2021 2:00:00 PM -0.02 31.964 0.098 6.88 1.73 14.41
2/1/2021 2:15:00 PM 0 32 0.098 6.89 1.72 14.42
2/1/2021 2:30:00 PM -0.01 31.982 0.098 6.9 1.7 14.43
2/1/2021 2:45:00 PM -0.02 31.964 0.097 6.9 1.74 14.43
2/1/2021 3:00:00 PM -0.03 31.946 0.097 6.89 1.73 14.42
2/1/2021 3:15:00 PM -0.04 31.928 0.097 6.9 1.72 14.43
2/1/2021 3:30:00 PM -0.04 31.928 0.097 6.9 1.76 14.43
2/1/2021 3:45:00 PM -0.04 31.928 0.097 6.93 1.73 14.43
2/1/2021 4:00:00 PM -0.04 31.928 0.097 6.94 1.74 14.43
2/1/2021 4:15:00 PM -0.05 31.91 0.097 6.93 1.75 14.42
2/1/2021 4:30:00 PM -0.05 31.91 0.097 6.94 1.76 14.41
2/1/2021 4:45:00 PM -0.05 31.91 0.097 6.93 1.71 14.39
2/1/2021 5:00:00 PM -0.05 31.91 0.096 6.93 1.76 14.36
2/1/2021 5:15:00 PM -0.06 31.892 0.096 6.93 1.77 14.32
2/1/2021 5:30:00 PM -0.06 31.892 0.097 6.91 1.76 14.29
2/1/2021 5:45:00 PM -0.06 31.892 0.097 6.9 1.83 14.25
2/1/2021 6:00:00 PM -0.06 31.892 0.097 6.91 1.82 14.22
2/1/2021 6:15:00 PM -0.06 31.892 0.098 6.9 1.9 14.19
2/1/2021 6:30:00 PM -0.06 31.892 0.098 6.89 1.87 14.16
2/1/2021 6:45:00 PM -0.07 31.874 0.098 6.88 1.89 14.14
2/1/2021 7:00:00 PM -0.07 31.874 0.098 6.89 1.83 14.11
2/1/2021 7:15:00 PM -0.07 31.874 0.098 6.86 1.76 14.09
2/1/2021 7:30:00 PM -0.07 31.874 0.098 6.86 1.81 14.07
2/1/2021 7:45:00 PM -0.07 31.874 0.098 6.85 1.76 14.05
2/1/2021 8:00:00 PM -0.07 31.874 0.098 6.85 1.75 14.04
2/1/2021 8:15:00 PM -0.07 31.874 0.098 6.85 1.74 14.02
2/1/2021 8:30:00 PM -0.07 31.874 0.097 6.84 1.74 14.01
2/1/2021 8:45:00 PM -0.07 31.874 0.097 6.84 1.77 14
2/1/2021 9:00:00 PM -0.07 31.874 0.097 6.84 1.81 13.99
2/1/2021 9:15:00 PM -0.07 31.874 0.097 6.85 1.79 13.98
2/1/2021 9:30:00 PM -0.07 31.874 0.097 6.83 1.71 13.97
2/1/2021 9:45:00 PM -0.07 31.874 0.097 6.83 1.78 13.96
2/1/2021 10:00:00 PM -0.07 31.874 0.097 6.84 1.74 13.95
2/1/2021 10:15:00 PM -0.07 31.874 0.097 6.83 1.78 13.94
2/1/2021 10:30:00 PM -0.07 31.874 0.097 6.82 1.74 13.93
2/1/2021 10:45:00 PM -0.07 31.874 0.097 6.81 1.76 13.92
2/1/2021 11:00:00 PM -0.07 31.874 0.096 6.8 1.72 13.92
2/1/2021 11:15:00 PM -0.07 31.874 0.096 6.81 1.75 13.91
2/1/2021 11:30:00 PM -0.07 31.874 0.096 6.8 1.75 13.9
2/1/2021 11:45:00 PM -0.07 31.874 0.096 6.81 1.73 13.9
2/2/2021 12:00:00 AM -0.07 31.874 0.096 6.81 1.68 13.89
2/2/2021 12:15:00 AM -0.07 31.874 0.096 6.82 1.68 13.89
2/2/2021 12:30:00 AM -0.07 31.874 0.096 6.81 1.67 13.88
2/2/2021 12:45:00 AM -0.07 31.874 0.096 6.82 1.69 13.87
2/2/2021 1:00:00 AM -0.07 31.874 0.096 6.81 1.64 13.87
2/2/2021 1:15:00 AM -0.07 31.874 0.096 6.81 1.69 13.86
2/2/2021 1:30:00 AM -0.07 31.874 0.096 6.82 1.67 13.86
2/2/2021 1:45:00 AM -0.07 31.874 0.096 6.81 1.7 13.86
2/2/2021 2:00:00 AM -0.07 31.874 0.096 6.81 1.68 13.85
2/2/2021 2:15:00 AM -0.07 31.874 0.096 6.81 1.65 13.85
2/2/2021 2:30:00 AM -0.07 31.874 0.096 6.81 1.65 13.85
2/2/2021 2:45:00 AM -0.07 31.874 0.096 6.81 1.62 13.84
2/2/2021 3:00:00 AM -0.07 31.874 0.096 6.81 1.66 13.84
2/2/2021 3:15:00 AM -0.07 31.874 0.096 6.81 1.65 13.83
2/2/2021 3:30:00 AM -0.07 31.874 0.096 6.81 1.66 13.83
2/2/2021 3:45:00 AM -0.07 31.874 0.096 6.81 1.65 13.83
2/2/2021 4:00:00 AM -0.07 31.874 0.096 6.81 1.65 13.83
2/2/2021 4:15:00 AM -0.07 31.874 0.096 6.81 1.64 13.83
2/2/2021 4:30:00 AM -0.07 31.874 0.096 6.81 1.76 13.83
2/2/2021 4:45:00 AM -0.07 31.874 0.096 6.8 1.77 13.83
2/2/2021 5:00:00 AM -0.07 31.874 0.096 6.83 1.76 13.83
2/2/2021 5:15:00 AM -0.07 31.874 0.096 6.83 1.76 13.83
2/2/2021 5:30:00 AM -0.07 31.874 0.096 6.83 1.83 13.82
2/2/2021 5:45:00 AM -0.07 31.874 0.096 6.83 1.75 13.83
2/2/2021 6:00:00 AM -0.07 31.874 0.095 6.85 1.72 13.82
2/2/2021 6:15:00 AM -0.07 31.874 0.095 6.84 1.7 13.83
2/2/2021 6:30:00 AM -0.07 31.874 0.095 6.84 1.64 13.83
2/2/2021 6:45:00 AM -0.07 31.874 0.095 6.85 1.58 13.82
2/2/2021 7:00:00 AM -0.07 31.874 0.095 6.85 1.64 13.82
2/2/2021 7:15:00 AM -0.07 31.874 0.095 6.86 1.6 13.82
2/2/2021 7:30:00 AM -0.07 31.874 0.095 6.85 1.58 13.82
2/2/2021 7:45:00 AM -0.07 31.874 0.095 6.86 1.58 13.84
2/2/2021 8:00:00 AM -0.07 31.874 0.095 6.86 1.58 13.85
2/2/2021 8:15:00 AM -0.07 31.874 0.095 6.86 1.55 13.88
2/2/2021 8:30:00 AM -0.07 31.874 0.095 6.87 1.56 13.9
2/2/2021 8:45:00 AM -0.07 31.874 0.095 6.87 1.61 13.92
2/2/2021 9:00:00 AM -0.07 31.874 0.095 6.88 1.57 13.95
2/2/2021 9:15:00 AM -0.07 31.874 0.095 6.88 1.6 13.98
2/2/2021 9:30:00 AM -0.07 31.874 0.095 6.89 5.1 14
2/2/2021 9:45:00 AM -0.07 31.874 0.095 6.89 1.57 14.03
2/2/2021 10:00:00 AM -0.07 31.874 0.095 6.9 1.58 14.06
2/2/2021 10:15:00 AM -0.06 31.892 0.095 6.91 1.7 14.09
2/2/2021 10:30:00 AM -0.06 31.892 0.095 6.89 1.68 14.11
2/2/2021 10:45:00 AM -0.06 31.892 0.095 6.88 1.79 14.14
2/2/2021 11:00:00 AM -0.05 31.91 0.095 6.85 1.72 14.16
2/2/2021 11:15:00 AM -0.04 31.928 0.095 6.82 1.68 14.18
2/2/2021 11:30:00 AM -0.04 31.928 0.094 6.83 1.67 14.2
2/2/2021 11:45:00 AM -0.04 31.928 0.094 6.84 1.66 14.22
2/2/2021 12:00:00 PM -0.03 31.946 0.094 6.85 1.7 14.23
2/2/2021 12:15:00 PM -0.03 31.946 0.094 6.83 1.7 14.25
2/2/2021 12:30:00 PM -0.03 31.946 0.094 6.84 1.68 14.27
2/2/2021 12:45:00 PM -0.04 31.928 0.094 6.85 1.7 14.28
2/2/2021 1:00:00 PM -0.05 31.91 0.094 6.85 1.67 14.28
2/2/2021 1:15:00 PM -0.05 31.91 0.094 6.85 1.69 14.28
2/2/2021 1:30:00 PM -0.06 31.892 0.094 6.85 1.66 14.28
2/2/2021 1:45:00 PM -0.06 31.892 0.094 6.85 1.67 14.28
2/2/2021 2:00:00 PM -0.06 31.892 0.094 6.87 1.69 14.28
2/2/2021 2:15:00 PM -0.06 31.892 0.094 6.86 1.66 14.28
2/2/2021 2:30:00 PM -0.06 31.892 0.094 6.86 1.67 14.28
2/2/2021 2:45:00 PM -0.06 31.892 0.094 6.87 1.71 14.27
2/2/2021 3:00:00 PM -0.06 31.892 0.094 6.88 1.66 14.27
2/2/2021 3:15:00 PM -0.06 31.892 0.094 6.88 1.64 14.27
2/2/2021 3:30:00 PM -0.06 31.892 0.094 6.88 1.63 14.27
2/2/2021 3:45:00 PM -0.06 31.892 0.094 6.88 1.69 14.26
2/2/2021 4:00:00 PM -0.07 31.874 0.094 6.87 1.69 14.25
2/2/2021 4:15:00 PM -0.07 31.874 0.094 6.87 1.67 14.24
2/2/2021 4:30:00 PM -0.07 31.874 0.094 6.87 1.66 14.24
2/2/2021 4:45:00 PM -0.07 31.874 0.094 6.86 1.68 14.22
2/2/2021 5:00:00 PM -0.07 31.874 0.094 6.86 1.63 14.2
2/2/2021 5:15:00 PM -0.07 31.874 0.094 6.88 1.68 14.16
2/2/2021 5:30:00 PM -0.07 31.874 0.094 6.87 1.68 14.14
2/2/2021 5:45:00 PM -0.07 31.874 0.095 6.86 1.73 14.1
2/2/2021 6:00:00 PM -0.07 31.874 0.095 6.86 1.73 14.08
2/2/2021 6:15:00 PM -0.07 31.874 0.095 6.86 1.76 14.06
2/2/2021 6:30:00 PM -0.07 31.874 0.095 6.9 1.77 14.04
2/2/2021 6:45:00 PM -0.07 31.874 0.095 6.87 1.72 14.02
2/2/2021 7:00:00 PM -0.07 31.874 0.095 6.86 1.72 14
2/2/2021 7:15:00 PM -0.07 31.874 0.095 6.86 1.69 13.98
2/2/2021 7:30:00 PM -0.07 31.874 0.095 6.85 1.72 13.97
2/2/2021 7:45:00 PM -0.07 31.874 0.095 6.83 1.78 13.95
2/2/2021 8:00:00 PM -0.07 31.874 0.095 6.83 1.76 13.94
2/2/2021 8:15:00 PM -0.07 31.874 0.095 6.82 1.74 13.93
2/2/2021 8:30:00 PM -0.07 31.874 0.095 6.81 1.84 13.91
2/2/2021 8:45:00 PM -0.07 31.874 0.095 6.82 1.8 13.9
2/2/2021 9:00:00 PM -0.07 31.874 0.095 6.82 1.82 13.89
2/2/2021 9:15:00 PM -0.07 31.874 0.095 6.82 1.83 13.88
2/2/2021 9:30:00 PM -0.07 31.874 0.095 6.82 1.82 13.88
2/2/2021 9:45:00 PM -0.07 31.874 0.095 6.81 1.8 13.86
2/2/2021 10:00:00 PM -0.07 31.874 0.095 6.82 1.84 13.85
2/2/2021 10:15:00 PM -0.07 31.874 0.095 6.82 1.8 13.84
2/2/2021 10:30:00 PM -0.07 31.874 0.095 6.81 1.78 13.83
2/2/2021 10:45:00 PM -0.07 31.874 0.095 6.81 1.82 13.83
2/2/2021 11:00:00 PM -0.07 31.874 0.095 6.81 1.81 13.82
2/2/2021 11:15:00 PM -0.07 31.874 0.095 6.81 1.8 13.81
2/2/2021 11:30:00 PM -0.07 31.874 0.095 6.81 1.79 13.8
2/2/2021 11:45:00 PM -0.07 31.874 0.095 6.81 1.84 13.8
2/3/2021 12:00:00 AM -0.07 31.874 0.095 6.81 1.79 13.79
2/3/2021 12:15:00 AM -0.07 31.874 0.095 6.81 1.81 13.79
2/3/2021 12:30:00 AM -0.07 31.874 0.095 6.81 1.8 13.79
2/3/2021 12:45:00 AM -0.07 31.874 0.095 6.8 1.79 13.78
2/3/2021 1:00:00 AM -0.07 31.874 0.095 6.8 1.77 13.77
2/3/2021 1:15:00 AM -0.07 31.874 0.095 6.8 1.77 13.77
2/3/2021 1:30:00 AM -0.07 31.874 0.095 6.8 1.84 13.77
2/3/2021 1:45:00 AM -0.07 31.874 0.095 6.8 1.8 13.76
2/3/2021 2:00:00 AM -0.07 31.874 0.095 6.8 1.81 13.76
2/3/2021 2:15:00 AM -0.07 31.874 0.095 6.81 1.79 13.76
2/3/2021 2:30:00 AM -0.07 31.874 0.095 6.81 1.79 13.76
2/3/2021 2:45:00 AM -0.07 31.874 0.095 6.81 1.8 13.75
2/3/2021 3:00:00 AM -0.07 31.874 0.095 6.81 1.78 13.75
2/3/2021 3:15:00 AM -0.07 31.874 0.095 6.81 1.8 13.75
2/3/2021 3:30:00 AM -0.07 31.874 0.095 6.81 1.82 13.75
2/3/2021 3:45:00 AM -0.07 31.874 0.095 6.81 1.79 13.75
2/3/2021 4:00:00 AM -0.07 31.874 0.095 6.81 1.79 13.75
2/3/2021 4:15:00 AM -0.07 31.874 0.096 6.81 1.8 13.74
2/3/2021 4:30:00 AM -0.07 31.874 0.096 6.82 1.77 13.75
2/3/2021 4:45:00 AM -0.07 31.874 0.096 6.81 1.81 13.74
2/3/2021 5:00:00 AM -0.07 31.874 0.096 6.82 1.79 13.74
2/3/2021 5:15:00 AM -0.07 31.874 0.096 6.81 1.76 13.74
2/3/2021 5:30:00 AM -0.07 31.874 0.096 6.81 1.77 13.74
2/3/2021 5:45:00 AM -0.07 31.874 0.096 6.82 1.81 13.74
2/3/2021 6:00:00 AM -0.07 31.874 0.096 6.82 1.76 13.74
2/3/2021 6:15:00 AM -0.07 31.874 0.096 6.82 1.77 13.74
2/3/2021 6:30:00 AM -0.07 31.874 0.096 6.83 1.77 13.74
2/3/2021 6:45:00 AM -0.07 31.874 0.096 6.83 1.79 13.75
2/3/2021 7:00:00 AM -0.07 31.874 0.096 6.83 1.77 13.74
2/3/2021 7:15:00 AM -0.07 31.874 0.096 6.83 1.79 13.74
2/3/2021 7:30:00 AM -0.07 31.874 0.096 6.83 1.77 13.75
2/3/2021 7:45:00 AM -0.07 31.874 0.096 6.83 1.77 13.76
2/3/2021 8:00:00 AM -0.07 31.874 0.096 6.83 1.81 13.78
2/3/2021 8:15:00 AM -0.07 31.874 0.095 6.84 1.78 13.8
2/3/2021 8:30:00 AM -0.07 31.874 0.095 6.83 1.78 13.82
2/3/2021 8:45:00 AM -0.07 31.874 0.095 6.84 1.76 13.85
2/3/2021 9:00:00 AM -0.07 31.874 0.095 6.85 1.74 13.88
2/3/2021 9:15:00 AM -0.07 31.874 0.095 6.84 1.77 13.91
2/3/2021 9:30:00 AM -0.06 31.892 0.095 6.86 1.79 13.94
2/3/2021 9:45:00 AM -0.06 31.892 0.095 6.85 1.79 13.97
2/3/2021 10:00:00 AM -0.06 31.892 0.095 6.85 1.88 14
2/3/2021 10:15:00 AM -0.06 31.892 0.095 6.83 1.82 14.03
2/3/2021 10:30:00 AM -0.05 31.91 0.095 6.84 1.7 14.06
2/3/2021 10:45:00 AM -0.03 31.946 0.095 6.82 1.6 14.09
2/3/2021 11:00:00 AM -0.03 31.946 0.095 6.82 1.62 14.11
2/3/2021 11:15:00 AM -0.02 31.964 0.095 6.82 1.57 14.13
2/3/2021 11:30:00 AM -0.02 31.964 0.095 6.83 1.59 14.14
2/3/2021 11:45:00 AM 0 32 0.095 6.83 1.55 14.15
2/3/2021 12:00:00 PM 0 32 0.095 6.83 1.59 14.17
2/3/2021 12:15:00 PM 0.01 32.018 0.095 6.84 1.61 14.18
2/3/2021 12:30:00 PM 0.01 32.018 0.094 6.85 1.63 14.19
2/3/2021 12:45:00 PM 0.02 32.036 0.094 6.84 1.67 14.19
2/3/2021 1:00:00 PM 0.02 32.036 0.094 6.86 1.64 14.2
2/3/2021 1:15:00 PM 0.01 32.018 0.094 6.87 1.67 14.21
2/3/2021 1:30:00 PM 0.02 32.036 0.094 6.87 1.69 14.22
2/3/2021 1:45:00 PM 0.02 32.036 0.094 6.87 1.63 14.21
2/3/2021 2:00:00 PM 0.02 32.036 0.094 6.87 1.64 14.22
2/3/2021 2:15:00 PM 0.01 32.018 0.094 6.89 1.64 14.22
2/3/2021 2:30:00 PM 0.01 32.018 0.094 6.89 1.66 14.22
2/3/2021 2:45:00 PM 0 32 0.094 6.89 1.63 14.22
2/3/2021 3:00:00 PM -0.01 31.982 0.094 6.89 1.68 14.23
2/3/2021 3:15:00 PM -0.01 31.982 0.094 6.89 1.68 14.22
2/3/2021 3:30:00 PM -0.02 31.964 0.094 6.9 1.67 14.23
2/3/2021 3:45:00 PM -0.04 31.928 0.094 6.91 1.7 14.23
2/3/2021 4:00:00 PM -0.05 31.91 0.094 6.9 1.61 14.23
2/3/2021 4:15:00 PM -0.05 31.91 0.094 6.9 1.61 14.23
2/3/2021 4:30:00 PM -0.05 31.91 0.094 6.9 1.6 14.23
2/3/2021 4:45:00 PM -0.06 31.892 0.094 6.89 1.65 14.22
2/3/2021 5:00:00 PM -0.07 31.874 0.094 6.89 1.68 14.2
2/3/2021 5:15:00 PM -0.08 31.856 0.094 6.88 1.69 14.18
2/3/2021 5:30:00 PM -0.08 31.856 0.094 6.88 1.65 14.16
2/3/2021 5:45:00 PM -0.08 31.856 0.095 6.87 1.64 14.13
2/3/2021 6:00:00 PM -0.08 31.856 0.095 6.86 1.64 14.11
2/3/2021 6:15:00 PM -0.08 31.856 0.095 6.86 1.65 14.09
2/3/2021 6:30:00 PM -0.08 31.856 0.095 6.85 1.61 14.08
2/3/2021 6:45:00 PM -0.08 31.856 0.095 6.84 1.6 14.07
2/3/2021 7:00:00 PM -0.08 31.856 0.095 6.84 1.63 14.05
2/3/2021 7:15:00 PM -0.08 31.856 0.095 6.83 1.73 14.04
2/3/2021 7:30:00 PM -0.08 31.856 0.095 6.82 1.73 14.03
2/3/2021 7:45:00 PM -0.08 31.856 0.095 6.82 1.81 14.01
2/3/2021 8:00:00 PM -0.08 31.856 0.095 6.82 2.04 14.01
2/3/2021 8:15:00 PM -0.08 31.856 0.096 6.82 2.17 14
2/3/2021 8:30:00 PM -0.08 31.856 0.096 6.81 2.23 13.99
2/3/2021 8:45:00 PM -0.08 31.856 0.096 6.82 2.4 13.98
2/3/2021 9:00:00 PM -0.08 31.856 0.096 6.83 2.69 13.97
2/3/2021 9:15:00 PM -0.08 31.856 0.096 6.84 3.27 13.97
2/3/2021 9:30:00 PM -0.08 31.856 0.096 6.85 3.55 13.97
2/3/2021 9:45:00 PM -0.08 31.856 0.096 6.85 4.01 13.96
2/3/2021 10:00:00 PM -0.08 31.856 0.096 6.86 4.3 13.96
2/3/2021 10:15:00 PM -0.08 31.856 0.096 6.87 4.64 13.95
2/3/2021 10:30:00 PM -0.08 31.856 0.096 6.87 5.21 13.95
2/3/2021 10:45:00 PM -0.08 31.856 0.096 6.86 6.13 13.94
2/3/2021 11:00:00 PM -0.08 31.856 0.096 6.86 6.54 13.94
2/3/2021 11:15:00 PM -0.08 31.856 0.096 6.86 6.64 13.94
2/3/2021 11:30:00 PM -0.08 31.856 0.096 6.87 6.54 13.93
2/3/2021 11:45:00 PM -0.08 31.856 0.096 6.85 6.28 13.93
2/4/2021 12:00:00 AM -0.08 31.856 0.096 6.85 5.84 13.93
2/4/2021 12:15:00 AM -0.08 31.856 0.096 6.85 5.28 13.93
2/4/2021 12:30:00 AM -0.08 31.856 0.096 6.85 4.94 13.93
2/4/2021 12:45:00 AM -0.08 31.856 0.096 6.85 4.61 13.93
2/4/2021 1:00:00 AM -0.08 31.856 0.096 6.85 4.33 13.93
2/4/2021 1:15:00 AM -0.08 31.856 0.096 6.85 3.97 13.93
2/4/2021 1:30:00 AM -0.08 31.856 0.096 6.85 3.75 13.92
2/4/2021 1:45:00 AM -0.08 31.856 0.096 6.84 3.78 13.92
2/4/2021 2:00:00 AM -0.08 31.856 0.097 6.85 3.4 13.93
2/4/2021 2:15:00 AM -0.08 31.856 0.097 6.85 3.43 13.93
2/4/2021 2:30:00 AM -0.08 31.856 0.097 6.85 4 13.93
2/4/2021 2:45:00 AM -0.08 31.856 0.097 6.85 3.72 13.93
2/4/2021 3:00:00 AM -0.08 31.856 0.097 6.85 3.98 13.93
2/4/2021 3:15:00 AM -0.08 31.856 0.097 6.85 3.53 13.93
2/4/2021 3:30:00 AM -0.08 31.856 0.097 6.85 3.58 13.93
2/4/2021 3:45:00 AM -0.08 31.856 0.097 6.84 3.79 13.93
2/4/2021 4:00:00 AM -0.07 31.874 0.097 6.84 4.19 13.93
2/4/2021 4:15:00 AM -0.07 31.874 0.098 6.84 4.35 13.93
2/4/2021 4:30:00 AM -0.08 31.856 0.098 6.83 4.48 13.93
2/4/2021 4:45:00 AM -0.08 31.856 0.098 6.84 4.39 13.93
2/4/2021 5:00:00 AM -0.07 31.874 0.098 6.85 4.65 13.93
2/4/2021 5:15:00 AM -0.07 31.874 0.099 6.84 4.62 13.93
2/4/2021 5:30:00 AM -0.07 31.874 0.099 6.85 4.54 13.93
2/4/2021 5:45:00 AM -0.07 31.874 0.099 6.83 4.64 13.93
2/4/2021 6:00:00 AM -0.08 31.856 0.099 6.84 4.67 13.93
2/4/2021 6:15:00 AM -0.07 31.874 0.099 6.84 4.98 13.93
2/4/2021 6:30:00 AM -0.07 31.874 0.099 6.84 4.93 13.93
2/4/2021 6:45:00 AM -0.07 31.874 0.099 6.84 5.09 13.93
2/4/2021 7:00:00 AM -0.07 31.874 0.1 6.84 5.09 13.93
2/4/2021 7:15:00 AM -0.07 31.874 0.1 6.85 5.17 13.93
2/4/2021 7:30:00 AM -0.07 31.874 0.1 6.85 5.3 13.95
2/4/2021 7:45:00 AM -0.07 31.874 0.1 6.85 5.32 13.97
2/4/2021 8:00:00 AM -0.07 31.874 0.1 6.85 5.62 14.01
2/4/2021 8:15:00 AM -0.07 31.874 0.1 6.87 5.14 14.04
2/4/2021 8:30:00 AM -0.07 31.874 0.1 6.87 4.91 14.08
2/4/2021 8:45:00 AM -0.07 31.874 0.1 6.87 6.09 14.11
2/4/2021 9:00:00 AM -0.06 31.892 0.1 6.85 4.98 14.15
2/4/2021 9:15:00 AM -0.06 31.892 0.1 6.86 5.06 14.17
2/4/2021 9:30:00 AM -0.06 31.892 0.1 6.86 5.05 14.19
2/4/2021 9:45:00 AM -0.06 31.892 0.1 6.87 4.66 14.2
2/4/2021 10:00:00 AM -0.05 31.91 0.099 6.87 4.62 14.22
2/4/2021 10:15:00 AM -0.05 31.91 0.099 6.89 4.47 14.25
2/4/2021 10:30:00 AM -0.05 31.91 0.099 6.88 4.61 14.26
2/4/2021 10:45:00 AM -0.04 31.928 0.098 6.9 3.41 14.28
2/4/2021 11:00:00 AM -0.04 31.928 0.098 6.91 14.79 14.3
2/4/2021 11:15:00 AM -0.04 31.928 0.098 6.91 3.35 14.32
2/4/2021 11:30:00 AM -0.05 31.91 0.098 6.93 3.73 14.33
2/4/2021 11:45:00 AM -0.04 31.928 0.098 6.93 3.5 14.34
2/4/2021 12:00:00 PM -0.05 31.91 0.097 6.93 5.92 14.36
2/4/2021 12:15:00 PM -0.05 31.91 0.097 6.94 3.71 14.37
2/4/2021 12:30:00 PM -0.05 31.91 0.097 6.92 4.33 14.38
2/4/2021 12:45:00 PM -0.05 31.91 0.097 6.94 5.24 14.39
2/4/2021 1:00:00 PM -0.05 31.91 0.097 6.94 3.77 14.4
2/4/2021 1:15:00 PM -0.05 31.91 0.097 6.96 3.4 14.41
2/4/2021 1:30:00 PM -0.04 31.928 0.097 6.95 2.78 14.41
2/4/2021 1:45:00 PM -0.03 31.946 0.097 6.93 1.73 14.41
2/4/2021 2:00:00 PM -0.02 31.964 0.097 6.93 1.81 14.41
2/4/2021 2:15:00 PM -0.01 31.982 0.097 6.92 1.81 14.42
2/4/2021 2:30:00 PM -0.01 31.982 0.097 6.91 1.8 14.43
2/4/2021 2:45:00 PM 0 32 0.097 6.92 1.72 14.43
2/4/2021 3:00:00 PM 0 32 0.096 6.93 1.77 14.44
2/4/2021 3:15:00 PM -0.01 31.982 0.096 6.95 1.75 14.45
2/4/2021 3:30:00 PM -0.03 31.946 0.096 6.96 1.79 14.45
2/4/2021 3:45:00 PM -0.04 31.928 0.096 6.96 1.78 14.45
2/4/2021 4:00:00 PM -0.04 31.928 0.096 6.97 1.77 14.45
2/4/2021 4:15:00 PM -0.05 31.91 0.096 6.96 1.74 14.45
2/4/2021 4:30:00 PM -0.06 31.892 0.096 6.96 1.71 14.43
2/4/2021 4:45:00 PM -0.07 31.874 0.096 6.95 1.71 14.41
2/4/2021 5:00:00 PM -0.07 31.874 0.096 6.95 1.74 14.4
2/4/2021 5:15:00 PM -0.07 31.874 0.096 6.95 1.91 14.37
2/4/2021 5:30:00 PM -0.07 31.874 0.096 6.94 1.7 14.34
2/4/2021 5:45:00 PM -0.08 31.856 0.097 6.93 1.71 14.31
2/4/2021 6:00:00 PM -0.08 31.856 0.097 6.93 1.69 14.27
2/4/2021 6:15:00 PM -0.08 31.856 0.097 6.9 1.69 14.25
2/4/2021 6:30:00 PM -0.08 31.856 0.097 6.91 1.72 14.22
2/4/2021 6:45:00 PM -0.07 31.874 0.097 6.9 1.69 14.2
2/4/2021 7:00:00 PM -0.07 31.874 0.097 6.89 1.63 14.17
2/4/2021 7:15:00 PM -0.07 31.874 0.098 6.88 1.65 14.15
2/4/2021 7:30:00 PM -0.07 31.874 0.098 6.88 1.71 14.12
2/4/2021 7:45:00 PM -0.07 31.874 0.098 6.87 1.68 14.1
2/4/2021 8:00:00 PM -0.07 31.874 0.098 6.87 1.79 14.08
2/4/2021 8:15:00 PM -0.07 31.874 0.098 6.86 1.73 14.06
2/4/2021 8:30:00 PM -0.07 31.874 0.099 6.86 1.8 14.04
2/4/2021 8:45:00 PM -0.07 31.874 0.099 6.85 1.69 14.02
2/4/2021 9:00:00 PM -0.07 31.874 0.099 6.85 1.71 14
2/4/2021 9:15:00 PM -0.07 31.874 0.099 6.84 1.69 13.98
2/4/2021 9:30:00 PM -0.07 31.874 0.099 6.84 1.69 13.96
2/4/2021 9:45:00 PM -0.07 31.874 0.099 6.84 1.73 13.95
2/4/2021 10:00:00 PM -0.07 31.874 0.099 6.84 1.72 13.93
2/4/2021 10:15:00 PM -0.07 31.874 0.099 6.84 1.7 13.91
2/4/2021 10:30:00 PM -0.07 31.874 0.099 6.84 1.7 13.9
2/4/2021 10:45:00 PM -0.07 31.874 0.099 6.84 1.65 13.88
2/4/2021 11:00:00 PM -0.06 31.892 0.099 6.84 1.72 13.87
2/4/2021 11:15:00 PM -0.06 31.892 0.099 6.84 1.67 13.86
2/4/2021 11:30:00 PM -0.06 31.892 0.099 6.84 1.71 13.86
2/4/2021 11:45:00 PM -0.07 31.874 0.099 6.83 1.75 13.85
2/5/2021 12:00:00 AM -0.07 31.874 0.099 6.84 1.73 13.84
2/5/2021 12:15:00 AM -0.06 31.892 0.099 6.84 1.74 13.83
2/5/2021 12:30:00 AM -0.06 31.892 0.099 6.84 1.71 13.82
2/5/2021 12:45:00 AM -0.06 31.892 0.099 6.84 1.71 13.81
2/5/2021 1:00:00 AM -0.06 31.892 0.099 6.84 1.7 13.8
2/5/2021 1:15:00 AM -0.06 31.892 0.099 6.84 1.74 13.79
2/5/2021 1:30:00 AM -0.06 31.892 0.099 6.84 1.76 13.79
2/5/2021 1:45:00 AM -0.06 31.892 0.099 6.84 1.68 13.78
2/5/2021 2:00:00 AM -0.07 31.874 0.099 6.83 1.8 13.77
2/5/2021 2:15:00 AM -0.07 31.874 0.099 6.83 1.75 13.76
2/5/2021 2:30:00 AM -0.06 31.892 0.099 6.83 1.75 13.76
2/5/2021 2:45:00 AM -0.06 31.892 0.1 6.83 1.78 13.75
2/5/2021 3:00:00 AM -0.06 31.892 0.099 6.83 1.74 13.74
2/5/2021 3:15:00 AM -0.06 31.892 0.1 6.83 1.78 13.73
2/5/2021 3:30:00 AM -0.06 31.892 0.1 6.83 1.7 13.73
2/5/2021 3:45:00 AM -0.06 31.892 0.1 6.83 1.72 13.72
2/5/2021 4:00:00 AM -0.06 31.892 0.1 6.83 1.74 13.71
2/5/2021 4:15:00 AM -0.06 31.892 0.1 6.83 1.74 13.71
2/5/2021 4:30:00 AM -0.06 31.892 0.1 6.83 1.74 13.7
2/5/2021 4:45:00 AM -0.06 31.892 0.1 6.83 1.73 13.7
2/5/2021 5:00:00 AM -0.06 31.892 0.1 6.83 1.74 13.69
2/5/2021 5:15:00 AM -0.06 31.892 0.1 6.83 1.74 13.69
2/5/2021 5:30:00 AM -0.06 31.892 0.1 6.83 1.73 13.68
2/5/2021 5:45:00 AM -0.06 31.892 0.1 6.83 1.74 13.68
2/5/2021 6:00:00 AM -0.06 31.892 0.1 6.83 1.69 13.67
2/5/2021 6:15:00 AM -0.06 31.892 0.1 6.83 1.72 13.67
2/5/2021 6:30:00 AM -0.05 31.91 0.1 6.83 1.74 13.67
2/5/2021 6:45:00 AM -0.06 31.892 0.099 6.84 1.71 13.66
2/5/2021 7:00:00 AM -0.06 31.892 0.099 6.83 1.68 13.66
2/5/2021 7:15:00 AM -0.06 31.892 0.099 6.84 1.73 13.66
2/5/2021 7:30:00 AM -0.05 31.91 0.099 6.84 1.72 13.67
2/5/2021 7:45:00 AM -0.05 31.91 0.099 6.84 1.69 13.68
2/5/2021 8:00:00 AM -0.05 31.91 0.099 6.84 1.71 13.71
2/5/2021 8:15:00 AM -0.04 31.928 0.099 6.85 1.68 13.75
2/5/2021 8:30:00 AM -0.03 31.946 0.099 6.86 1.71 13.79
2/5/2021 8:45:00 AM -0.04 31.928 0.099 6.86 1.69 13.83
2/5/2021 9:00:00 AM -0.04 31.928 0.099 6.86 1.73 13.86
2/5/2021 9:15:00 AM -0.04 31.928 0.099 6.86 1.69 13.89
2/5/2021 9:30:00 AM -0.03 31.946 0.099 6.87 1.71 13.93
2/5/2021 9:45:00 AM -0.03 31.946 0.099 6.88 1.71 13.97